<?xml version="1.0" encoding="UTF-8"?>
<gpx xmlns:xsi="http://www.w3.org/2001/XMLSchema-instance" xsi:schemaLocation="http://www.topografix.com/GPX/1/1 http://www.topografix.com/GPX/1/1/gpx.xsd" creator="StravaGPX" version="1.1" xmlns="http://www.topografix.com/GPX/1/1">
 <metadata>
  <time>2025-04-24T12:24:33Z</time>
 </metadata>
 <trk>
  <name>Hills and flowers with Val</name>
  <type>walking</type>
  <trkseg>
   <trkpt lat="53.4511190" lon="-6.1570420">
    <ele>10.3</ele>
    <time>2025-04-24T12:24:33Z</time>
   </trkpt>
   <trkpt lat="53.4511660" lon="-6.1570390">
    <ele>10.0</ele>
    <time>2025-04-24T12:24:39Z</time>
   </trkpt>
   <trkpt lat="53.4511700" lon="-6.1571510">
    <ele>9.8</ele>
    <time>2025-04-24T12:24:44Z</time>
   </trkpt>
   <trkpt lat="53.4511310" lon="-6.1572610">
    <ele>9.6</ele>
    <time>2025-04-24T12:24:49Z</time>
   </trkpt>
   <trkpt lat="53.4510960" lon="-6.1573360">
    <ele>9.7</ele>
    <time>2025-04-24T12:24:54Z</time>
   </trkpt>
   <trkpt lat="53.4510590" lon="-6.1573900">
    <ele>9.7</ele>
    <time>2025-04-24T12:25:03Z</time>
   </trkpt>
   <trkpt lat="53.4510200" lon="-6.1574890">
    <ele>9.9</ele>
    <time>2025-04-24T12:25:08Z</time>
   </trkpt>
   <trkpt lat="53.4510250" lon="-6.1576090">
    <ele>9.9</ele>
    <time>2025-04-24T12:25:13Z</time>
   </trkpt>
   <trkpt lat="53.4510410" lon="-6.1577270">
    <ele>9.8</ele>
    <time>2025-04-24T12:25:19Z</time>
   </trkpt>
   <trkpt lat="53.4510440" lon="-6.1578450">
    <ele>9.6</ele>
    <time>2025-04-24T12:25:24Z</time>
   </trkpt>
   <trkpt lat="53.4510050" lon="-6.1579520">
    <ele>9.6</ele>
    <time>2025-04-24T12:25:29Z</time>
   </trkpt>
   <trkpt lat="53.4509940" lon="-6.1580530">
    <ele>9.5</ele>
    <time>2025-04-24T12:25:34Z</time>
   </trkpt>
   <trkpt lat="53.4509490" lon="-6.1581320">
    <ele>9.6</ele>
    <time>2025-04-24T12:25:40Z</time>
   </trkpt>
   <trkpt lat="53.4509620" lon="-6.1582210">
    <ele>9.6</ele>
    <time>2025-04-24T12:25:45Z</time>
   </trkpt>
   <trkpt lat="53.4509870" lon="-6.1583170">
    <ele>9.5</ele>
    <time>2025-04-24T12:25:50Z</time>
   </trkpt>
   <trkpt lat="53.4509570" lon="-6.1583750">
    <ele>9.5</ele>
    <time>2025-04-24T12:25:55Z</time>
   </trkpt>
   <trkpt lat="53.4509110" lon="-6.1583970">
    <ele>9.6</ele>
    <time>2025-04-24T12:26:26Z</time>
   </trkpt>
   <trkpt lat="53.4508540" lon="-6.1584950">
    <ele>9.8</ele>
    <time>2025-04-24T12:26:31Z</time>
   </trkpt>
   <trkpt lat="53.4508060" lon="-6.1585910">
    <ele>10.1</ele>
    <time>2025-04-24T12:26:36Z</time>
   </trkpt>
   <trkpt lat="53.4507400" lon="-6.1586210">
    <ele>10.4</ele>
    <time>2025-04-24T12:26:42Z</time>
   </trkpt>
   <trkpt lat="53.4506560" lon="-6.1586390">
    <ele>10.8</ele>
    <time>2025-04-24T12:26:47Z</time>
   </trkpt>
   <trkpt lat="53.4505770" lon="-6.1586770">
    <ele>11.1</ele>
    <time>2025-04-24T12:26:52Z</time>
   </trkpt>
   <trkpt lat="53.4505090" lon="-6.1586920">
    <ele>11.5</ele>
    <time>2025-04-24T12:26:57Z</time>
   </trkpt>
   <trkpt lat="53.4504530" lon="-6.1586660">
    <ele>11.8</ele>
    <time>2025-04-24T12:27:02Z</time>
   </trkpt>
   <trkpt lat="53.4504010" lon="-6.1586770">
    <ele>12.1</ele>
    <time>2025-04-24T12:27:08Z</time>
   </trkpt>
   <trkpt lat="53.4503260" lon="-6.1587070">
    <ele>12.4</ele>
    <time>2025-04-24T12:27:14Z</time>
   </trkpt>
   <trkpt lat="53.4503090" lon="-6.1588320">
    <ele>12.6</ele>
    <time>2025-04-24T12:27:19Z</time>
   </trkpt>
   <trkpt lat="53.4503140" lon="-6.1589550">
    <ele>12.8</ele>
    <time>2025-04-24T12:27:24Z</time>
   </trkpt>
   <trkpt lat="53.4503020" lon="-6.1590520">
    <ele>12.9</ele>
    <time>2025-04-24T12:27:30Z</time>
   </trkpt>
   <trkpt lat="53.4502430" lon="-6.1590880">
    <ele>13.0</ele>
    <time>2025-04-24T12:27:35Z</time>
   </trkpt>
   <trkpt lat="53.4501670" lon="-6.1590880">
    <ele>13.2</ele>
    <time>2025-04-24T12:27:41Z</time>
   </trkpt>
   <trkpt lat="53.4501070" lon="-6.1590690">
    <ele>13.4</ele>
    <time>2025-04-24T12:27:46Z</time>
   </trkpt>
   <trkpt lat="53.4500450" lon="-6.1590440">
    <ele>13.6</ele>
    <time>2025-04-24T12:27:51Z</time>
   </trkpt>
   <trkpt lat="53.4500330" lon="-6.1589550">
    <ele>13.8</ele>
    <time>2025-04-24T12:28:07Z</time>
   </trkpt>
   <trkpt lat="53.4499900" lon="-6.1588280">
    <ele>13.9</ele>
    <time>2025-04-24T12:28:12Z</time>
   </trkpt>
   <trkpt lat="53.4499620" lon="-6.1586940">
    <ele>14.0</ele>
    <time>2025-04-24T12:28:17Z</time>
   </trkpt>
   <trkpt lat="53.4499470" lon="-6.1585990">
    <ele>14.1</ele>
    <time>2025-04-24T12:28:22Z</time>
   </trkpt>
   <trkpt lat="53.4499730" lon="-6.1585380">
    <ele>14.2</ele>
    <time>2025-04-24T12:28:45Z</time>
   </trkpt>
   <trkpt lat="53.4499930" lon="-6.1584070">
    <ele>14.1</ele>
    <time>2025-04-24T12:28:50Z</time>
   </trkpt>
   <trkpt lat="53.4499620" lon="-6.1582740">
    <ele>14.1</ele>
    <time>2025-04-24T12:28:55Z</time>
   </trkpt>
   <trkpt lat="53.4499230" lon="-6.1582110">
    <ele>14.2</ele>
    <time>2025-04-24T12:29:01Z</time>
   </trkpt>
   <trkpt lat="53.4499430" lon="-6.1581370">
    <ele>14.2</ele>
    <time>2025-04-24T12:29:38Z</time>
   </trkpt>
   <trkpt lat="53.4499660" lon="-6.1580120">
    <ele>14.2</ele>
    <time>2025-04-24T12:29:43Z</time>
   </trkpt>
   <trkpt lat="53.4498790" lon="-6.1579290">
    <ele>14.3</ele>
    <time>2025-04-24T12:29:49Z</time>
   </trkpt>
   <trkpt lat="53.4497980" lon="-6.1579190">
    <ele>14.4</ele>
    <time>2025-04-24T12:29:55Z</time>
   </trkpt>
   <trkpt lat="53.4498410" lon="-6.1578750">
    <ele>14.5</ele>
    <time>2025-04-24T12:30:04Z</time>
   </trkpt>
   <trkpt lat="53.4498900" lon="-6.1577790">
    <ele>14.4</ele>
    <time>2025-04-24T12:30:09Z</time>
   </trkpt>
   <trkpt lat="53.4498950" lon="-6.1576380">
    <ele>14.3</ele>
    <time>2025-04-24T12:30:14Z</time>
   </trkpt>
   <trkpt lat="53.4498660" lon="-6.1574570">
    <ele>14.3</ele>
    <time>2025-04-24T12:30:19Z</time>
   </trkpt>
   <trkpt lat="53.4498610" lon="-6.1573080">
    <ele>14.3</ele>
    <time>2025-04-24T12:30:24Z</time>
   </trkpt>
   <trkpt lat="53.4498640" lon="-6.1571550">
    <ele>14.2</ele>
    <time>2025-04-24T12:30:30Z</time>
   </trkpt>
   <trkpt lat="53.4499110" lon="-6.1570570">
    <ele>14.2</ele>
    <time>2025-04-24T12:30:36Z</time>
   </trkpt>
   <trkpt lat="53.4499820" lon="-6.1570380">
    <ele>14.1</ele>
    <time>2025-04-24T12:30:41Z</time>
   </trkpt>
   <trkpt lat="53.4500420" lon="-6.1569900">
    <ele>14.0</ele>
    <time>2025-04-24T12:30:46Z</time>
   </trkpt>
   <trkpt lat="53.4500000" lon="-6.1569570">
    <ele>14.0</ele>
    <time>2025-04-24T12:31:54Z</time>
   </trkpt>
   <trkpt lat="53.4500190" lon="-6.1568850">
    <ele>14.0</ele>
    <time>2025-04-24T12:32:09Z</time>
   </trkpt>
   <trkpt lat="53.4499860" lon="-6.1569630">
    <ele>14.0</ele>
    <time>2025-04-24T12:32:34Z</time>
   </trkpt>
   <trkpt lat="53.4499010" lon="-6.1570420">
    <ele>14.1</ele>
    <time>2025-04-24T12:32:39Z</time>
   </trkpt>
   <trkpt lat="53.4498330" lon="-6.1570460">
    <ele>14.1</ele>
    <time>2025-04-24T12:32:45Z</time>
   </trkpt>
   <trkpt lat="53.4497760" lon="-6.1570200">
    <ele>14.2</ele>
    <time>2025-04-24T12:32:50Z</time>
   </trkpt>
   <trkpt lat="53.4497190" lon="-6.1570310">
    <ele>14.2</ele>
    <time>2025-04-24T12:32:55Z</time>
   </trkpt>
   <trkpt lat="53.4496660" lon="-6.1570680">
    <ele>14.2</ele>
    <time>2025-04-24T12:33:00Z</time>
   </trkpt>
   <trkpt lat="53.4496230" lon="-6.1571180">
    <ele>14.3</ele>
    <time>2025-04-24T12:33:07Z</time>
   </trkpt>
   <trkpt lat="53.4495960" lon="-6.1572080">
    <ele>14.3</ele>
    <time>2025-04-24T12:33:12Z</time>
   </trkpt>
   <trkpt lat="53.4496010" lon="-6.1572990">
    <ele>14.4</ele>
    <time>2025-04-24T12:33:17Z</time>
   </trkpt>
   <trkpt lat="53.4496140" lon="-6.1574100">
    <ele>14.5</ele>
    <time>2025-04-24T12:33:22Z</time>
   </trkpt>
   <trkpt lat="53.4496150" lon="-6.1575300">
    <ele>14.6</ele>
    <time>2025-04-24T12:33:27Z</time>
   </trkpt>
   <trkpt lat="53.4496090" lon="-6.1576080">
    <ele>14.7</ele>
    <time>2025-04-24T12:33:33Z</time>
   </trkpt>
   <trkpt lat="53.4496060" lon="-6.1576920">
    <ele>14.8</ele>
    <time>2025-04-24T12:33:38Z</time>
   </trkpt>
   <trkpt lat="53.4496090" lon="-6.1577710">
    <ele>14.9</ele>
    <time>2025-04-24T12:33:44Z</time>
   </trkpt>
   <trkpt lat="53.4495820" lon="-6.1578790">
    <ele>15.0</ele>
    <time>2025-04-24T12:33:49Z</time>
   </trkpt>
   <trkpt lat="53.4495550" lon="-6.1580270">
    <ele>15.2</ele>
    <time>2025-04-24T12:33:54Z</time>
   </trkpt>
   <trkpt lat="53.4495400" lon="-6.1581640">
    <ele>15.4</ele>
    <time>2025-04-24T12:33:59Z</time>
   </trkpt>
   <trkpt lat="53.4494870" lon="-6.1582200">
    <ele>15.6</ele>
    <time>2025-04-24T12:34:05Z</time>
   </trkpt>
   <trkpt lat="53.4494300" lon="-6.1582540">
    <ele>15.9</ele>
    <time>2025-04-24T12:34:10Z</time>
   </trkpt>
   <trkpt lat="53.4493470" lon="-6.1582540">
    <ele>16.1</ele>
    <time>2025-04-24T12:34:15Z</time>
   </trkpt>
   <trkpt lat="53.4492680" lon="-6.1582600">
    <ele>16.4</ele>
    <time>2025-04-24T12:34:20Z</time>
   </trkpt>
   <trkpt lat="53.4492000" lon="-6.1582840">
    <ele>16.6</ele>
    <time>2025-04-24T12:34:25Z</time>
   </trkpt>
   <trkpt lat="53.4491350" lon="-6.1583030">
    <ele>16.8</ele>
    <time>2025-04-24T12:34:30Z</time>
   </trkpt>
   <trkpt lat="53.4490740" lon="-6.1583360">
    <ele>17.0</ele>
    <time>2025-04-24T12:34:36Z</time>
   </trkpt>
   <trkpt lat="53.4490000" lon="-6.1583210">
    <ele>17.3</ele>
    <time>2025-04-24T12:34:41Z</time>
   </trkpt>
   <trkpt lat="53.4489290" lon="-6.1583200">
    <ele>17.5</ele>
    <time>2025-04-24T12:34:46Z</time>
   </trkpt>
   <trkpt lat="53.4488610" lon="-6.1583160">
    <ele>17.6</ele>
    <time>2025-04-24T12:34:51Z</time>
   </trkpt>
   <trkpt lat="53.4487770" lon="-6.1583170">
    <ele>17.8</ele>
    <time>2025-04-24T12:34:57Z</time>
   </trkpt>
   <trkpt lat="53.4487220" lon="-6.1583290">
    <ele>18.0</ele>
    <time>2025-04-24T12:35:02Z</time>
   </trkpt>
   <trkpt lat="53.4486710" lon="-6.1583300">
    <ele>18.2</ele>
    <time>2025-04-24T12:35:07Z</time>
   </trkpt>
   <trkpt lat="53.4485960" lon="-6.1583430">
    <ele>18.3</ele>
    <time>2025-04-24T12:35:12Z</time>
   </trkpt>
   <trkpt lat="53.4485150" lon="-6.1583620">
    <ele>18.5</ele>
    <time>2025-04-24T12:35:17Z</time>
   </trkpt>
   <trkpt lat="53.4484500" lon="-6.1583600">
    <ele>18.7</ele>
    <time>2025-04-24T12:35:23Z</time>
   </trkpt>
   <trkpt lat="53.4483930" lon="-6.1583670">
    <ele>18.8</ele>
    <time>2025-04-24T12:35:28Z</time>
   </trkpt>
   <trkpt lat="53.4483320" lon="-6.1583670">
    <ele>19.0</ele>
    <time>2025-04-24T12:35:33Z</time>
   </trkpt>
   <trkpt lat="53.4482720" lon="-6.1583560">
    <ele>19.1</ele>
    <time>2025-04-24T12:35:38Z</time>
   </trkpt>
   <trkpt lat="53.4482050" lon="-6.1583440">
    <ele>19.1</ele>
    <time>2025-04-24T12:35:44Z</time>
   </trkpt>
   <trkpt lat="53.4481300" lon="-6.1583680">
    <ele>19.3</ele>
    <time>2025-04-24T12:35:49Z</time>
   </trkpt>
   <trkpt lat="53.4480720" lon="-6.1583820">
    <ele>19.4</ele>
    <time>2025-04-24T12:35:54Z</time>
   </trkpt>
   <trkpt lat="53.4480120" lon="-6.1583670">
    <ele>19.5</ele>
    <time>2025-04-24T12:35:59Z</time>
   </trkpt>
   <trkpt lat="53.4479580" lon="-6.1583440">
    <ele>19.5</ele>
    <time>2025-04-24T12:36:05Z</time>
   </trkpt>
   <trkpt lat="53.4478810" lon="-6.1583770">
    <ele>19.6</ele>
    <time>2025-04-24T12:36:10Z</time>
   </trkpt>
   <trkpt lat="53.4478320" lon="-6.1583820">
    <ele>19.7</ele>
    <time>2025-04-24T12:36:15Z</time>
   </trkpt>
   <trkpt lat="53.4477610" lon="-6.1583860">
    <ele>19.7</ele>
    <time>2025-04-24T12:36:20Z</time>
   </trkpt>
   <trkpt lat="53.4476910" lon="-6.1584270">
    <ele>19.8</ele>
    <time>2025-04-24T12:36:25Z</time>
   </trkpt>
   <trkpt lat="53.4476350" lon="-6.1584400">
    <ele>19.9</ele>
    <time>2025-04-24T12:36:31Z</time>
   </trkpt>
   <trkpt lat="53.4475690" lon="-6.1584330">
    <ele>20.0</ele>
    <time>2025-04-24T12:36:36Z</time>
   </trkpt>
   <trkpt lat="53.4475110" lon="-6.1584270">
    <ele>20.0</ele>
    <time>2025-04-24T12:36:42Z</time>
   </trkpt>
   <trkpt lat="53.4474580" lon="-6.1584390">
    <ele>20.1</ele>
    <time>2025-04-24T12:36:47Z</time>
   </trkpt>
   <trkpt lat="53.4473890" lon="-6.1584620">
    <ele>20.2</ele>
    <time>2025-04-24T12:36:52Z</time>
   </trkpt>
   <trkpt lat="53.4473300" lon="-6.1584640">
    <ele>20.2</ele>
    <time>2025-04-24T12:36:58Z</time>
   </trkpt>
   <trkpt lat="53.4472690" lon="-6.1584230">
    <ele>20.2</ele>
    <time>2025-04-24T12:37:03Z</time>
   </trkpt>
   <trkpt lat="53.4472020" lon="-6.1584270">
    <ele>20.2</ele>
    <time>2025-04-24T12:37:09Z</time>
   </trkpt>
   <trkpt lat="53.4471460" lon="-6.1584290">
    <ele>20.2</ele>
    <time>2025-04-24T12:37:14Z</time>
   </trkpt>
   <trkpt lat="53.4470790" lon="-6.1584080">
    <ele>20.2</ele>
    <time>2025-04-24T12:37:20Z</time>
   </trkpt>
   <trkpt lat="53.4470200" lon="-6.1584510">
    <ele>20.3</ele>
    <time>2025-04-24T12:37:25Z</time>
   </trkpt>
   <trkpt lat="53.4469690" lon="-6.1584940">
    <ele>20.3</ele>
    <time>2025-04-24T12:37:31Z</time>
   </trkpt>
   <trkpt lat="53.4469030" lon="-6.1585040">
    <ele>20.4</ele>
    <time>2025-04-24T12:37:36Z</time>
   </trkpt>
   <trkpt lat="53.4468390" lon="-6.1584790">
    <ele>20.5</ele>
    <time>2025-04-24T12:37:42Z</time>
   </trkpt>
   <trkpt lat="53.4467730" lon="-6.1584730">
    <ele>20.6</ele>
    <time>2025-04-24T12:37:47Z</time>
   </trkpt>
   <trkpt lat="53.4467150" lon="-6.1584720">
    <ele>20.8</ele>
    <time>2025-04-24T12:37:52Z</time>
   </trkpt>
   <trkpt lat="53.4466540" lon="-6.1584600">
    <ele>21.0</ele>
    <time>2025-04-24T12:37:58Z</time>
   </trkpt>
   <trkpt lat="53.4466000" lon="-6.1584350">
    <ele>21.2</ele>
    <time>2025-04-24T12:38:03Z</time>
   </trkpt>
   <trkpt lat="53.4465500" lon="-6.1583730">
    <ele>21.5</ele>
    <time>2025-04-24T12:38:09Z</time>
   </trkpt>
   <trkpt lat="53.4465060" lon="-6.1583010">
    <ele>21.7</ele>
    <time>2025-04-24T12:38:14Z</time>
   </trkpt>
   <trkpt lat="53.4464560" lon="-6.1582470">
    <ele>21.9</ele>
    <time>2025-04-24T12:38:19Z</time>
   </trkpt>
   <trkpt lat="53.4464150" lon="-6.1581850">
    <ele>22.1</ele>
    <time>2025-04-24T12:38:25Z</time>
   </trkpt>
   <trkpt lat="53.4463680" lon="-6.1581270">
    <ele>22.2</ele>
    <time>2025-04-24T12:38:30Z</time>
   </trkpt>
   <trkpt lat="53.4462970" lon="-6.1580950">
    <ele>22.3</ele>
    <time>2025-04-24T12:38:35Z</time>
   </trkpt>
   <trkpt lat="53.4462240" lon="-6.1580890">
    <ele>22.7</ele>
    <time>2025-04-24T12:38:41Z</time>
   </trkpt>
   <trkpt lat="53.4461720" lon="-6.1580780">
    <ele>23.1</ele>
    <time>2025-04-24T12:38:46Z</time>
   </trkpt>
   <trkpt lat="53.4461200" lon="-6.1580690">
    <ele>23.4</ele>
    <time>2025-04-24T12:38:51Z</time>
   </trkpt>
   <trkpt lat="53.4460300" lon="-6.1580620">
    <ele>23.9</ele>
    <time>2025-04-24T12:38:56Z</time>
   </trkpt>
   <trkpt lat="53.4459760" lon="-6.1580460">
    <ele>24.4</ele>
    <time>2025-04-24T12:39:01Z</time>
   </trkpt>
   <trkpt lat="53.4459270" lon="-6.1580440">
    <ele>24.7</ele>
    <time>2025-04-24T12:39:08Z</time>
   </trkpt>
   <trkpt lat="53.4458870" lon="-6.1580890">
    <ele>25.3</ele>
    <time>2025-04-24T12:39:15Z</time>
   </trkpt>
   <trkpt lat="53.4458420" lon="-6.1580720">
    <ele>25.8</ele>
    <time>2025-04-24T12:39:23Z</time>
   </trkpt>
   <trkpt lat="53.4457970" lon="-6.1580650">
    <ele>26.0</ele>
    <time>2025-04-24T12:39:39Z</time>
   </trkpt>
   <trkpt lat="53.4457310" lon="-6.1580580">
    <ele>26.1</ele>
    <time>2025-04-24T12:39:46Z</time>
   </trkpt>
   <trkpt lat="53.4455440" lon="-6.1580080">
    <ele>26.6</ele>
    <time>2025-04-24T12:39:51Z</time>
   </trkpt>
   <trkpt lat="53.4454970" lon="-6.1580010">
    <ele>26.9</ele>
    <time>2025-04-24T12:39:56Z</time>
   </trkpt>
   <trkpt lat="53.4454250" lon="-6.1579840">
    <ele>27.2</ele>
    <time>2025-04-24T12:40:04Z</time>
   </trkpt>
   <trkpt lat="53.4452780" lon="-6.1579350">
    <ele>27.2</ele>
    <time>2025-04-24T12:40:09Z</time>
   </trkpt>
   <trkpt lat="53.4452650" lon="-6.1580100">
    <ele>28.0</ele>
    <time>2025-04-24T12:40:21Z</time>
   </trkpt>
   <trkpt lat="53.4452200" lon="-6.1579880">
    <ele>28.6</ele>
    <time>2025-04-24T12:40:38Z</time>
   </trkpt>
   <trkpt lat="53.4451760" lon="-6.1579520">
    <ele>28.2</ele>
    <time>2025-04-24T12:40:50Z</time>
   </trkpt>
   <trkpt lat="53.4451220" lon="-6.1579220">
    <ele>28.1</ele>
    <time>2025-04-24T12:40:56Z</time>
   </trkpt>
   <trkpt lat="53.4450750" lon="-6.1578920">
    <ele>27.8</ele>
    <time>2025-04-24T12:41:01Z</time>
   </trkpt>
   <trkpt lat="53.4450320" lon="-6.1578690">
    <ele>27.5</ele>
    <time>2025-04-24T12:41:07Z</time>
   </trkpt>
   <trkpt lat="53.4449870" lon="-6.1578660">
    <ele>27.4</ele>
    <time>2025-04-24T12:41:13Z</time>
   </trkpt>
   <trkpt lat="53.4448970" lon="-6.1578450">
    <ele>27.4</ele>
    <time>2025-04-24T12:41:18Z</time>
   </trkpt>
   <trkpt lat="53.4448390" lon="-6.1578530">
    <ele>27.4</ele>
    <time>2025-04-24T12:41:23Z</time>
   </trkpt>
   <trkpt lat="53.4447920" lon="-6.1578780">
    <ele>27.7</ele>
    <time>2025-04-24T12:41:29Z</time>
   </trkpt>
   <trkpt lat="53.4446230" lon="-6.1578460">
    <ele>27.9</ele>
    <time>2025-04-24T12:41:34Z</time>
   </trkpt>
   <trkpt lat="53.4444980" lon="-6.1578060">
    <ele>27.7</ele>
    <time>2025-04-24T12:41:39Z</time>
   </trkpt>
   <trkpt lat="53.4444030" lon="-6.1578150">
    <ele>27.7</ele>
    <time>2025-04-24T12:41:45Z</time>
   </trkpt>
   <trkpt lat="53.4443170" lon="-6.1578260">
    <ele>27.7</ele>
    <time>2025-04-24T12:41:50Z</time>
   </trkpt>
   <trkpt lat="53.4441900" lon="-6.1580410">
    <ele>28.5</ele>
    <time>2025-04-24T12:41:55Z</time>
   </trkpt>
   <trkpt lat="53.4441350" lon="-6.1580670">
    <ele>28.8</ele>
    <time>2025-04-24T12:42:00Z</time>
   </trkpt>
   <trkpt lat="53.4440740" lon="-6.1581090">
    <ele>28.9</ele>
    <time>2025-04-24T12:42:06Z</time>
   </trkpt>
   <trkpt lat="53.4439880" lon="-6.1580660">
    <ele>28.8</ele>
    <time>2025-04-24T12:42:11Z</time>
   </trkpt>
   <trkpt lat="53.4438880" lon="-6.1580410">
    <ele>28.4</ele>
    <time>2025-04-24T12:42:16Z</time>
   </trkpt>
   <trkpt lat="53.4438220" lon="-6.1579890">
    <ele>27.9</ele>
    <time>2025-04-24T12:42:21Z</time>
   </trkpt>
   <trkpt lat="53.4437390" lon="-6.1579250">
    <ele>27.4</ele>
    <time>2025-04-24T12:42:26Z</time>
   </trkpt>
   <trkpt lat="53.4436710" lon="-6.1578760">
    <ele>27.0</ele>
    <time>2025-04-24T12:42:31Z</time>
   </trkpt>
   <trkpt lat="53.4435970" lon="-6.1578160">
    <ele>26.6</ele>
    <time>2025-04-24T12:42:37Z</time>
   </trkpt>
   <trkpt lat="53.4435310" lon="-6.1577710">
    <ele>26.2</ele>
    <time>2025-04-24T12:42:42Z</time>
   </trkpt>
   <trkpt lat="53.4434600" lon="-6.1577540">
    <ele>25.9</ele>
    <time>2025-04-24T12:42:47Z</time>
   </trkpt>
   <trkpt lat="53.4433780" lon="-6.1577550">
    <ele>25.6</ele>
    <time>2025-04-24T12:42:52Z</time>
   </trkpt>
   <trkpt lat="53.4433180" lon="-6.1577520">
    <ele>25.4</ele>
    <time>2025-04-24T12:42:57Z</time>
   </trkpt>
   <trkpt lat="53.4432550" lon="-6.1577610">
    <ele>25.2</ele>
    <time>2025-04-24T12:43:02Z</time>
   </trkpt>
   <trkpt lat="53.4432100" lon="-6.1577230">
    <ele>25.0</ele>
    <time>2025-04-24T12:43:10Z</time>
   </trkpt>
   <trkpt lat="53.4431360" lon="-6.1576400">
    <ele>24.9</ele>
    <time>2025-04-24T12:43:15Z</time>
   </trkpt>
   <trkpt lat="53.4430700" lon="-6.1576130">
    <ele>24.7</ele>
    <time>2025-04-24T12:43:20Z</time>
   </trkpt>
   <trkpt lat="53.4429870" lon="-6.1576090">
    <ele>24.5</ele>
    <time>2025-04-24T12:43:25Z</time>
   </trkpt>
   <trkpt lat="53.4429270" lon="-6.1576130">
    <ele>24.3</ele>
    <time>2025-04-24T12:43:30Z</time>
   </trkpt>
   <trkpt lat="53.4429050" lon="-6.1575390">
    <ele>24.2</ele>
    <time>2025-04-24T12:43:36Z</time>
   </trkpt>
   <trkpt lat="53.4429260" lon="-6.1574520">
    <ele>24.1</ele>
    <time>2025-04-24T12:43:41Z</time>
   </trkpt>
   <trkpt lat="53.4429720" lon="-6.1574830">
    <ele>24.1</ele>
    <time>2025-04-24T12:43:46Z</time>
   </trkpt>
   <trkpt lat="53.4430490" lon="-6.1574820">
    <ele>24.2</ele>
    <time>2025-04-24T12:43:51Z</time>
   </trkpt>
   <trkpt lat="53.4430080" lon="-6.1574350">
    <ele>24.3</ele>
    <time>2025-04-24T12:43:59Z</time>
   </trkpt>
   <trkpt lat="53.4429220" lon="-6.1574010">
    <ele>24.1</ele>
    <time>2025-04-24T12:44:05Z</time>
   </trkpt>
   <trkpt lat="53.4428360" lon="-6.1573280">
    <ele>23.9</ele>
    <time>2025-04-24T12:44:10Z</time>
   </trkpt>
   <trkpt lat="53.4427610" lon="-6.1572660">
    <ele>23.5</ele>
    <time>2025-04-24T12:44:15Z</time>
   </trkpt>
   <trkpt lat="53.4427360" lon="-6.1571300">
    <ele>23.1</ele>
    <time>2025-04-24T12:44:20Z</time>
   </trkpt>
   <trkpt lat="53.4427710" lon="-6.1570060">
    <ele>22.7</ele>
    <time>2025-04-24T12:44:25Z</time>
   </trkpt>
   <trkpt lat="53.4428260" lon="-6.1569220">
    <ele>22.5</ele>
    <time>2025-04-24T12:44:30Z</time>
   </trkpt>
   <trkpt lat="53.4428650" lon="-6.1568040">
    <ele>22.2</ele>
    <time>2025-04-24T12:44:36Z</time>
   </trkpt>
   <trkpt lat="53.4429160" lon="-6.1566920">
    <ele>22.1</ele>
    <time>2025-04-24T12:44:41Z</time>
   </trkpt>
   <trkpt lat="53.4429590" lon="-6.1565840">
    <ele>22.1</ele>
    <time>2025-04-24T12:44:46Z</time>
   </trkpt>
   <trkpt lat="53.4430030" lon="-6.1564760">
    <ele>22.1</ele>
    <time>2025-04-24T12:44:52Z</time>
   </trkpt>
   <trkpt lat="53.4430200" lon="-6.1563960">
    <ele>22.3</ele>
    <time>2025-04-24T12:44:57Z</time>
   </trkpt>
   <trkpt lat="53.4429580" lon="-6.1563340">
    <ele>22.3</ele>
    <time>2025-04-24T12:45:03Z</time>
   </trkpt>
   <trkpt lat="53.4429410" lon="-6.1562250">
    <ele>22.3</ele>
    <time>2025-04-24T12:45:08Z</time>
   </trkpt>
   <trkpt lat="53.4429360" lon="-6.1561320">
    <ele>22.4</ele>
    <time>2025-04-24T12:45:13Z</time>
   </trkpt>
   <trkpt lat="53.4429220" lon="-6.1560450">
    <ele>22.5</ele>
    <time>2025-04-24T12:45:19Z</time>
   </trkpt>
   <trkpt lat="53.4428510" lon="-6.1560010">
    <ele>22.5</ele>
    <time>2025-04-24T12:45:24Z</time>
   </trkpt>
   <trkpt lat="53.4427810" lon="-6.1559930">
    <ele>22.4</ele>
    <time>2025-04-24T12:45:29Z</time>
   </trkpt>
   <trkpt lat="53.4427340" lon="-6.1559530">
    <ele>22.3</ele>
    <time>2025-04-24T12:45:34Z</time>
   </trkpt>
   <trkpt lat="53.4426890" lon="-6.1559010">
    <ele>22.3</ele>
    <time>2025-04-24T12:45:40Z</time>
   </trkpt>
   <trkpt lat="53.4426210" lon="-6.1558630">
    <ele>22.2</ele>
    <time>2025-04-24T12:45:45Z</time>
   </trkpt>
   <trkpt lat="53.4425590" lon="-6.1558340">
    <ele>22.1</ele>
    <time>2025-04-24T12:45:50Z</time>
   </trkpt>
   <trkpt lat="53.4425200" lon="-6.1557640">
    <ele>22.1</ele>
    <time>2025-04-24T12:45:55Z</time>
   </trkpt>
   <trkpt lat="53.4424930" lon="-6.1556690">
    <ele>22.2</ele>
    <time>2025-04-24T12:46:00Z</time>
   </trkpt>
   <trkpt lat="53.4424620" lon="-6.1555820">
    <ele>22.4</ele>
    <time>2025-04-24T12:46:05Z</time>
   </trkpt>
   <trkpt lat="53.4424340" lon="-6.1554810">
    <ele>22.6</ele>
    <time>2025-04-24T12:46:10Z</time>
   </trkpt>
   <trkpt lat="53.4423920" lon="-6.1554030">
    <ele>22.8</ele>
    <time>2025-04-24T12:46:16Z</time>
   </trkpt>
   <trkpt lat="53.4423570" lon="-6.1553350">
    <ele>23.0</ele>
    <time>2025-04-24T12:46:21Z</time>
   </trkpt>
   <trkpt lat="53.4423360" lon="-6.1552190">
    <ele>23.2</ele>
    <time>2025-04-24T12:46:27Z</time>
   </trkpt>
   <trkpt lat="53.4422930" lon="-6.1551340">
    <ele>23.4</ele>
    <time>2025-04-24T12:46:32Z</time>
   </trkpt>
   <trkpt lat="53.4422640" lon="-6.1550440">
    <ele>23.6</ele>
    <time>2025-04-24T12:46:37Z</time>
   </trkpt>
   <trkpt lat="53.4422130" lon="-6.1549670">
    <ele>23.7</ele>
    <time>2025-04-24T12:46:43Z</time>
   </trkpt>
   <trkpt lat="53.4421810" lon="-6.1548750">
    <ele>23.8</ele>
    <time>2025-04-24T12:46:48Z</time>
   </trkpt>
   <trkpt lat="53.4421640" lon="-6.1547790">
    <ele>23.8</ele>
    <time>2025-04-24T12:46:53Z</time>
   </trkpt>
   <trkpt lat="53.4421620" lon="-6.1546770">
    <ele>23.9</ele>
    <time>2025-04-24T12:46:58Z</time>
   </trkpt>
   <trkpt lat="53.4421510" lon="-6.1545740">
    <ele>23.9</ele>
    <time>2025-04-24T12:47:03Z</time>
   </trkpt>
   <trkpt lat="53.4421430" lon="-6.1544710">
    <ele>24.0</ele>
    <time>2025-04-24T12:47:08Z</time>
   </trkpt>
   <trkpt lat="53.4421320" lon="-6.1543710">
    <ele>24.0</ele>
    <time>2025-04-24T12:47:13Z</time>
   </trkpt>
   <trkpt lat="53.4421130" lon="-6.1542750">
    <ele>24.0</ele>
    <time>2025-04-24T12:47:19Z</time>
   </trkpt>
   <trkpt lat="53.4421230" lon="-6.1541670">
    <ele>24.0</ele>
    <time>2025-04-24T12:47:24Z</time>
   </trkpt>
   <trkpt lat="53.4421550" lon="-6.1540590">
    <ele>24.0</ele>
    <time>2025-04-24T12:47:29Z</time>
   </trkpt>
   <trkpt lat="53.4421560" lon="-6.1539580">
    <ele>24.0</ele>
    <time>2025-04-24T12:47:34Z</time>
   </trkpt>
   <trkpt lat="53.4421480" lon="-6.1538520">
    <ele>24.0</ele>
    <time>2025-04-24T12:47:39Z</time>
   </trkpt>
   <trkpt lat="53.4421420" lon="-6.1537560">
    <ele>24.0</ele>
    <time>2025-04-24T12:47:44Z</time>
   </trkpt>
   <trkpt lat="53.4421250" lon="-6.1536540">
    <ele>24.0</ele>
    <time>2025-04-24T12:47:50Z</time>
   </trkpt>
   <trkpt lat="53.4421130" lon="-6.1535750">
    <ele>24.0</ele>
    <time>2025-04-24T12:47:55Z</time>
   </trkpt>
   <trkpt lat="53.4420990" lon="-6.1534530">
    <ele>24.0</ele>
    <time>2025-04-24T12:48:00Z</time>
   </trkpt>
   <trkpt lat="53.4420900" lon="-6.1533470">
    <ele>24.0</ele>
    <time>2025-04-24T12:48:06Z</time>
   </trkpt>
   <trkpt lat="53.4420800" lon="-6.1532490">
    <ele>24.1</ele>
    <time>2025-04-24T12:48:11Z</time>
   </trkpt>
   <trkpt lat="53.4420740" lon="-6.1531310">
    <ele>24.1</ele>
    <time>2025-04-24T12:48:16Z</time>
   </trkpt>
   <trkpt lat="53.4420660" lon="-6.1530250">
    <ele>24.1</ele>
    <time>2025-04-24T12:48:21Z</time>
   </trkpt>
   <trkpt lat="53.4420660" lon="-6.1529400">
    <ele>24.1</ele>
    <time>2025-04-24T12:48:27Z</time>
   </trkpt>
   <trkpt lat="53.4420740" lon="-6.1528640">
    <ele>24.2</ele>
    <time>2025-04-24T12:48:46Z</time>
   </trkpt>
   <trkpt lat="53.4420500" lon="-6.1527040">
    <ele>24.2</ele>
    <time>2025-04-24T12:48:51Z</time>
   </trkpt>
   <trkpt lat="53.4420510" lon="-6.1525770">
    <ele>24.3</ele>
    <time>2025-04-24T12:48:57Z</time>
   </trkpt>
   <trkpt lat="53.4420560" lon="-6.1524630">
    <ele>24.4</ele>
    <time>2025-04-24T12:49:02Z</time>
   </trkpt>
   <trkpt lat="53.4420130" lon="-6.1523980">
    <ele>24.4</ele>
    <time>2025-04-24T12:49:07Z</time>
   </trkpt>
   <trkpt lat="53.4419560" lon="-6.1523470">
    <ele>24.5</ele>
    <time>2025-04-24T12:49:12Z</time>
   </trkpt>
   <trkpt lat="53.4419390" lon="-6.1522630">
    <ele>24.5</ele>
    <time>2025-04-24T12:49:18Z</time>
   </trkpt>
   <trkpt lat="53.4419450" lon="-6.1521760">
    <ele>24.6</ele>
    <time>2025-04-24T12:49:27Z</time>
   </trkpt>
   <trkpt lat="53.4419670" lon="-6.1520240">
    <ele>24.8</ele>
    <time>2025-04-24T12:49:32Z</time>
   </trkpt>
   <trkpt lat="53.4419610" lon="-6.1519120">
    <ele>25.0</ele>
    <time>2025-04-24T12:49:37Z</time>
   </trkpt>
   <trkpt lat="53.4419360" lon="-6.1518030">
    <ele>25.1</ele>
    <time>2025-04-24T12:49:42Z</time>
   </trkpt>
   <trkpt lat="53.4419250" lon="-6.1516960">
    <ele>25.3</ele>
    <time>2025-04-24T12:49:47Z</time>
   </trkpt>
   <trkpt lat="53.4419380" lon="-6.1515820">
    <ele>25.4</ele>
    <time>2025-04-24T12:49:53Z</time>
   </trkpt>
   <trkpt lat="53.4419520" lon="-6.1514730">
    <ele>25.4</ele>
    <time>2025-04-24T12:49:58Z</time>
   </trkpt>
   <trkpt lat="53.4420020" lon="-6.1514510">
    <ele>25.5</ele>
    <time>2025-04-24T12:50:03Z</time>
   </trkpt>
   <trkpt lat="53.4420660" lon="-6.1514170">
    <ele>25.6</ele>
    <time>2025-04-24T12:50:08Z</time>
   </trkpt>
   <trkpt lat="53.4421190" lon="-6.1513310">
    <ele>25.6</ele>
    <time>2025-04-24T12:50:14Z</time>
   </trkpt>
   <trkpt lat="53.4421750" lon="-6.1513300">
    <ele>25.7</ele>
    <time>2025-04-24T12:50:19Z</time>
   </trkpt>
   <trkpt lat="53.4421930" lon="-6.1512410">
    <ele>25.8</ele>
    <time>2025-04-24T12:50:24Z</time>
   </trkpt>
   <trkpt lat="53.4421980" lon="-6.1511130">
    <ele>25.8</ele>
    <time>2025-04-24T12:50:29Z</time>
   </trkpt>
   <trkpt lat="53.4422090" lon="-6.1510080">
    <ele>25.9</ele>
    <time>2025-04-24T12:50:34Z</time>
   </trkpt>
   <trkpt lat="53.4422140" lon="-6.1509100">
    <ele>26.0</ele>
    <time>2025-04-24T12:50:39Z</time>
   </trkpt>
   <trkpt lat="53.4422070" lon="-6.1508100">
    <ele>26.1</ele>
    <time>2025-04-24T12:50:44Z</time>
   </trkpt>
   <trkpt lat="53.4421880" lon="-6.1507020">
    <ele>26.2</ele>
    <time>2025-04-24T12:50:50Z</time>
   </trkpt>
   <trkpt lat="53.4421760" lon="-6.1506110">
    <ele>26.3</ele>
    <time>2025-04-24T12:50:55Z</time>
   </trkpt>
   <trkpt lat="53.4421780" lon="-6.1505000">
    <ele>26.5</ele>
    <time>2025-04-24T12:51:01Z</time>
   </trkpt>
   <trkpt lat="53.4421770" lon="-6.1504060">
    <ele>26.7</ele>
    <time>2025-04-24T12:51:06Z</time>
   </trkpt>
   <trkpt lat="53.4421730" lon="-6.1502920">
    <ele>26.9</ele>
    <time>2025-04-24T12:51:11Z</time>
   </trkpt>
   <trkpt lat="53.4421550" lon="-6.1501900">
    <ele>27.0</ele>
    <time>2025-04-24T12:51:17Z</time>
   </trkpt>
   <trkpt lat="53.4421490" lon="-6.1500850">
    <ele>27.2</ele>
    <time>2025-04-24T12:51:22Z</time>
   </trkpt>
   <trkpt lat="53.4421440" lon="-6.1499790">
    <ele>27.4</ele>
    <time>2025-04-24T12:51:27Z</time>
   </trkpt>
   <trkpt lat="53.4421460" lon="-6.1498880">
    <ele>27.6</ele>
    <time>2025-04-24T12:51:33Z</time>
   </trkpt>
   <trkpt lat="53.4421420" lon="-6.1497670">
    <ele>27.9</ele>
    <time>2025-04-24T12:51:38Z</time>
   </trkpt>
   <trkpt lat="53.4421460" lon="-6.1496550">
    <ele>28.2</ele>
    <time>2025-04-24T12:51:43Z</time>
   </trkpt>
   <trkpt lat="53.4421210" lon="-6.1495500">
    <ele>28.4</ele>
    <time>2025-04-24T12:51:49Z</time>
   </trkpt>
   <trkpt lat="53.4421080" lon="-6.1494370">
    <ele>28.6</ele>
    <time>2025-04-24T12:51:54Z</time>
   </trkpt>
   <trkpt lat="53.4421030" lon="-6.1493330">
    <ele>28.9</ele>
    <time>2025-04-24T12:51:59Z</time>
   </trkpt>
   <trkpt lat="53.4421000" lon="-6.1492350">
    <ele>29.1</ele>
    <time>2025-04-24T12:52:04Z</time>
   </trkpt>
   <trkpt lat="53.4420900" lon="-6.1491380">
    <ele>29.3</ele>
    <time>2025-04-24T12:52:10Z</time>
   </trkpt>
   <trkpt lat="53.4420860" lon="-6.1490230">
    <ele>29.4</ele>
    <time>2025-04-24T12:52:15Z</time>
   </trkpt>
   <trkpt lat="53.4420950" lon="-6.1489230">
    <ele>29.5</ele>
    <time>2025-04-24T12:52:20Z</time>
   </trkpt>
   <trkpt lat="53.4421070" lon="-6.1488240">
    <ele>29.6</ele>
    <time>2025-04-24T12:52:25Z</time>
   </trkpt>
   <trkpt lat="53.4420990" lon="-6.1487120">
    <ele>29.7</ele>
    <time>2025-04-24T12:52:31Z</time>
   </trkpt>
   <trkpt lat="53.4420990" lon="-6.1486070">
    <ele>29.7</ele>
    <time>2025-04-24T12:52:36Z</time>
   </trkpt>
   <trkpt lat="53.4420950" lon="-6.1485210">
    <ele>29.8</ele>
    <time>2025-04-24T12:52:42Z</time>
   </trkpt>
   <trkpt lat="53.4420690" lon="-6.1484100">
    <ele>29.7</ele>
    <time>2025-04-24T12:52:48Z</time>
   </trkpt>
   <trkpt lat="53.4420540" lon="-6.1482980">
    <ele>29.8</ele>
    <time>2025-04-24T12:52:53Z</time>
   </trkpt>
   <trkpt lat="53.4420460" lon="-6.1482230">
    <ele>29.8</ele>
    <time>2025-04-24T12:52:58Z</time>
   </trkpt>
   <trkpt lat="53.4420300" lon="-6.1481160">
    <ele>29.9</ele>
    <time>2025-04-24T12:53:03Z</time>
   </trkpt>
   <trkpt lat="53.4420430" lon="-6.1480300">
    <ele>30.0</ele>
    <time>2025-04-24T12:53:08Z</time>
   </trkpt>
   <trkpt lat="53.4420300" lon="-6.1479430">
    <ele>30.2</ele>
    <time>2025-04-24T12:53:14Z</time>
   </trkpt>
   <trkpt lat="53.4420450" lon="-6.1478520">
    <ele>30.4</ele>
    <time>2025-04-24T12:53:19Z</time>
   </trkpt>
   <trkpt lat="53.4420340" lon="-6.1477540">
    <ele>30.6</ele>
    <time>2025-04-24T12:53:25Z</time>
   </trkpt>
   <trkpt lat="53.4420270" lon="-6.1476640">
    <ele>30.8</ele>
    <time>2025-04-24T12:53:30Z</time>
   </trkpt>
   <trkpt lat="53.4420270" lon="-6.1475760">
    <ele>30.9</ele>
    <time>2025-04-24T12:53:35Z</time>
   </trkpt>
   <trkpt lat="53.4420310" lon="-6.1474810">
    <ele>31.1</ele>
    <time>2025-04-24T12:53:40Z</time>
   </trkpt>
   <trkpt lat="53.4420220" lon="-6.1473970">
    <ele>31.3</ele>
    <time>2025-04-24T12:53:45Z</time>
   </trkpt>
   <trkpt lat="53.4419970" lon="-6.1472910">
    <ele>31.4</ele>
    <time>2025-04-24T12:53:51Z</time>
   </trkpt>
   <trkpt lat="53.4419920" lon="-6.1472100">
    <ele>31.5</ele>
    <time>2025-04-24T12:53:56Z</time>
   </trkpt>
   <trkpt lat="53.4419940" lon="-6.1471220">
    <ele>31.6</ele>
    <time>2025-04-24T12:54:01Z</time>
   </trkpt>
   <trkpt lat="53.4419980" lon="-6.1470390">
    <ele>31.7</ele>
    <time>2025-04-24T12:54:07Z</time>
   </trkpt>
   <trkpt lat="53.4419990" lon="-6.1469520">
    <ele>31.8</ele>
    <time>2025-04-24T12:54:12Z</time>
   </trkpt>
   <trkpt lat="53.4419840" lon="-6.1468610">
    <ele>31.9</ele>
    <time>2025-04-24T12:54:17Z</time>
   </trkpt>
   <trkpt lat="53.4419900" lon="-6.1467840">
    <ele>32.1</ele>
    <time>2025-04-24T12:54:23Z</time>
   </trkpt>
   <trkpt lat="53.4419840" lon="-6.1466750">
    <ele>32.2</ele>
    <time>2025-04-24T12:54:29Z</time>
   </trkpt>
   <trkpt lat="53.4419760" lon="-6.1465950">
    <ele>32.4</ele>
    <time>2025-04-24T12:54:34Z</time>
   </trkpt>
   <trkpt lat="53.4419740" lon="-6.1464870">
    <ele>32.6</ele>
    <time>2025-04-24T12:54:39Z</time>
   </trkpt>
   <trkpt lat="53.4419690" lon="-6.1463860">
    <ele>32.9</ele>
    <time>2025-04-24T12:54:45Z</time>
   </trkpt>
   <trkpt lat="53.4419770" lon="-6.1462930">
    <ele>33.2</ele>
    <time>2025-04-24T12:54:50Z</time>
   </trkpt>
   <trkpt lat="53.4419690" lon="-6.1461890">
    <ele>33.5</ele>
    <time>2025-04-24T12:54:55Z</time>
   </trkpt>
   <trkpt lat="53.4419630" lon="-6.1460950">
    <ele>33.8</ele>
    <time>2025-04-24T12:55:00Z</time>
   </trkpt>
   <trkpt lat="53.4419570" lon="-6.1459760">
    <ele>34.2</ele>
    <time>2025-04-24T12:55:05Z</time>
   </trkpt>
   <trkpt lat="53.4419550" lon="-6.1458620">
    <ele>34.5</ele>
    <time>2025-04-24T12:55:11Z</time>
   </trkpt>
   <trkpt lat="53.4419570" lon="-6.1457560">
    <ele>34.9</ele>
    <time>2025-04-24T12:55:16Z</time>
   </trkpt>
   <trkpt lat="53.4419440" lon="-6.1456750">
    <ele>35.2</ele>
    <time>2025-04-24T12:55:22Z</time>
   </trkpt>
   <trkpt lat="53.4419410" lon="-6.1455730">
    <ele>35.5</ele>
    <time>2025-04-24T12:55:27Z</time>
   </trkpt>
   <trkpt lat="53.4419380" lon="-6.1454760">
    <ele>35.9</ele>
    <time>2025-04-24T12:55:32Z</time>
   </trkpt>
   <trkpt lat="53.4419250" lon="-6.1453620">
    <ele>36.2</ele>
    <time>2025-04-24T12:55:38Z</time>
   </trkpt>
   <trkpt lat="53.4419220" lon="-6.1452520">
    <ele>36.6</ele>
    <time>2025-04-24T12:55:43Z</time>
   </trkpt>
   <trkpt lat="53.4419100" lon="-6.1451540">
    <ele>36.9</ele>
    <time>2025-04-24T12:55:48Z</time>
   </trkpt>
   <trkpt lat="53.4419080" lon="-6.1450550">
    <ele>37.3</ele>
    <time>2025-04-24T12:55:54Z</time>
   </trkpt>
   <trkpt lat="53.4418930" lon="-6.1449610">
    <ele>37.5</ele>
    <time>2025-04-24T12:56:00Z</time>
   </trkpt>
   <trkpt lat="53.4418880" lon="-6.1448710">
    <ele>37.8</ele>
    <time>2025-04-24T12:56:05Z</time>
   </trkpt>
   <trkpt lat="53.4418970" lon="-6.1447730">
    <ele>38.1</ele>
    <time>2025-04-24T12:56:10Z</time>
   </trkpt>
   <trkpt lat="53.4418830" lon="-6.1446870">
    <ele>38.4</ele>
    <time>2025-04-24T12:56:15Z</time>
   </trkpt>
   <trkpt lat="53.4418760" lon="-6.1445840">
    <ele>38.7</ele>
    <time>2025-04-24T12:56:21Z</time>
   </trkpt>
   <trkpt lat="53.4418700" lon="-6.1444660">
    <ele>38.9</ele>
    <time>2025-04-24T12:56:26Z</time>
   </trkpt>
   <trkpt lat="53.4418700" lon="-6.1443690">
    <ele>39.2</ele>
    <time>2025-04-24T12:56:31Z</time>
   </trkpt>
   <trkpt lat="53.4418660" lon="-6.1442560">
    <ele>39.5</ele>
    <time>2025-04-24T12:56:37Z</time>
   </trkpt>
   <trkpt lat="53.4418530" lon="-6.1441460">
    <ele>39.7</ele>
    <time>2025-04-24T12:56:42Z</time>
   </trkpt>
   <trkpt lat="53.4418400" lon="-6.1440300">
    <ele>39.8</ele>
    <time>2025-04-24T12:56:47Z</time>
   </trkpt>
   <trkpt lat="53.4418370" lon="-6.1439170">
    <ele>39.9</ele>
    <time>2025-04-24T12:56:53Z</time>
   </trkpt>
   <trkpt lat="53.4418330" lon="-6.1438110">
    <ele>40.0</ele>
    <time>2025-04-24T12:56:58Z</time>
   </trkpt>
   <trkpt lat="53.4418180" lon="-6.1437050">
    <ele>40.0</ele>
    <time>2025-04-24T12:57:03Z</time>
   </trkpt>
   <trkpt lat="53.4418360" lon="-6.1436000">
    <ele>40.1</ele>
    <time>2025-04-24T12:57:09Z</time>
   </trkpt>
   <trkpt lat="53.4418290" lon="-6.1434930">
    <ele>40.3</ele>
    <time>2025-04-24T12:57:14Z</time>
   </trkpt>
   <trkpt lat="53.4418250" lon="-6.1433950">
    <ele>40.4</ele>
    <time>2025-04-24T12:57:19Z</time>
   </trkpt>
   <trkpt lat="53.4418060" lon="-6.1432770">
    <ele>40.5</ele>
    <time>2025-04-24T12:57:24Z</time>
   </trkpt>
   <trkpt lat="53.4417880" lon="-6.1431800">
    <ele>40.6</ele>
    <time>2025-04-24T12:57:30Z</time>
   </trkpt>
   <trkpt lat="53.4417890" lon="-6.1430650">
    <ele>40.8</ele>
    <time>2025-04-24T12:57:35Z</time>
   </trkpt>
   <trkpt lat="53.4418060" lon="-6.1429570">
    <ele>41.2</ele>
    <time>2025-04-24T12:57:40Z</time>
   </trkpt>
   <trkpt lat="53.4418110" lon="-6.1428690">
    <ele>41.7</ele>
    <time>2025-04-24T12:57:45Z</time>
   </trkpt>
   <trkpt lat="53.4417980" lon="-6.1427670">
    <ele>42.1</ele>
    <time>2025-04-24T12:57:50Z</time>
   </trkpt>
   <trkpt lat="53.4417800" lon="-6.1426650">
    <ele>42.4</ele>
    <time>2025-04-24T12:57:56Z</time>
   </trkpt>
   <trkpt lat="53.4417700" lon="-6.1425540">
    <ele>42.7</ele>
    <time>2025-04-24T12:58:01Z</time>
   </trkpt>
   <trkpt lat="53.4417710" lon="-6.1424520">
    <ele>43.0</ele>
    <time>2025-04-24T12:58:06Z</time>
   </trkpt>
   <trkpt lat="53.4417740" lon="-6.1423480">
    <ele>43.3</ele>
    <time>2025-04-24T12:58:11Z</time>
   </trkpt>
   <trkpt lat="53.4417560" lon="-6.1422410">
    <ele>43.5</ele>
    <time>2025-04-24T12:58:17Z</time>
   </trkpt>
   <trkpt lat="53.4417580" lon="-6.1421430">
    <ele>43.6</ele>
    <time>2025-04-24T12:58:22Z</time>
   </trkpt>
   <trkpt lat="53.4417520" lon="-6.1420220">
    <ele>43.8</ele>
    <time>2025-04-24T12:58:27Z</time>
   </trkpt>
   <trkpt lat="53.4417440" lon="-6.1419220">
    <ele>44.0</ele>
    <time>2025-04-24T12:58:32Z</time>
   </trkpt>
   <trkpt lat="53.4417280" lon="-6.1418210">
    <ele>44.1</ele>
    <time>2025-04-24T12:58:37Z</time>
   </trkpt>
   <trkpt lat="53.4417200" lon="-6.1416980">
    <ele>44.2</ele>
    <time>2025-04-24T12:58:43Z</time>
   </trkpt>
   <trkpt lat="53.4417400" lon="-6.1415930">
    <ele>44.5</ele>
    <time>2025-04-24T12:58:48Z</time>
   </trkpt>
   <trkpt lat="53.4417550" lon="-6.1414960">
    <ele>44.9</ele>
    <time>2025-04-24T12:58:53Z</time>
   </trkpt>
   <trkpt lat="53.4417590" lon="-6.1413870">
    <ele>45.4</ele>
    <time>2025-04-24T12:58:58Z</time>
   </trkpt>
   <trkpt lat="53.4417580" lon="-6.1412690">
    <ele>45.8</ele>
    <time>2025-04-24T12:59:04Z</time>
   </trkpt>
   <trkpt lat="53.4417730" lon="-6.1411640">
    <ele>46.3</ele>
    <time>2025-04-24T12:59:09Z</time>
   </trkpt>
   <trkpt lat="53.4418070" lon="-6.1410650">
    <ele>46.8</ele>
    <time>2025-04-24T12:59:14Z</time>
   </trkpt>
   <trkpt lat="53.4418500" lon="-6.1409760">
    <ele>47.2</ele>
    <time>2025-04-24T12:59:20Z</time>
   </trkpt>
   <trkpt lat="53.4418640" lon="-6.1408650">
    <ele>47.6</ele>
    <time>2025-04-24T12:59:25Z</time>
   </trkpt>
   <trkpt lat="53.4418810" lon="-6.1407670">
    <ele>47.9</ele>
    <time>2025-04-24T12:59:30Z</time>
   </trkpt>
   <trkpt lat="53.4418800" lon="-6.1406480">
    <ele>48.1</ele>
    <time>2025-04-24T12:59:35Z</time>
   </trkpt>
   <trkpt lat="53.4418750" lon="-6.1405430">
    <ele>48.2</ele>
    <time>2025-04-24T12:59:40Z</time>
   </trkpt>
   <trkpt lat="53.4418910" lon="-6.1404340">
    <ele>48.2</ele>
    <time>2025-04-24T12:59:45Z</time>
   </trkpt>
   <trkpt lat="53.4419020" lon="-6.1403430">
    <ele>48.3</ele>
    <time>2025-04-24T12:59:50Z</time>
   </trkpt>
   <trkpt lat="53.4418800" lon="-6.1402180">
    <ele>48.3</ele>
    <time>2025-04-24T12:59:56Z</time>
   </trkpt>
   <trkpt lat="53.4418830" lon="-6.1400980">
    <ele>48.2</ele>
    <time>2025-04-24T13:00:01Z</time>
   </trkpt>
   <trkpt lat="53.4418980" lon="-6.1399960">
    <ele>48.1</ele>
    <time>2025-04-24T13:00:06Z</time>
   </trkpt>
   <trkpt lat="53.4418980" lon="-6.1398950">
    <ele>48.0</ele>
    <time>2025-04-24T13:00:12Z</time>
   </trkpt>
   <trkpt lat="53.4419080" lon="-6.1398130">
    <ele>47.9</ele>
    <time>2025-04-24T13:00:17Z</time>
   </trkpt>
   <trkpt lat="53.4419160" lon="-6.1397040">
    <ele>47.7</ele>
    <time>2025-04-24T13:00:22Z</time>
   </trkpt>
   <trkpt lat="53.4419280" lon="-6.1396090">
    <ele>47.5</ele>
    <time>2025-04-24T13:00:28Z</time>
   </trkpt>
   <trkpt lat="53.4419350" lon="-6.1395140">
    <ele>47.3</ele>
    <time>2025-04-24T13:00:33Z</time>
   </trkpt>
   <trkpt lat="53.4419330" lon="-6.1394020">
    <ele>47.0</ele>
    <time>2025-04-24T13:00:38Z</time>
   </trkpt>
   <trkpt lat="53.4419300" lon="-6.1392940">
    <ele>46.7</ele>
    <time>2025-04-24T13:00:44Z</time>
   </trkpt>
   <trkpt lat="53.4419340" lon="-6.1391950">
    <ele>46.4</ele>
    <time>2025-04-24T13:00:49Z</time>
   </trkpt>
   <trkpt lat="53.4419430" lon="-6.1390870">
    <ele>46.2</ele>
    <time>2025-04-24T13:00:54Z</time>
   </trkpt>
   <trkpt lat="53.4419520" lon="-6.1389850">
    <ele>46.0</ele>
    <time>2025-04-24T13:01:00Z</time>
   </trkpt>
   <trkpt lat="53.4419400" lon="-6.1388830">
    <ele>45.8</ele>
    <time>2025-04-24T13:01:05Z</time>
   </trkpt>
   <trkpt lat="53.4419420" lon="-6.1387950">
    <ele>45.7</ele>
    <time>2025-04-24T13:01:10Z</time>
   </trkpt>
   <trkpt lat="53.4419530" lon="-6.1387090">
    <ele>45.5</ele>
    <time>2025-04-24T13:01:17Z</time>
   </trkpt>
   <trkpt lat="53.4419970" lon="-6.1386070">
    <ele>45.4</ele>
    <time>2025-04-24T13:01:22Z</time>
   </trkpt>
   <trkpt lat="53.4420170" lon="-6.1385200">
    <ele>45.3</ele>
    <time>2025-04-24T13:01:28Z</time>
   </trkpt>
   <trkpt lat="53.4420470" lon="-6.1384550">
    <ele>45.2</ele>
    <time>2025-04-24T13:01:48Z</time>
   </trkpt>
   <trkpt lat="53.4420940" lon="-6.1383610">
    <ele>45.1</ele>
    <time>2025-04-24T13:01:53Z</time>
   </trkpt>
   <trkpt lat="53.4421310" lon="-6.1382720">
    <ele>44.9</ele>
    <time>2025-04-24T13:01:58Z</time>
   </trkpt>
   <trkpt lat="53.4421640" lon="-6.1381750">
    <ele>44.6</ele>
    <time>2025-04-24T13:02:04Z</time>
   </trkpt>
   <trkpt lat="53.4422000" lon="-6.1380870">
    <ele>44.4</ele>
    <time>2025-04-24T13:02:09Z</time>
   </trkpt>
   <trkpt lat="53.4422390" lon="-6.1379980">
    <ele>44.2</ele>
    <time>2025-04-24T13:02:14Z</time>
   </trkpt>
   <trkpt lat="53.4422790" lon="-6.1379100">
    <ele>44.0</ele>
    <time>2025-04-24T13:02:19Z</time>
   </trkpt>
   <trkpt lat="53.4423130" lon="-6.1378180">
    <ele>43.8</ele>
    <time>2025-04-24T13:02:24Z</time>
   </trkpt>
   <trkpt lat="53.4423410" lon="-6.1377230">
    <ele>43.5</ele>
    <time>2025-04-24T13:02:30Z</time>
   </trkpt>
   <trkpt lat="53.4423820" lon="-6.1376330">
    <ele>43.3</ele>
    <time>2025-04-24T13:02:35Z</time>
   </trkpt>
   <trkpt lat="53.4424160" lon="-6.1375420">
    <ele>43.2</ele>
    <time>2025-04-24T13:02:40Z</time>
   </trkpt>
   <trkpt lat="53.4424480" lon="-6.1374460">
    <ele>43.0</ele>
    <time>2025-04-24T13:02:45Z</time>
   </trkpt>
   <trkpt lat="53.4424770" lon="-6.1373510">
    <ele>42.7</ele>
    <time>2025-04-24T13:02:51Z</time>
   </trkpt>
   <trkpt lat="53.4425150" lon="-6.1372620">
    <ele>42.5</ele>
    <time>2025-04-24T13:02:56Z</time>
   </trkpt>
   <trkpt lat="53.4425450" lon="-6.1371620">
    <ele>42.2</ele>
    <time>2025-04-24T13:03:01Z</time>
   </trkpt>
   <trkpt lat="53.4425720" lon="-6.1370560">
    <ele>41.8</ele>
    <time>2025-04-24T13:03:07Z</time>
   </trkpt>
   <trkpt lat="53.4425510" lon="-6.1369450">
    <ele>41.4</ele>
    <time>2025-04-24T13:03:12Z</time>
   </trkpt>
   <trkpt lat="53.4425330" lon="-6.1368370">
    <ele>41.0</ele>
    <time>2025-04-24T13:03:17Z</time>
   </trkpt>
   <trkpt lat="53.4425150" lon="-6.1367300">
    <ele>40.6</ele>
    <time>2025-04-24T13:03:22Z</time>
   </trkpt>
   <trkpt lat="53.4424900" lon="-6.1366330">
    <ele>40.2</ele>
    <time>2025-04-24T13:03:27Z</time>
   </trkpt>
   <trkpt lat="53.4424700" lon="-6.1365380">
    <ele>39.9</ele>
    <time>2025-04-24T13:03:33Z</time>
   </trkpt>
   <trkpt lat="53.4424570" lon="-6.1364310">
    <ele>39.6</ele>
    <time>2025-04-24T13:03:38Z</time>
   </trkpt>
   <trkpt lat="53.4424370" lon="-6.1363390">
    <ele>39.4</ele>
    <time>2025-04-24T13:03:43Z</time>
   </trkpt>
   <trkpt lat="53.4424290" lon="-6.1362440">
    <ele>39.2</ele>
    <time>2025-04-24T13:03:48Z</time>
   </trkpt>
   <trkpt lat="53.4424080" lon="-6.1361420">
    <ele>39.0</ele>
    <time>2025-04-24T13:03:54Z</time>
   </trkpt>
   <trkpt lat="53.4423810" lon="-6.1360430">
    <ele>38.8</ele>
    <time>2025-04-24T13:03:59Z</time>
   </trkpt>
   <trkpt lat="53.4423640" lon="-6.1359350">
    <ele>38.5</ele>
    <time>2025-04-24T13:04:04Z</time>
   </trkpt>
   <trkpt lat="53.4423500" lon="-6.1358250">
    <ele>38.3</ele>
    <time>2025-04-24T13:04:09Z</time>
   </trkpt>
   <trkpt lat="53.4423370" lon="-6.1357290">
    <ele>38.1</ele>
    <time>2025-04-24T13:04:15Z</time>
   </trkpt>
   <trkpt lat="53.4423280" lon="-6.1356270">
    <ele>37.9</ele>
    <time>2025-04-24T13:04:20Z</time>
   </trkpt>
   <trkpt lat="53.4423240" lon="-6.1355280">
    <ele>37.7</ele>
    <time>2025-04-24T13:04:25Z</time>
   </trkpt>
   <trkpt lat="53.4423080" lon="-6.1354160">
    <ele>37.5</ele>
    <time>2025-04-24T13:04:30Z</time>
   </trkpt>
   <trkpt lat="53.4422900" lon="-6.1353150">
    <ele>37.3</ele>
    <time>2025-04-24T13:04:36Z</time>
   </trkpt>
   <trkpt lat="53.4422540" lon="-6.1352260">
    <ele>37.2</ele>
    <time>2025-04-24T13:04:41Z</time>
   </trkpt>
   <trkpt lat="53.4422280" lon="-6.1351300">
    <ele>37.0</ele>
    <time>2025-04-24T13:04:46Z</time>
   </trkpt>
   <trkpt lat="53.4422150" lon="-6.1350240">
    <ele>36.7</ele>
    <time>2025-04-24T13:04:51Z</time>
   </trkpt>
   <trkpt lat="53.4421920" lon="-6.1349360">
    <ele>36.4</ele>
    <time>2025-04-24T13:07:13Z</time>
   </trkpt>
   <trkpt lat="53.4421920" lon="-6.1348470">
    <ele>36.1</ele>
    <time>2025-04-24T13:07:34Z</time>
   </trkpt>
   <trkpt lat="53.4421580" lon="-6.1346750">
    <ele>35.8</ele>
    <time>2025-04-24T13:07:39Z</time>
   </trkpt>
   <trkpt lat="53.4421340" lon="-6.1345760">
    <ele>35.5</ele>
    <time>2025-04-24T13:07:44Z</time>
   </trkpt>
   <trkpt lat="53.4421120" lon="-6.1344780">
    <ele>35.1</ele>
    <time>2025-04-24T13:07:49Z</time>
   </trkpt>
   <trkpt lat="53.4420750" lon="-6.1343890">
    <ele>34.8</ele>
    <time>2025-04-24T13:07:55Z</time>
   </trkpt>
   <trkpt lat="53.4420070" lon="-6.1343680">
    <ele>34.6</ele>
    <time>2025-04-24T13:08:00Z</time>
   </trkpt>
   <trkpt lat="53.4419380" lon="-6.1343740">
    <ele>34.5</ele>
    <time>2025-04-24T13:08:05Z</time>
   </trkpt>
   <trkpt lat="53.4418810" lon="-6.1343720">
    <ele>34.4</ele>
    <time>2025-04-24T13:08:10Z</time>
   </trkpt>
   <trkpt lat="53.4418230" lon="-6.1343610">
    <ele>34.4</ele>
    <time>2025-04-24T13:08:16Z</time>
   </trkpt>
   <trkpt lat="53.4417610" lon="-6.1343410">
    <ele>34.3</ele>
    <time>2025-04-24T13:08:21Z</time>
   </trkpt>
   <trkpt lat="53.4416970" lon="-6.1343200">
    <ele>34.3</ele>
    <time>2025-04-24T13:08:26Z</time>
   </trkpt>
   <trkpt lat="53.4416350" lon="-6.1342880">
    <ele>34.3</ele>
    <time>2025-04-24T13:08:32Z</time>
   </trkpt>
   <trkpt lat="53.4415720" lon="-6.1342600">
    <ele>34.3</ele>
    <time>2025-04-24T13:08:37Z</time>
   </trkpt>
   <trkpt lat="53.4415080" lon="-6.1342210">
    <ele>34.3</ele>
    <time>2025-04-24T13:08:42Z</time>
   </trkpt>
   <trkpt lat="53.4414560" lon="-6.1341790">
    <ele>34.3</ele>
    <time>2025-04-24T13:08:48Z</time>
   </trkpt>
   <trkpt lat="53.4413970" lon="-6.1341240">
    <ele>34.3</ele>
    <time>2025-04-24T13:08:53Z</time>
   </trkpt>
   <trkpt lat="53.4413340" lon="-6.1340750">
    <ele>34.3</ele>
    <time>2025-04-24T13:08:58Z</time>
   </trkpt>
   <trkpt lat="53.4412800" lon="-6.1340280">
    <ele>34.2</ele>
    <time>2025-04-24T13:09:03Z</time>
   </trkpt>
   <trkpt lat="53.4412210" lon="-6.1339890">
    <ele>34.2</ele>
    <time>2025-04-24T13:09:09Z</time>
   </trkpt>
   <trkpt lat="53.4411530" lon="-6.1339250">
    <ele>34.2</ele>
    <time>2025-04-24T13:09:14Z</time>
   </trkpt>
   <trkpt lat="53.4410930" lon="-6.1338680">
    <ele>34.2</ele>
    <time>2025-04-24T13:09:19Z</time>
   </trkpt>
   <trkpt lat="53.4410310" lon="-6.1338180">
    <ele>34.1</ele>
    <time>2025-04-24T13:09:25Z</time>
   </trkpt>
   <trkpt lat="53.4409710" lon="-6.1337670">
    <ele>34.0</ele>
    <time>2025-04-24T13:09:30Z</time>
   </trkpt>
   <trkpt lat="53.4409180" lon="-6.1337440">
    <ele>34.0</ele>
    <time>2025-04-24T13:09:35Z</time>
   </trkpt>
   <trkpt lat="53.4408640" lon="-6.1337000">
    <ele>33.9</ele>
    <time>2025-04-24T13:09:40Z</time>
   </trkpt>
   <trkpt lat="53.4407990" lon="-6.1336340">
    <ele>33.9</ele>
    <time>2025-04-24T13:09:46Z</time>
   </trkpt>
   <trkpt lat="53.4407480" lon="-6.1335820">
    <ele>33.8</ele>
    <time>2025-04-24T13:09:52Z</time>
   </trkpt>
   <trkpt lat="53.4406820" lon="-6.1335490">
    <ele>33.8</ele>
    <time>2025-04-24T13:09:57Z</time>
   </trkpt>
   <trkpt lat="53.4406240" lon="-6.1335150">
    <ele>33.9</ele>
    <time>2025-04-24T13:10:02Z</time>
   </trkpt>
   <trkpt lat="53.4405620" lon="-6.1334750">
    <ele>34.0</ele>
    <time>2025-04-24T13:10:07Z</time>
   </trkpt>
   <trkpt lat="53.4405070" lon="-6.1334300">
    <ele>34.1</ele>
    <time>2025-04-24T13:10:13Z</time>
   </trkpt>
   <trkpt lat="53.4404490" lon="-6.1333770">
    <ele>34.2</ele>
    <time>2025-04-24T13:10:18Z</time>
   </trkpt>
   <trkpt lat="53.4403900" lon="-6.1333330">
    <ele>34.4</ele>
    <time>2025-04-24T13:10:23Z</time>
   </trkpt>
   <trkpt lat="53.4403350" lon="-6.1332700">
    <ele>34.5</ele>
    <time>2025-04-24T13:10:28Z</time>
   </trkpt>
   <trkpt lat="53.4402750" lon="-6.1332250">
    <ele>34.7</ele>
    <time>2025-04-24T13:10:34Z</time>
   </trkpt>
   <trkpt lat="53.4402250" lon="-6.1331680">
    <ele>34.9</ele>
    <time>2025-04-24T13:10:39Z</time>
   </trkpt>
   <trkpt lat="53.4401730" lon="-6.1331010">
    <ele>35.0</ele>
    <time>2025-04-24T13:10:44Z</time>
   </trkpt>
   <trkpt lat="53.4401250" lon="-6.1330300">
    <ele>35.2</ele>
    <time>2025-04-24T13:10:49Z</time>
   </trkpt>
   <trkpt lat="53.4400650" lon="-6.1330560">
    <ele>35.3</ele>
    <time>2025-04-24T13:10:54Z</time>
   </trkpt>
   <trkpt lat="53.4399940" lon="-6.1330510">
    <ele>35.5</ele>
    <time>2025-04-24T13:11:00Z</time>
   </trkpt>
   <trkpt lat="53.4399510" lon="-6.1329530">
    <ele>35.7</ele>
    <time>2025-04-24T13:11:05Z</time>
   </trkpt>
   <trkpt lat="53.4399040" lon="-6.1329430">
    <ele>35.8</ele>
    <time>2025-04-24T13:11:11Z</time>
   </trkpt>
   <trkpt lat="53.4398830" lon="-6.1328590">
    <ele>35.8</ele>
    <time>2025-04-24T13:11:21Z</time>
   </trkpt>
   <trkpt lat="53.4397800" lon="-6.1327800">
    <ele>36.0</ele>
    <time>2025-04-24T13:11:27Z</time>
   </trkpt>
   <trkpt lat="53.4397050" lon="-6.1327680">
    <ele>36.2</ele>
    <time>2025-04-24T13:11:33Z</time>
   </trkpt>
   <trkpt lat="53.4396340" lon="-6.1327390">
    <ele>36.4</ele>
    <time>2025-04-24T13:11:39Z</time>
   </trkpt>
   <trkpt lat="53.4395710" lon="-6.1326990">
    <ele>36.5</ele>
    <time>2025-04-24T13:11:44Z</time>
   </trkpt>
   <trkpt lat="53.4395270" lon="-6.1326690">
    <ele>36.7</ele>
    <time>2025-04-24T13:11:50Z</time>
   </trkpt>
   <trkpt lat="53.4394900" lon="-6.1326240">
    <ele>36.7</ele>
    <time>2025-04-24T13:11:55Z</time>
   </trkpt>
   <trkpt lat="53.4394430" lon="-6.1325870">
    <ele>36.8</ele>
    <time>2025-04-24T13:12:00Z</time>
   </trkpt>
   <trkpt lat="53.4393920" lon="-6.1325580">
    <ele>36.9</ele>
    <time>2025-04-24T13:12:06Z</time>
   </trkpt>
   <trkpt lat="53.4393420" lon="-6.1325680">
    <ele>36.9</ele>
    <time>2025-04-24T13:12:12Z</time>
   </trkpt>
   <trkpt lat="53.4392930" lon="-6.1325870">
    <ele>37.0</ele>
    <time>2025-04-24T13:12:18Z</time>
   </trkpt>
   <trkpt lat="53.4392560" lon="-6.1325410">
    <ele>37.0</ele>
    <time>2025-04-24T13:12:25Z</time>
   </trkpt>
   <trkpt lat="53.4392230" lon="-6.1326040">
    <ele>37.1</ele>
    <time>2025-04-24T13:13:26Z</time>
   </trkpt>
   <trkpt lat="53.4391940" lon="-6.1326900">
    <ele>37.1</ele>
    <time>2025-04-24T13:13:32Z</time>
   </trkpt>
   <trkpt lat="53.4391820" lon="-6.1327660">
    <ele>37.2</ele>
    <time>2025-04-24T13:13:38Z</time>
   </trkpt>
   <trkpt lat="53.4391880" lon="-6.1328610">
    <ele>37.2</ele>
    <time>2025-04-24T13:13:43Z</time>
   </trkpt>
   <trkpt lat="53.4391910" lon="-6.1329490">
    <ele>37.2</ele>
    <time>2025-04-24T13:13:51Z</time>
   </trkpt>
   <trkpt lat="53.4391640" lon="-6.1330670">
    <ele>37.2</ele>
    <time>2025-04-24T13:13:57Z</time>
   </trkpt>
   <trkpt lat="53.4391630" lon="-6.1331570">
    <ele>37.1</ele>
    <time>2025-04-24T13:14:02Z</time>
   </trkpt>
   <trkpt lat="53.4391580" lon="-6.1332410">
    <ele>37.1</ele>
    <time>2025-04-24T13:14:08Z</time>
   </trkpt>
   <trkpt lat="53.4391430" lon="-6.1333170">
    <ele>37.0</ele>
    <time>2025-04-24T13:14:14Z</time>
   </trkpt>
   <trkpt lat="53.4391290" lon="-6.1334000">
    <ele>37.0</ele>
    <time>2025-04-24T13:14:22Z</time>
   </trkpt>
   <trkpt lat="53.4391300" lon="-6.1335030">
    <ele>36.9</ele>
    <time>2025-04-24T13:14:27Z</time>
   </trkpt>
   <trkpt lat="53.4391160" lon="-6.1335830">
    <ele>36.8</ele>
    <time>2025-04-24T13:14:33Z</time>
   </trkpt>
   <trkpt lat="53.4390810" lon="-6.1336560">
    <ele>36.7</ele>
    <time>2025-04-24T13:14:38Z</time>
   </trkpt>
   <trkpt lat="53.4390290" lon="-6.1337160">
    <ele>36.5</ele>
    <time>2025-04-24T13:14:43Z</time>
   </trkpt>
   <trkpt lat="53.4389800" lon="-6.1337890">
    <ele>36.3</ele>
    <time>2025-04-24T13:14:49Z</time>
   </trkpt>
   <trkpt lat="53.4389310" lon="-6.1338570">
    <ele>36.1</ele>
    <time>2025-04-24T13:14:54Z</time>
   </trkpt>
   <trkpt lat="53.4388810" lon="-6.1339240">
    <ele>35.8</ele>
    <time>2025-04-24T13:14:59Z</time>
   </trkpt>
   <trkpt lat="53.4388330" lon="-6.1339650">
    <ele>35.6</ele>
    <time>2025-04-24T13:15:04Z</time>
   </trkpt>
   <trkpt lat="53.4387910" lon="-6.1340630">
    <ele>35.3</ele>
    <time>2025-04-24T13:15:09Z</time>
   </trkpt>
   <trkpt lat="53.4387500" lon="-6.1341380">
    <ele>35.0</ele>
    <time>2025-04-24T13:15:15Z</time>
   </trkpt>
   <trkpt lat="53.4387070" lon="-6.1342090">
    <ele>34.7</ele>
    <time>2025-04-24T13:15:20Z</time>
   </trkpt>
   <trkpt lat="53.4386540" lon="-6.1342470">
    <ele>34.5</ele>
    <time>2025-04-24T13:15:25Z</time>
   </trkpt>
   <trkpt lat="53.4385830" lon="-6.1341970">
    <ele>34.2</ele>
    <time>2025-04-24T13:15:30Z</time>
   </trkpt>
   <trkpt lat="53.4385390" lon="-6.1341210">
    <ele>34.0</ele>
    <time>2025-04-24T13:15:35Z</time>
   </trkpt>
   <trkpt lat="53.4385140" lon="-6.1339960">
    <ele>34.0</ele>
    <time>2025-04-24T13:15:40Z</time>
   </trkpt>
   <trkpt lat="53.4384670" lon="-6.1339110">
    <ele>33.9</ele>
    <time>2025-04-24T13:15:46Z</time>
   </trkpt>
   <trkpt lat="53.4384230" lon="-6.1338440">
    <ele>33.8</ele>
    <time>2025-04-24T13:15:51Z</time>
   </trkpt>
   <trkpt lat="53.4383860" lon="-6.1337810">
    <ele>33.8</ele>
    <time>2025-04-24T13:15:56Z</time>
   </trkpt>
   <trkpt lat="53.4383500" lon="-6.1336850">
    <ele>33.7</ele>
    <time>2025-04-24T13:16:01Z</time>
   </trkpt>
   <trkpt lat="53.4383140" lon="-6.1336030">
    <ele>33.7</ele>
    <time>2025-04-24T13:16:08Z</time>
   </trkpt>
   <trkpt lat="53.4382630" lon="-6.1335220">
    <ele>33.6</ele>
    <time>2025-04-24T13:16:13Z</time>
   </trkpt>
   <trkpt lat="53.4382270" lon="-6.1334440">
    <ele>33.6</ele>
    <time>2025-04-24T13:16:18Z</time>
   </trkpt>
   <trkpt lat="53.4381980" lon="-6.1333800">
    <ele>33.5</ele>
    <time>2025-04-24T13:16:23Z</time>
   </trkpt>
   <trkpt lat="53.4381610" lon="-6.1332950">
    <ele>33.5</ele>
    <time>2025-04-24T13:16:29Z</time>
   </trkpt>
   <trkpt lat="53.4381130" lon="-6.1332080">
    <ele>33.4</ele>
    <time>2025-04-24T13:16:34Z</time>
   </trkpt>
   <trkpt lat="53.4380730" lon="-6.1331280">
    <ele>33.3</ele>
    <time>2025-04-24T13:16:39Z</time>
   </trkpt>
   <trkpt lat="53.4380300" lon="-6.1330320">
    <ele>33.2</ele>
    <time>2025-04-24T13:16:45Z</time>
   </trkpt>
   <trkpt lat="53.4379820" lon="-6.1329490">
    <ele>33.0</ele>
    <time>2025-04-24T13:16:50Z</time>
   </trkpt>
   <trkpt lat="53.4379360" lon="-6.1328650">
    <ele>32.9</ele>
    <time>2025-04-24T13:16:55Z</time>
   </trkpt>
   <trkpt lat="53.4378940" lon="-6.1327910">
    <ele>32.8</ele>
    <time>2025-04-24T13:17:00Z</time>
   </trkpt>
   <trkpt lat="53.4378660" lon="-6.1327330">
    <ele>32.8</ele>
    <time>2025-04-24T13:17:24Z</time>
   </trkpt>
   <trkpt lat="53.4378040" lon="-6.1326600">
    <ele>32.7</ele>
    <time>2025-04-24T13:17:29Z</time>
   </trkpt>
   <trkpt lat="53.4378190" lon="-6.1325830">
    <ele>32.7</ele>
    <time>2025-04-24T13:17:34Z</time>
   </trkpt>
   <trkpt lat="53.4378270" lon="-6.1324960">
    <ele>32.7</ele>
    <time>2025-04-24T13:17:39Z</time>
   </trkpt>
   <trkpt lat="53.4378110" lon="-6.1323640">
    <ele>32.7</ele>
    <time>2025-04-24T13:17:45Z</time>
   </trkpt>
   <trkpt lat="53.4377860" lon="-6.1322350">
    <ele>32.8</ele>
    <time>2025-04-24T13:17:50Z</time>
   </trkpt>
   <trkpt lat="53.4377510" lon="-6.1321040">
    <ele>32.8</ele>
    <time>2025-04-24T13:17:56Z</time>
   </trkpt>
   <trkpt lat="53.4377170" lon="-6.1320060">
    <ele>32.8</ele>
    <time>2025-04-24T13:18:01Z</time>
   </trkpt>
   <trkpt lat="53.4377050" lon="-6.1319150">
    <ele>32.8</ele>
    <time>2025-04-24T13:18:06Z</time>
   </trkpt>
   <trkpt lat="53.4376980" lon="-6.1318390">
    <ele>32.7</ele>
    <time>2025-04-24T13:18:11Z</time>
   </trkpt>
   <trkpt lat="53.4376630" lon="-6.1317560">
    <ele>32.7</ele>
    <time>2025-04-24T13:18:17Z</time>
   </trkpt>
   <trkpt lat="53.4376290" lon="-6.1316320">
    <ele>32.5</ele>
    <time>2025-04-24T13:18:22Z</time>
   </trkpt>
   <trkpt lat="53.4376020" lon="-6.1315380">
    <ele>32.3</ele>
    <time>2025-04-24T13:18:27Z</time>
   </trkpt>
   <trkpt lat="53.4375740" lon="-6.1314360">
    <ele>32.0</ele>
    <time>2025-04-24T13:18:32Z</time>
   </trkpt>
   <trkpt lat="53.4375530" lon="-6.1313250">
    <ele>31.8</ele>
    <time>2025-04-24T13:18:37Z</time>
   </trkpt>
   <trkpt lat="53.4375360" lon="-6.1312300">
    <ele>31.4</ele>
    <time>2025-04-24T13:18:42Z</time>
   </trkpt>
   <trkpt lat="53.4375220" lon="-6.1311250">
    <ele>31.1</ele>
    <time>2025-04-24T13:18:48Z</time>
   </trkpt>
   <trkpt lat="53.4375110" lon="-6.1310390">
    <ele>30.8</ele>
    <time>2025-04-24T13:18:53Z</time>
   </trkpt>
   <trkpt lat="53.4374970" lon="-6.1309410">
    <ele>30.5</ele>
    <time>2025-04-24T13:18:58Z</time>
   </trkpt>
   <trkpt lat="53.4374910" lon="-6.1308290">
    <ele>30.2</ele>
    <time>2025-04-24T13:19:03Z</time>
   </trkpt>
   <trkpt lat="53.4374840" lon="-6.1307160">
    <ele>30.0</ele>
    <time>2025-04-24T13:19:08Z</time>
   </trkpt>
   <trkpt lat="53.4374800" lon="-6.1306200">
    <ele>29.8</ele>
    <time>2025-04-24T13:19:14Z</time>
   </trkpt>
   <trkpt lat="53.4374730" lon="-6.1305110">
    <ele>29.7</ele>
    <time>2025-04-24T13:19:19Z</time>
   </trkpt>
   <trkpt lat="53.4374610" lon="-6.1304000">
    <ele>29.5</ele>
    <time>2025-04-24T13:19:24Z</time>
   </trkpt>
   <trkpt lat="53.4374710" lon="-6.1303040">
    <ele>29.4</ele>
    <time>2025-04-24T13:19:29Z</time>
   </trkpt>
   <trkpt lat="53.4374650" lon="-6.1302020">
    <ele>29.3</ele>
    <time>2025-04-24T13:19:34Z</time>
   </trkpt>
   <trkpt lat="53.4374100" lon="-6.1301090">
    <ele>29.2</ele>
    <time>2025-04-24T13:19:39Z</time>
   </trkpt>
   <trkpt lat="53.4373590" lon="-6.1300330">
    <ele>29.0</ele>
    <time>2025-04-24T13:19:45Z</time>
   </trkpt>
   <trkpt lat="53.4373190" lon="-6.1299600">
    <ele>28.8</ele>
    <time>2025-04-24T13:19:50Z</time>
   </trkpt>
   <trkpt lat="53.4373110" lon="-6.1298420">
    <ele>28.6</ele>
    <time>2025-04-24T13:19:55Z</time>
   </trkpt>
   <trkpt lat="53.4373110" lon="-6.1297480">
    <ele>28.3</ele>
    <time>2025-04-24T13:20:00Z</time>
   </trkpt>
   <trkpt lat="53.4372900" lon="-6.1296650">
    <ele>28.0</ele>
    <time>2025-04-24T13:20:14Z</time>
   </trkpt>
   <trkpt lat="53.4372150" lon="-6.1295940">
    <ele>27.8</ele>
    <time>2025-04-24T13:20:19Z</time>
   </trkpt>
   <trkpt lat="53.4371360" lon="-6.1296250">
    <ele>27.6</ele>
    <time>2025-04-24T13:20:24Z</time>
   </trkpt>
   <trkpt lat="53.4370810" lon="-6.1296540">
    <ele>27.5</ele>
    <time>2025-04-24T13:20:30Z</time>
   </trkpt>
   <trkpt lat="53.4370000" lon="-6.1296630">
    <ele>27.5</ele>
    <time>2025-04-24T13:20:35Z</time>
   </trkpt>
   <trkpt lat="53.4369440" lon="-6.1296860">
    <ele>27.5</ele>
    <time>2025-04-24T13:20:41Z</time>
   </trkpt>
   <trkpt lat="53.4368860" lon="-6.1296940">
    <ele>27.5</ele>
    <time>2025-04-24T13:20:46Z</time>
   </trkpt>
   <trkpt lat="53.4368240" lon="-6.1296920">
    <ele>27.4</ele>
    <time>2025-04-24T13:20:51Z</time>
   </trkpt>
   <trkpt lat="53.4367700" lon="-6.1297140">
    <ele>27.4</ele>
    <time>2025-04-24T13:20:56Z</time>
   </trkpt>
   <trkpt lat="53.4367020" lon="-6.1297140">
    <ele>27.3</ele>
    <time>2025-04-24T13:21:01Z</time>
   </trkpt>
   <trkpt lat="53.4366440" lon="-6.1297410">
    <ele>27.3</ele>
    <time>2025-04-24T13:21:07Z</time>
   </trkpt>
   <trkpt lat="53.4365770" lon="-6.1297540">
    <ele>27.2</ele>
    <time>2025-04-24T13:21:12Z</time>
   </trkpt>
   <trkpt lat="53.4365210" lon="-6.1297760">
    <ele>27.1</ele>
    <time>2025-04-24T13:21:17Z</time>
   </trkpt>
   <trkpt lat="53.4364560" lon="-6.1297460">
    <ele>26.9</ele>
    <time>2025-04-24T13:21:22Z</time>
   </trkpt>
   <trkpt lat="53.4364360" lon="-6.1296620">
    <ele>26.6</ele>
    <time>2025-04-24T13:21:27Z</time>
   </trkpt>
   <trkpt lat="53.4363720" lon="-6.1296270">
    <ele>26.3</ele>
    <time>2025-04-24T13:21:33Z</time>
   </trkpt>
   <trkpt lat="53.4363180" lon="-6.1295980">
    <ele>26.0</ele>
    <time>2025-04-24T13:21:38Z</time>
   </trkpt>
   <trkpt lat="53.4362620" lon="-6.1295670">
    <ele>25.7</ele>
    <time>2025-04-24T13:21:44Z</time>
   </trkpt>
   <trkpt lat="53.4361950" lon="-6.1295430">
    <ele>25.4</ele>
    <time>2025-04-24T13:21:50Z</time>
   </trkpt>
   <trkpt lat="53.4361400" lon="-6.1295130">
    <ele>25.1</ele>
    <time>2025-04-24T13:21:55Z</time>
   </trkpt>
   <trkpt lat="53.4360770" lon="-6.1295170">
    <ele>24.8</ele>
    <time>2025-04-24T13:22:01Z</time>
   </trkpt>
   <trkpt lat="53.4360180" lon="-6.1294680">
    <ele>24.6</ele>
    <time>2025-04-24T13:22:06Z</time>
   </trkpt>
   <trkpt lat="53.4359640" lon="-6.1294280">
    <ele>24.3</ele>
    <time>2025-04-24T13:22:11Z</time>
   </trkpt>
   <trkpt lat="53.4359200" lon="-6.1294110">
    <ele>24.1</ele>
    <time>2025-04-24T13:22:17Z</time>
   </trkpt>
   <trkpt lat="53.4358740" lon="-6.1293950">
    <ele>23.9</ele>
    <time>2025-04-24T13:22:22Z</time>
   </trkpt>
   <trkpt lat="53.4358210" lon="-6.1293660">
    <ele>23.7</ele>
    <time>2025-04-24T13:22:28Z</time>
   </trkpt>
   <trkpt lat="53.4357730" lon="-6.1293150">
    <ele>23.5</ele>
    <time>2025-04-24T13:22:33Z</time>
   </trkpt>
   <trkpt lat="53.4357300" lon="-6.1292530">
    <ele>23.2</ele>
    <time>2025-04-24T13:22:38Z</time>
   </trkpt>
   <trkpt lat="53.4356980" lon="-6.1291730">
    <ele>23.0</ele>
    <time>2025-04-24T13:22:44Z</time>
   </trkpt>
   <trkpt lat="53.4356500" lon="-6.1290940">
    <ele>22.7</ele>
    <time>2025-04-24T13:22:49Z</time>
   </trkpt>
   <trkpt lat="53.4356140" lon="-6.1290100">
    <ele>22.4</ele>
    <time>2025-04-24T13:22:55Z</time>
   </trkpt>
   <trkpt lat="53.4355870" lon="-6.1289260">
    <ele>22.1</ele>
    <time>2025-04-24T13:23:00Z</time>
   </trkpt>
   <trkpt lat="53.4355730" lon="-6.1288510">
    <ele>21.8</ele>
    <time>2025-04-24T13:23:06Z</time>
   </trkpt>
   <trkpt lat="53.4355760" lon="-6.1287580">
    <ele>21.6</ele>
    <time>2025-04-24T13:23:11Z</time>
   </trkpt>
   <trkpt lat="53.4355440" lon="-6.1286570">
    <ele>21.3</ele>
    <time>2025-04-24T13:23:17Z</time>
   </trkpt>
   <trkpt lat="53.4355070" lon="-6.1286150">
    <ele>21.0</ele>
    <time>2025-04-24T13:23:23Z</time>
   </trkpt>
   <trkpt lat="53.4355130" lon="-6.1285310">
    <ele>20.8</ele>
    <time>2025-04-24T13:23:55Z</time>
   </trkpt>
   <trkpt lat="53.4354960" lon="-6.1284090">
    <ele>20.5</ele>
    <time>2025-04-24T13:24:00Z</time>
   </trkpt>
   <trkpt lat="53.4354830" lon="-6.1283130">
    <ele>20.3</ele>
    <time>2025-04-24T13:24:06Z</time>
   </trkpt>
   <trkpt lat="53.4354820" lon="-6.1282120">
    <ele>20.1</ele>
    <time>2025-04-24T13:24:11Z</time>
   </trkpt>
   <trkpt lat="53.4354680" lon="-6.1281150">
    <ele>19.9</ele>
    <time>2025-04-24T13:24:16Z</time>
   </trkpt>
   <trkpt lat="53.4354500" lon="-6.1279960">
    <ele>19.7</ele>
    <time>2025-04-24T13:24:21Z</time>
   </trkpt>
   <trkpt lat="53.4354390" lon="-6.1278900">
    <ele>19.5</ele>
    <time>2025-04-24T13:24:26Z</time>
   </trkpt>
   <trkpt lat="53.4354310" lon="-6.1277860">
    <ele>19.4</ele>
    <time>2025-04-24T13:24:32Z</time>
   </trkpt>
   <trkpt lat="53.4354180" lon="-6.1276720">
    <ele>19.3</ele>
    <time>2025-04-24T13:24:37Z</time>
   </trkpt>
   <trkpt lat="53.4354080" lon="-6.1275660">
    <ele>19.2</ele>
    <time>2025-04-24T13:24:42Z</time>
   </trkpt>
   <trkpt lat="53.4354000" lon="-6.1274760">
    <ele>19.0</ele>
    <time>2025-04-24T13:24:48Z</time>
   </trkpt>
   <trkpt lat="53.4353940" lon="-6.1273730">
    <ele>18.9</ele>
    <time>2025-04-24T13:24:53Z</time>
   </trkpt>
   <trkpt lat="53.4353290" lon="-6.1272860">
    <ele>18.8</ele>
    <time>2025-04-24T13:24:59Z</time>
   </trkpt>
   <trkpt lat="53.4352730" lon="-6.1272140">
    <ele>18.5</ele>
    <time>2025-04-24T13:25:04Z</time>
   </trkpt>
   <trkpt lat="53.4352070" lon="-6.1271880">
    <ele>18.4</ele>
    <time>2025-04-24T13:25:09Z</time>
   </trkpt>
   <trkpt lat="53.4351420" lon="-6.1271810">
    <ele>18.2</ele>
    <time>2025-04-24T13:25:15Z</time>
   </trkpt>
   <trkpt lat="53.4350860" lon="-6.1271760">
    <ele>18.0</ele>
    <time>2025-04-24T13:25:20Z</time>
   </trkpt>
   <trkpt lat="53.4350280" lon="-6.1271540">
    <ele>17.9</ele>
    <time>2025-04-24T13:25:26Z</time>
   </trkpt>
   <trkpt lat="53.4349670" lon="-6.1271010">
    <ele>17.7</ele>
    <time>2025-04-24T13:25:31Z</time>
   </trkpt>
   <trkpt lat="53.4349140" lon="-6.1270320">
    <ele>17.5</ele>
    <time>2025-04-24T13:25:36Z</time>
   </trkpt>
   <trkpt lat="53.4348710" lon="-6.1269720">
    <ele>17.4</ele>
    <time>2025-04-24T13:25:41Z</time>
   </trkpt>
   <trkpt lat="53.4348260" lon="-6.1269280">
    <ele>17.2</ele>
    <time>2025-04-24T13:25:47Z</time>
   </trkpt>
   <trkpt lat="53.4347910" lon="-6.1268580">
    <ele>17.0</ele>
    <time>2025-04-24T13:25:53Z</time>
   </trkpt>
   <trkpt lat="53.4347480" lon="-6.1268120">
    <ele>16.8</ele>
    <time>2025-04-24T13:26:29Z</time>
   </trkpt>
   <trkpt lat="53.4346910" lon="-6.1266920">
    <ele>16.6</ele>
    <time>2025-04-24T13:26:35Z</time>
   </trkpt>
   <trkpt lat="53.4346380" lon="-6.1266260">
    <ele>16.3</ele>
    <time>2025-04-24T13:26:40Z</time>
   </trkpt>
   <trkpt lat="53.4345900" lon="-6.1265630">
    <ele>16.1</ele>
    <time>2025-04-24T13:26:46Z</time>
   </trkpt>
   <trkpt lat="53.4345360" lon="-6.1264920">
    <ele>15.8</ele>
    <time>2025-04-24T13:26:51Z</time>
   </trkpt>
   <trkpt lat="53.4344920" lon="-6.1264380">
    <ele>15.6</ele>
    <time>2025-04-24T13:26:57Z</time>
   </trkpt>
   <trkpt lat="53.4344480" lon="-6.1263680">
    <ele>15.3</ele>
    <time>2025-04-24T13:27:02Z</time>
   </trkpt>
   <trkpt lat="53.4344060" lon="-6.1262890">
    <ele>15.1</ele>
    <time>2025-04-24T13:27:08Z</time>
   </trkpt>
   <trkpt lat="53.4343670" lon="-6.1262060">
    <ele>14.8</ele>
    <time>2025-04-24T13:27:13Z</time>
   </trkpt>
   <trkpt lat="53.4343300" lon="-6.1261370">
    <ele>14.5</ele>
    <time>2025-04-24T13:27:18Z</time>
   </trkpt>
   <trkpt lat="53.4342750" lon="-6.1260720">
    <ele>14.2</ele>
    <time>2025-04-24T13:27:23Z</time>
   </trkpt>
   <trkpt lat="53.4342200" lon="-6.1260350">
    <ele>13.9</ele>
    <time>2025-04-24T13:27:29Z</time>
   </trkpt>
   <trkpt lat="53.4341510" lon="-6.1260600">
    <ele>13.7</ele>
    <time>2025-04-24T13:27:34Z</time>
   </trkpt>
   <trkpt lat="53.4341210" lon="-6.1259530">
    <ele>13.4</ele>
    <time>2025-04-24T13:27:39Z</time>
   </trkpt>
   <trkpt lat="53.4341150" lon="-6.1258410">
    <ele>13.1</ele>
    <time>2025-04-24T13:27:45Z</time>
   </trkpt>
   <trkpt lat="53.4341000" lon="-6.1257330">
    <ele>12.9</ele>
    <time>2025-04-24T13:27:50Z</time>
   </trkpt>
   <trkpt lat="53.4340890" lon="-6.1256290">
    <ele>12.6</ele>
    <time>2025-04-24T13:27:55Z</time>
   </trkpt>
   <trkpt lat="53.4340870" lon="-6.1255350">
    <ele>12.3</ele>
    <time>2025-04-24T13:28:00Z</time>
   </trkpt>
   <trkpt lat="53.4340930" lon="-6.1254290">
    <ele>12.1</ele>
    <time>2025-04-24T13:28:06Z</time>
   </trkpt>
   <trkpt lat="53.4340750" lon="-6.1252990">
    <ele>11.9</ele>
    <time>2025-04-24T13:28:11Z</time>
   </trkpt>
   <trkpt lat="53.4340370" lon="-6.1252560">
    <ele>11.7</ele>
    <time>2025-04-24T13:28:16Z</time>
   </trkpt>
   <trkpt lat="53.4339890" lon="-6.1252900">
    <ele>11.4</ele>
    <time>2025-04-24T13:28:33Z</time>
   </trkpt>
   <trkpt lat="53.4339700" lon="-6.1251990">
    <ele>11.2</ele>
    <time>2025-04-24T13:28:39Z</time>
   </trkpt>
   <trkpt lat="53.4339840" lon="-6.1250640">
    <ele>11.0</ele>
    <time>2025-04-24T13:28:44Z</time>
   </trkpt>
   <trkpt lat="53.4339700" lon="-6.1249600">
    <ele>10.7</ele>
    <time>2025-04-24T13:28:49Z</time>
   </trkpt>
   <trkpt lat="53.4339690" lon="-6.1248470">
    <ele>10.3</ele>
    <time>2025-04-24T13:28:54Z</time>
   </trkpt>
   <trkpt lat="53.4339360" lon="-6.1247490">
    <ele>9.9</ele>
    <time>2025-04-24T13:29:00Z</time>
   </trkpt>
   <trkpt lat="53.4338870" lon="-6.1246810">
    <ele>9.5</ele>
    <time>2025-04-24T13:29:05Z</time>
   </trkpt>
   <trkpt lat="53.4338310" lon="-6.1246150">
    <ele>9.2</ele>
    <time>2025-04-24T13:29:10Z</time>
   </trkpt>
   <trkpt lat="53.4337920" lon="-6.1246740">
    <ele>9.1</ele>
    <time>2025-04-24T13:29:16Z</time>
   </trkpt>
   <trkpt lat="53.4337470" lon="-6.1246560">
    <ele>8.8</ele>
    <time>2025-04-24T13:29:56Z</time>
   </trkpt>
   <trkpt lat="53.4337390" lon="-6.1247330">
    <ele>9.0</ele>
    <time>2025-04-24T13:30:08Z</time>
   </trkpt>
   <trkpt lat="53.4337200" lon="-6.1248060">
    <ele>9.2</ele>
    <time>2025-04-24T13:30:35Z</time>
   </trkpt>
   <trkpt lat="53.4338510" lon="-6.1250000">
    <ele>9.8</ele>
    <time>2025-04-24T13:31:02Z</time>
   </trkpt>
   <trkpt lat="53.4337520" lon="-6.1248850">
    <ele>9.8</ele>
    <time>2025-04-24T13:31:07Z</time>
   </trkpt>
   <trkpt lat="53.4337050" lon="-6.1248770">
    <ele>9.6</ele>
    <time>2025-04-24T13:31:13Z</time>
   </trkpt>
   <trkpt lat="53.4337080" lon="-6.1247730">
    <ele>9.4</ele>
    <time>2025-04-24T13:31:29Z</time>
   </trkpt>
   <trkpt lat="53.4337470" lon="-6.1248210">
    <ele>9.2</ele>
    <time>2025-04-24T13:31:43Z</time>
   </trkpt>
   <trkpt lat="53.4337170" lon="-6.1248810">
    <ele>9.4</ele>
    <time>2025-04-24T13:32:11Z</time>
   </trkpt>
   <trkpt lat="53.4337010" lon="-6.1249570">
    <ele>9.5</ele>
    <time>2025-04-24T13:32:28Z</time>
   </trkpt>
   <trkpt lat="53.4337160" lon="-6.1250720">
    <ele>9.8</ele>
    <time>2025-04-24T13:32:52Z</time>
   </trkpt>
   <trkpt lat="53.4337490" lon="-6.1250170">
    <ele>9.9</ele>
    <time>2025-04-24T13:32:57Z</time>
   </trkpt>
   <trkpt lat="53.4337780" lon="-6.1249380">
    <ele>9.9</ele>
    <time>2025-04-24T13:33:02Z</time>
   </trkpt>
   <trkpt lat="53.4336690" lon="-6.1246890">
    <ele>8.8</ele>
    <time>2025-04-24T13:34:44Z</time>
   </trkpt>
   <trkpt lat="53.4337000" lon="-6.1247440">
    <ele>9.0</ele>
    <time>2025-04-24T13:35:00Z</time>
   </trkpt>
   <trkpt lat="53.4338160" lon="-6.1250280">
    <ele>10.1</ele>
    <time>2025-04-24T13:36:17Z</time>
   </trkpt>
   <trkpt lat="53.4337760" lon="-6.1249820">
    <ele>10.1</ele>
    <time>2025-04-24T13:36:23Z</time>
   </trkpt>
   <trkpt lat="53.4337710" lon="-6.1248050">
    <ele>9.8</ele>
    <time>2025-04-24T13:36:29Z</time>
   </trkpt>
   <trkpt lat="53.4337400" lon="-6.1247510">
    <ele>9.3</ele>
    <time>2025-04-24T13:36:47Z</time>
   </trkpt>
   <trkpt lat="53.4337880" lon="-6.1247460">
    <ele>9.2</ele>
    <time>2025-04-24T13:37:07Z</time>
   </trkpt>
   <trkpt lat="53.4338350" lon="-6.1247660">
    <ele>9.3</ele>
    <time>2025-04-24T13:37:21Z</time>
   </trkpt>
   <trkpt lat="53.4337990" lon="-6.1247140">
    <ele>9.3</ele>
    <time>2025-04-24T13:37:33Z</time>
   </trkpt>
   <trkpt lat="53.4338080" lon="-6.1247880">
    <ele>9.2</ele>
    <time>2025-04-24T13:37:53Z</time>
   </trkpt>
   <trkpt lat="53.4337610" lon="-6.1247830">
    <ele>9.3</ele>
    <time>2025-04-24T13:38:20Z</time>
   </trkpt>
   <trkpt lat="53.4337430" lon="-6.1246990">
    <ele>9.2</ele>
    <time>2025-04-24T13:38:32Z</time>
   </trkpt>
   <trkpt lat="53.4337200" lon="-6.1245640">
    <ele>8.9</ele>
    <time>2025-04-24T13:38:38Z</time>
   </trkpt>
   <trkpt lat="53.4337270" lon="-6.1244500">
    <ele>8.6</ele>
    <time>2025-04-24T13:38:43Z</time>
   </trkpt>
   <trkpt lat="53.4337240" lon="-6.1243470">
    <ele>8.1</ele>
    <time>2025-04-24T13:38:48Z</time>
   </trkpt>
   <trkpt lat="53.4337680" lon="-6.1242960">
    <ele>7.8</ele>
    <time>2025-04-24T13:38:54Z</time>
   </trkpt>
   <trkpt lat="53.4338270" lon="-6.1242910">
    <ele>7.6</ele>
    <time>2025-04-24T13:39:00Z</time>
   </trkpt>
   <trkpt lat="53.4338140" lon="-6.1242050">
    <ele>7.3</ele>
    <time>2025-04-24T13:39:21Z</time>
   </trkpt>
   <trkpt lat="53.4338100" lon="-6.1240600">
    <ele>6.9</ele>
    <time>2025-04-24T13:39:26Z</time>
   </trkpt>
   <trkpt lat="53.4338820" lon="-6.1240050">
    <ele>6.4</ele>
    <time>2025-04-24T13:39:32Z</time>
   </trkpt>
   <trkpt lat="53.4339380" lon="-6.1239720">
    <ele>6.0</ele>
    <time>2025-04-24T13:39:38Z</time>
   </trkpt>
   <trkpt lat="53.4339960" lon="-6.1239290">
    <ele>5.7</ele>
    <time>2025-04-24T13:39:43Z</time>
   </trkpt>
   <trkpt lat="53.4340550" lon="-6.1238620">
    <ele>5.3</ele>
    <time>2025-04-24T13:39:48Z</time>
   </trkpt>
   <trkpt lat="53.4340710" lon="-6.1237790">
    <ele>4.9</ele>
    <time>2025-04-24T13:39:53Z</time>
   </trkpt>
   <trkpt lat="53.4340450" lon="-6.1237130">
    <ele>4.4</ele>
    <time>2025-04-24T13:39:59Z</time>
   </trkpt>
   <trkpt lat="53.4340260" lon="-6.1236420">
    <ele>3.9</ele>
    <time>2025-04-24T13:40:06Z</time>
   </trkpt>
   <trkpt lat="53.4339790" lon="-6.1236420">
    <ele>3.6</ele>
    <time>2025-04-24T13:40:12Z</time>
   </trkpt>
   <trkpt lat="53.4339400" lon="-6.1236940">
    <ele>3.7</ele>
    <time>2025-04-24T13:40:18Z</time>
   </trkpt>
   <trkpt lat="53.4339500" lon="-6.1236190">
    <ele>3.6</ele>
    <time>2025-04-24T13:40:24Z</time>
   </trkpt>
   <trkpt lat="53.4340290" lon="-6.1235940">
    <ele>3.3</ele>
    <time>2025-04-24T13:40:29Z</time>
   </trkpt>
   <trkpt lat="53.4340770" lon="-6.1235700">
    <ele>3.2</ele>
    <time>2025-04-24T13:40:36Z</time>
   </trkpt>
   <trkpt lat="53.4341250" lon="-6.1235600">
    <ele>3.1</ele>
    <time>2025-04-24T13:40:41Z</time>
   </trkpt>
   <trkpt lat="53.4341500" lon="-6.1234870">
    <ele>2.9</ele>
    <time>2025-04-24T13:40:48Z</time>
   </trkpt>
   <trkpt lat="53.4342010" lon="-6.1234860">
    <ele>2.8</ele>
    <time>2025-04-24T13:40:54Z</time>
   </trkpt>
   <trkpt lat="53.4342360" lon="-6.1235370">
    <ele>2.9</ele>
    <time>2025-04-24T13:41:02Z</time>
   </trkpt>
   <trkpt lat="53.4342510" lon="-6.1236190">
    <ele>3.3</ele>
    <time>2025-04-24T13:41:13Z</time>
   </trkpt>
   <trkpt lat="53.4342800" lon="-6.1236800">
    <ele>4.1</ele>
    <time>2025-04-24T13:42:00Z</time>
   </trkpt>
   <trkpt lat="53.4343230" lon="-6.1236480">
    <ele>4.1</ele>
    <time>2025-04-24T13:42:27Z</time>
   </trkpt>
   <trkpt lat="53.4343630" lon="-6.1235760">
    <ele>3.9</ele>
    <time>2025-04-24T13:42:32Z</time>
   </trkpt>
   <trkpt lat="53.4343980" lon="-6.1235250">
    <ele>3.7</ele>
    <time>2025-04-24T13:42:39Z</time>
   </trkpt>
   <trkpt lat="53.4343590" lon="-6.1234740">
    <ele>3.4</ele>
    <time>2025-04-24T13:58:10Z</time>
   </trkpt>
   <trkpt lat="53.4343030" lon="-6.1234540">
    <ele>3.1</ele>
    <time>2025-04-24T13:58:15Z</time>
   </trkpt>
   <trkpt lat="53.4342360" lon="-6.1234690">
    <ele>2.9</ele>
    <time>2025-04-24T13:58:20Z</time>
   </trkpt>
   <trkpt lat="53.4341890" lon="-6.1234990">
    <ele>2.8</ele>
    <time>2025-04-24T13:58:26Z</time>
   </trkpt>
   <trkpt lat="53.4341270" lon="-6.1234990">
    <ele>2.8</ele>
    <time>2025-04-24T13:58:31Z</time>
   </trkpt>
   <trkpt lat="53.4340830" lon="-6.1235210">
    <ele>2.7</ele>
    <time>2025-04-24T13:58:37Z</time>
   </trkpt>
   <trkpt lat="53.4340450" lon="-6.1235710">
    <ele>2.8</ele>
    <time>2025-04-24T13:58:43Z</time>
   </trkpt>
   <trkpt lat="53.4340000" lon="-6.1236040">
    <ele>3.0</ele>
    <time>2025-04-24T13:58:49Z</time>
   </trkpt>
   <trkpt lat="53.4339560" lon="-6.1236300">
    <ele>3.2</ele>
    <time>2025-04-24T13:58:57Z</time>
   </trkpt>
   <trkpt lat="53.4340060" lon="-6.1236350">
    <ele>3.5</ele>
    <time>2025-04-24T13:59:10Z</time>
   </trkpt>
   <trkpt lat="53.4340320" lon="-6.1237020">
    <ele>3.6</ele>
    <time>2025-04-24T13:59:16Z</time>
   </trkpt>
   <trkpt lat="53.4340300" lon="-6.1237780">
    <ele>4.0</ele>
    <time>2025-04-24T13:59:24Z</time>
   </trkpt>
   <trkpt lat="53.4340600" lon="-6.1238370">
    <ele>4.6</ele>
    <time>2025-04-24T13:59:37Z</time>
   </trkpt>
   <trkpt lat="53.4341450" lon="-6.1238110">
    <ele>4.7</ele>
    <time>2025-04-24T13:59:42Z</time>
   </trkpt>
   <trkpt lat="53.4342040" lon="-6.1237720">
    <ele>4.6</ele>
    <time>2025-04-24T13:59:48Z</time>
   </trkpt>
   <trkpt lat="53.4342630" lon="-6.1237590">
    <ele>4.6</ele>
    <time>2025-04-24T13:59:53Z</time>
   </trkpt>
   <trkpt lat="53.4343190" lon="-6.1237170">
    <ele>4.5</ele>
    <time>2025-04-24T13:59:58Z</time>
   </trkpt>
   <trkpt lat="53.4343860" lon="-6.1236770">
    <ele>4.5</ele>
    <time>2025-04-24T14:00:03Z</time>
   </trkpt>
   <trkpt lat="53.4344510" lon="-6.1236300">
    <ele>4.4</ele>
    <time>2025-04-24T14:00:09Z</time>
   </trkpt>
   <trkpt lat="53.4345120" lon="-6.1235720">
    <ele>4.3</ele>
    <time>2025-04-24T14:00:14Z</time>
   </trkpt>
   <trkpt lat="53.4345660" lon="-6.1235200">
    <ele>4.2</ele>
    <time>2025-04-24T14:00:19Z</time>
   </trkpt>
   <trkpt lat="53.4346190" lon="-6.1234840">
    <ele>4.2</ele>
    <time>2025-04-24T14:00:25Z</time>
   </trkpt>
   <trkpt lat="53.4346810" lon="-6.1234310">
    <ele>4.2</ele>
    <time>2025-04-24T14:00:30Z</time>
   </trkpt>
   <trkpt lat="53.4347370" lon="-6.1233680">
    <ele>4.1</ele>
    <time>2025-04-24T14:00:35Z</time>
   </trkpt>
   <trkpt lat="53.4348010" lon="-6.1233130">
    <ele>4.1</ele>
    <time>2025-04-24T14:00:40Z</time>
   </trkpt>
   <trkpt lat="53.4348580" lon="-6.1232690">
    <ele>4.1</ele>
    <time>2025-04-24T14:00:46Z</time>
   </trkpt>
   <trkpt lat="53.4349190" lon="-6.1232310">
    <ele>4.1</ele>
    <time>2025-04-24T14:00:51Z</time>
   </trkpt>
   <trkpt lat="53.4349690" lon="-6.1231600">
    <ele>4.0</ele>
    <time>2025-04-24T14:00:56Z</time>
   </trkpt>
   <trkpt lat="53.4350290" lon="-6.1230800">
    <ele>3.9</ele>
    <time>2025-04-24T14:01:01Z</time>
   </trkpt>
   <trkpt lat="53.4350780" lon="-6.1230070">
    <ele>3.7</ele>
    <time>2025-04-24T14:01:06Z</time>
   </trkpt>
   <trkpt lat="53.4351210" lon="-6.1229380">
    <ele>3.5</ele>
    <time>2025-04-24T14:01:12Z</time>
   </trkpt>
   <trkpt lat="53.4351790" lon="-6.1228850">
    <ele>3.4</ele>
    <time>2025-04-24T14:01:17Z</time>
   </trkpt>
   <trkpt lat="53.4352420" lon="-6.1228280">
    <ele>3.3</ele>
    <time>2025-04-24T14:01:22Z</time>
   </trkpt>
   <trkpt lat="53.4353030" lon="-6.1228030">
    <ele>3.2</ele>
    <time>2025-04-24T14:01:27Z</time>
   </trkpt>
   <trkpt lat="53.4353670" lon="-6.1227660">
    <ele>3.3</ele>
    <time>2025-04-24T14:01:32Z</time>
   </trkpt>
   <trkpt lat="53.4354280" lon="-6.1227400">
    <ele>3.4</ele>
    <time>2025-04-24T14:01:37Z</time>
   </trkpt>
   <trkpt lat="53.4354880" lon="-6.1226830">
    <ele>3.4</ele>
    <time>2025-04-24T14:01:42Z</time>
   </trkpt>
   <trkpt lat="53.4355510" lon="-6.1226450">
    <ele>3.5</ele>
    <time>2025-04-24T14:01:48Z</time>
   </trkpt>
   <trkpt lat="53.4356030" lon="-6.1226050">
    <ele>3.5</ele>
    <time>2025-04-24T14:01:53Z</time>
   </trkpt>
   <trkpt lat="53.4356650" lon="-6.1225480">
    <ele>3.5</ele>
    <time>2025-04-24T14:01:58Z</time>
   </trkpt>
   <trkpt lat="53.4357110" lon="-6.1224760">
    <ele>3.5</ele>
    <time>2025-04-24T14:02:04Z</time>
   </trkpt>
   <trkpt lat="53.4357630" lon="-6.1224060">
    <ele>3.4</ele>
    <time>2025-04-24T14:02:09Z</time>
   </trkpt>
   <trkpt lat="53.4358230" lon="-6.1223250">
    <ele>3.3</ele>
    <time>2025-04-24T14:02:14Z</time>
   </trkpt>
   <trkpt lat="53.4358730" lon="-6.1222450">
    <ele>3.1</ele>
    <time>2025-04-24T14:02:19Z</time>
   </trkpt>
   <trkpt lat="53.4359310" lon="-6.1221860">
    <ele>3.1</ele>
    <time>2025-04-24T14:02:24Z</time>
   </trkpt>
   <trkpt lat="53.4359870" lon="-6.1221640">
    <ele>3.1</ele>
    <time>2025-04-24T14:02:30Z</time>
   </trkpt>
   <trkpt lat="53.4360440" lon="-6.1221430">
    <ele>3.3</ele>
    <time>2025-04-24T14:02:35Z</time>
   </trkpt>
   <trkpt lat="53.4361040" lon="-6.1221100">
    <ele>3.4</ele>
    <time>2025-04-24T14:02:40Z</time>
   </trkpt>
   <trkpt lat="53.4361620" lon="-6.1220750">
    <ele>3.5</ele>
    <time>2025-04-24T14:02:45Z</time>
   </trkpt>
   <trkpt lat="53.4362260" lon="-6.1220440">
    <ele>3.7</ele>
    <time>2025-04-24T14:02:50Z</time>
   </trkpt>
   <trkpt lat="53.4362940" lon="-6.1220300">
    <ele>3.9</ele>
    <time>2025-04-24T14:02:55Z</time>
   </trkpt>
   <trkpt lat="53.4363540" lon="-6.1220130">
    <ele>4.1</ele>
    <time>2025-04-24T14:03:00Z</time>
   </trkpt>
   <trkpt lat="53.4364170" lon="-6.1220010">
    <ele>4.3</ele>
    <time>2025-04-24T14:03:05Z</time>
   </trkpt>
   <trkpt lat="53.4364800" lon="-6.1220050">
    <ele>4.5</ele>
    <time>2025-04-24T14:03:11Z</time>
   </trkpt>
   <trkpt lat="53.4365540" lon="-6.1220130">
    <ele>4.7</ele>
    <time>2025-04-24T14:03:16Z</time>
   </trkpt>
   <trkpt lat="53.4366160" lon="-6.1219980">
    <ele>4.8</ele>
    <time>2025-04-24T14:03:21Z</time>
   </trkpt>
   <trkpt lat="53.4366710" lon="-6.1219940">
    <ele>4.9</ele>
    <time>2025-04-24T14:03:26Z</time>
   </trkpt>
   <trkpt lat="53.4367320" lon="-6.1220020">
    <ele>4.9</ele>
    <time>2025-04-24T14:03:31Z</time>
   </trkpt>
   <trkpt lat="53.4368020" lon="-6.1220310">
    <ele>5.0</ele>
    <time>2025-04-24T14:03:36Z</time>
   </trkpt>
   <trkpt lat="53.4368720" lon="-6.1220260">
    <ele>4.9</ele>
    <time>2025-04-24T14:03:42Z</time>
   </trkpt>
   <trkpt lat="53.4369380" lon="-6.1220310">
    <ele>4.8</ele>
    <time>2025-04-24T14:03:47Z</time>
   </trkpt>
   <trkpt lat="53.4369960" lon="-6.1220570">
    <ele>4.7</ele>
    <time>2025-04-24T14:03:52Z</time>
   </trkpt>
   <trkpt lat="53.4370340" lon="-6.1221050">
    <ele>4.7</ele>
    <time>2025-04-24T14:03:58Z</time>
   </trkpt>
   <trkpt lat="53.4370090" lon="-6.1220380">
    <ele>4.6</ele>
    <time>2025-04-24T14:04:03Z</time>
   </trkpt>
   <trkpt lat="53.4370460" lon="-6.1220980">
    <ele>4.6</ele>
    <time>2025-04-24T14:04:44Z</time>
   </trkpt>
   <trkpt lat="53.4370910" lon="-6.1221150">
    <ele>4.6</ele>
    <time>2025-04-24T14:04:49Z</time>
   </trkpt>
   <trkpt lat="53.4371480" lon="-6.1221550">
    <ele>4.6</ele>
    <time>2025-04-24T14:04:55Z</time>
   </trkpt>
   <trkpt lat="53.4371950" lon="-6.1221940">
    <ele>4.6</ele>
    <time>2025-04-24T14:05:28Z</time>
   </trkpt>
   <trkpt lat="53.4372750" lon="-6.1222390">
    <ele>4.6</ele>
    <time>2025-04-24T14:05:34Z</time>
   </trkpt>
   <trkpt lat="53.4373320" lon="-6.1223010">
    <ele>4.5</ele>
    <time>2025-04-24T14:05:39Z</time>
   </trkpt>
   <trkpt lat="53.4373830" lon="-6.1223810">
    <ele>4.6</ele>
    <time>2025-04-24T14:05:44Z</time>
   </trkpt>
   <trkpt lat="53.4374330" lon="-6.1224070">
    <ele>4.7</ele>
    <time>2025-04-24T14:05:50Z</time>
   </trkpt>
   <trkpt lat="53.4374490" lon="-6.1224800">
    <ele>4.8</ele>
    <time>2025-04-24T14:05:58Z</time>
   </trkpt>
   <trkpt lat="53.4375150" lon="-6.1225710">
    <ele>5.1</ele>
    <time>2025-04-24T14:06:03Z</time>
   </trkpt>
   <trkpt lat="53.4376010" lon="-6.1226110">
    <ele>5.3</ele>
    <time>2025-04-24T14:06:08Z</time>
   </trkpt>
   <trkpt lat="53.4376720" lon="-6.1226120">
    <ele>5.2</ele>
    <time>2025-04-24T14:06:14Z</time>
   </trkpt>
   <trkpt lat="53.4377300" lon="-6.1226320">
    <ele>5.2</ele>
    <time>2025-04-24T14:06:19Z</time>
   </trkpt>
   <trkpt lat="53.4377950" lon="-6.1226670">
    <ele>5.2</ele>
    <time>2025-04-24T14:06:24Z</time>
   </trkpt>
   <trkpt lat="53.4378680" lon="-6.1226990">
    <ele>5.2</ele>
    <time>2025-04-24T14:06:30Z</time>
   </trkpt>
   <trkpt lat="53.4379330" lon="-6.1227220">
    <ele>5.3</ele>
    <time>2025-04-24T14:06:35Z</time>
   </trkpt>
   <trkpt lat="53.4380060" lon="-6.1227630">
    <ele>5.4</ele>
    <time>2025-04-24T14:06:41Z</time>
   </trkpt>
   <trkpt lat="53.4380650" lon="-6.1228030">
    <ele>5.6</ele>
    <time>2025-04-24T14:06:46Z</time>
   </trkpt>
   <trkpt lat="53.4381240" lon="-6.1228640">
    <ele>6.0</ele>
    <time>2025-04-24T14:06:51Z</time>
   </trkpt>
   <trkpt lat="53.4381900" lon="-6.1228860">
    <ele>6.4</ele>
    <time>2025-04-24T14:06:56Z</time>
   </trkpt>
   <trkpt lat="53.4382660" lon="-6.1228910">
    <ele>6.6</ele>
    <time>2025-04-24T14:07:01Z</time>
   </trkpt>
   <trkpt lat="53.4383330" lon="-6.1229070">
    <ele>6.7</ele>
    <time>2025-04-24T14:07:06Z</time>
   </trkpt>
   <trkpt lat="53.4383980" lon="-6.1229370">
    <ele>7.0</ele>
    <time>2025-04-24T14:07:11Z</time>
   </trkpt>
   <trkpt lat="53.4384700" lon="-6.1229460">
    <ele>7.2</ele>
    <time>2025-04-24T14:07:16Z</time>
   </trkpt>
   <trkpt lat="53.4385190" lon="-6.1229380">
    <ele>7.4</ele>
    <time>2025-04-24T14:07:21Z</time>
   </trkpt>
   <trkpt lat="53.4385660" lon="-6.1229640">
    <ele>7.6</ele>
    <time>2025-04-24T14:07:42Z</time>
   </trkpt>
   <trkpt lat="53.4386600" lon="-6.1229810">
    <ele>7.9</ele>
    <time>2025-04-24T14:07:48Z</time>
   </trkpt>
   <trkpt lat="53.4387410" lon="-6.1229480">
    <ele>8.0</ele>
    <time>2025-04-24T14:07:53Z</time>
   </trkpt>
   <trkpt lat="53.4388100" lon="-6.1229330">
    <ele>8.0</ele>
    <time>2025-04-24T14:07:58Z</time>
   </trkpt>
   <trkpt lat="53.4388700" lon="-6.1229130">
    <ele>7.9</ele>
    <time>2025-04-24T14:08:03Z</time>
   </trkpt>
   <trkpt lat="53.4389360" lon="-6.1228890">
    <ele>7.8</ele>
    <time>2025-04-24T14:08:08Z</time>
   </trkpt>
   <trkpt lat="53.4390050" lon="-6.1228720">
    <ele>7.7</ele>
    <time>2025-04-24T14:08:13Z</time>
   </trkpt>
   <trkpt lat="53.4390690" lon="-6.1228500">
    <ele>7.5</ele>
    <time>2025-04-24T14:08:18Z</time>
   </trkpt>
   <trkpt lat="53.4391350" lon="-6.1228310">
    <ele>7.3</ele>
    <time>2025-04-24T14:08:23Z</time>
   </trkpt>
   <trkpt lat="53.4392050" lon="-6.1228230">
    <ele>7.2</ele>
    <time>2025-04-24T14:08:28Z</time>
   </trkpt>
   <trkpt lat="53.4392750" lon="-6.1228430">
    <ele>7.1</ele>
    <time>2025-04-24T14:08:33Z</time>
   </trkpt>
   <trkpt lat="53.4393420" lon="-6.1228680">
    <ele>7.2</ele>
    <time>2025-04-24T14:08:38Z</time>
   </trkpt>
   <trkpt lat="53.4394020" lon="-6.1228990">
    <ele>7.3</ele>
    <time>2025-04-24T14:08:44Z</time>
   </trkpt>
   <trkpt lat="53.4394680" lon="-6.1229140">
    <ele>7.3</ele>
    <time>2025-04-24T14:08:49Z</time>
   </trkpt>
   <trkpt lat="53.4395320" lon="-6.1229160">
    <ele>7.3</ele>
    <time>2025-04-24T14:08:54Z</time>
   </trkpt>
   <trkpt lat="53.4395940" lon="-6.1229270">
    <ele>7.1</ele>
    <time>2025-04-24T14:08:59Z</time>
   </trkpt>
   <trkpt lat="53.4396580" lon="-6.1229170">
    <ele>7.0</ele>
    <time>2025-04-24T14:09:04Z</time>
   </trkpt>
   <trkpt lat="53.4397210" lon="-6.1228760">
    <ele>6.6</ele>
    <time>2025-04-24T14:09:09Z</time>
   </trkpt>
   <trkpt lat="53.4397850" lon="-6.1228440">
    <ele>6.1</ele>
    <time>2025-04-24T14:09:14Z</time>
   </trkpt>
   <trkpt lat="53.4398590" lon="-6.1228000">
    <ele>5.6</ele>
    <time>2025-04-24T14:09:19Z</time>
   </trkpt>
   <trkpt lat="53.4399270" lon="-6.1227590">
    <ele>5.1</ele>
    <time>2025-04-24T14:09:24Z</time>
   </trkpt>
   <trkpt lat="53.4399930" lon="-6.1227500">
    <ele>4.8</ele>
    <time>2025-04-24T14:09:29Z</time>
   </trkpt>
   <trkpt lat="53.4400560" lon="-6.1227750">
    <ele>4.6</ele>
    <time>2025-04-24T14:09:35Z</time>
   </trkpt>
   <trkpt lat="53.4401130" lon="-6.1227990">
    <ele>4.6</ele>
    <time>2025-04-24T14:09:40Z</time>
   </trkpt>
   <trkpt lat="53.4401860" lon="-6.1228260">
    <ele>4.6</ele>
    <time>2025-04-24T14:09:45Z</time>
   </trkpt>
   <trkpt lat="53.4402430" lon="-6.1228440">
    <ele>4.6</ele>
    <time>2025-04-24T14:09:50Z</time>
   </trkpt>
   <trkpt lat="53.4403030" lon="-6.1228740">
    <ele>4.6</ele>
    <time>2025-04-24T14:09:56Z</time>
   </trkpt>
   <trkpt lat="53.4403670" lon="-6.1228930">
    <ele>4.6</ele>
    <time>2025-04-24T14:10:01Z</time>
   </trkpt>
   <trkpt lat="53.4404300" lon="-6.1229080">
    <ele>4.6</ele>
    <time>2025-04-24T14:10:06Z</time>
   </trkpt>
   <trkpt lat="53.4404890" lon="-6.1229200">
    <ele>4.6</ele>
    <time>2025-04-24T14:10:11Z</time>
   </trkpt>
   <trkpt lat="53.4405570" lon="-6.1229370">
    <ele>4.6</ele>
    <time>2025-04-24T14:10:16Z</time>
   </trkpt>
   <trkpt lat="53.4406200" lon="-6.1229570">
    <ele>4.5</ele>
    <time>2025-04-24T14:10:21Z</time>
   </trkpt>
   <trkpt lat="53.4406830" lon="-6.1229800">
    <ele>4.5</ele>
    <time>2025-04-24T14:10:26Z</time>
   </trkpt>
   <trkpt lat="53.4407590" lon="-6.1229920">
    <ele>4.5</ele>
    <time>2025-04-24T14:10:31Z</time>
   </trkpt>
   <trkpt lat="53.4408300" lon="-6.1230110">
    <ele>4.5</ele>
    <time>2025-04-24T14:10:37Z</time>
   </trkpt>
   <trkpt lat="53.4408920" lon="-6.1230180">
    <ele>4.4</ele>
    <time>2025-04-24T14:10:42Z</time>
   </trkpt>
   <trkpt lat="53.4409600" lon="-6.1230010">
    <ele>4.3</ele>
    <time>2025-04-24T14:10:47Z</time>
   </trkpt>
   <trkpt lat="53.4410210" lon="-6.1229900">
    <ele>4.2</ele>
    <time>2025-04-24T14:10:52Z</time>
   </trkpt>
   <trkpt lat="53.4410840" lon="-6.1229770">
    <ele>4.1</ele>
    <time>2025-04-24T14:10:57Z</time>
   </trkpt>
   <trkpt lat="53.4411500" lon="-6.1229670">
    <ele>3.9</ele>
    <time>2025-04-24T14:11:02Z</time>
   </trkpt>
   <trkpt lat="53.4412100" lon="-6.1229490">
    <ele>3.8</ele>
    <time>2025-04-24T14:11:07Z</time>
   </trkpt>
   <trkpt lat="53.4412770" lon="-6.1229420">
    <ele>3.7</ele>
    <time>2025-04-24T14:11:13Z</time>
   </trkpt>
   <trkpt lat="53.4413380" lon="-6.1229080">
    <ele>3.5</ele>
    <time>2025-04-24T14:11:18Z</time>
   </trkpt>
   <trkpt lat="53.4413920" lon="-6.1228790">
    <ele>3.3</ele>
    <time>2025-04-24T14:11:23Z</time>
   </trkpt>
   <trkpt lat="53.4414470" lon="-6.1228440">
    <ele>3.1</ele>
    <time>2025-04-24T14:11:28Z</time>
   </trkpt>
   <trkpt lat="53.4414980" lon="-6.1228840">
    <ele>3.0</ele>
    <time>2025-04-24T14:11:34Z</time>
   </trkpt>
   <trkpt lat="53.4415360" lon="-6.1228360">
    <ele>2.9</ele>
    <time>2025-04-24T14:11:39Z</time>
   </trkpt>
   <trkpt lat="53.4415670" lon="-6.1228980">
    <ele>2.8</ele>
    <time>2025-04-24T14:11:49Z</time>
   </trkpt>
   <trkpt lat="53.4416510" lon="-6.1230060">
    <ele>3.1</ele>
    <time>2025-04-24T14:11:54Z</time>
   </trkpt>
   <trkpt lat="53.4417170" lon="-6.1230950">
    <ele>3.4</ele>
    <time>2025-04-24T14:11:59Z</time>
   </trkpt>
   <trkpt lat="53.4417880" lon="-6.1231380">
    <ele>3.5</ele>
    <time>2025-04-24T14:12:05Z</time>
   </trkpt>
   <trkpt lat="53.4418550" lon="-6.1231880">
    <ele>3.5</ele>
    <time>2025-04-24T14:12:10Z</time>
   </trkpt>
   <trkpt lat="53.4419210" lon="-6.1232450">
    <ele>3.5</ele>
    <time>2025-04-24T14:12:16Z</time>
   </trkpt>
   <trkpt lat="53.4419740" lon="-6.1232820">
    <ele>3.5</ele>
    <time>2025-04-24T14:12:21Z</time>
   </trkpt>
   <trkpt lat="53.4420240" lon="-6.1233670">
    <ele>3.5</ele>
    <time>2025-04-24T14:12:26Z</time>
   </trkpt>
   <trkpt lat="53.4420440" lon="-6.1234450">
    <ele>3.6</ele>
    <time>2025-04-24T14:12:32Z</time>
   </trkpt>
   <trkpt lat="53.4420890" lon="-6.1234690">
    <ele>3.7</ele>
    <time>2025-04-24T14:12:38Z</time>
   </trkpt>
   <trkpt lat="53.4421620" lon="-6.1235480">
    <ele>3.7</ele>
    <time>2025-04-24T14:12:43Z</time>
   </trkpt>
   <trkpt lat="53.4422240" lon="-6.1236060">
    <ele>3.7</ele>
    <time>2025-04-24T14:12:48Z</time>
   </trkpt>
   <trkpt lat="53.4422890" lon="-6.1236550">
    <ele>3.7</ele>
    <time>2025-04-24T14:12:54Z</time>
   </trkpt>
   <trkpt lat="53.4423620" lon="-6.1236990">
    <ele>3.7</ele>
    <time>2025-04-24T14:12:59Z</time>
   </trkpt>
   <trkpt lat="53.4424210" lon="-6.1237330">
    <ele>3.6</ele>
    <time>2025-04-24T14:13:04Z</time>
   </trkpt>
   <trkpt lat="53.4424790" lon="-6.1237740">
    <ele>3.6</ele>
    <time>2025-04-24T14:13:09Z</time>
   </trkpt>
   <trkpt lat="53.4425420" lon="-6.1238100">
    <ele>3.6</ele>
    <time>2025-04-24T14:13:14Z</time>
   </trkpt>
   <trkpt lat="53.4425980" lon="-6.1238570">
    <ele>3.7</ele>
    <time>2025-04-24T14:13:19Z</time>
   </trkpt>
   <trkpt lat="53.4426450" lon="-6.1239070">
    <ele>3.8</ele>
    <time>2025-04-24T14:13:25Z</time>
   </trkpt>
   <trkpt lat="53.4426900" lon="-6.1239720">
    <ele>3.9</ele>
    <time>2025-04-24T14:13:30Z</time>
   </trkpt>
   <trkpt lat="53.4427510" lon="-6.1240000">
    <ele>3.9</ele>
    <time>2025-04-24T14:13:35Z</time>
   </trkpt>
   <trkpt lat="53.4428020" lon="-6.1240870">
    <ele>4.1</ele>
    <time>2025-04-24T14:13:40Z</time>
   </trkpt>
   <trkpt lat="53.4428630" lon="-6.1241330">
    <ele>4.1</ele>
    <time>2025-04-24T14:13:46Z</time>
   </trkpt>
   <trkpt lat="53.4429170" lon="-6.1241780">
    <ele>4.0</ele>
    <time>2025-04-24T14:13:51Z</time>
   </trkpt>
   <trkpt lat="53.4429810" lon="-6.1242320">
    <ele>4.0</ele>
    <time>2025-04-24T14:13:56Z</time>
   </trkpt>
   <trkpt lat="53.4430430" lon="-6.1242830">
    <ele>3.9</ele>
    <time>2025-04-24T14:14:01Z</time>
   </trkpt>
   <trkpt lat="53.4430910" lon="-6.1243470">
    <ele>3.9</ele>
    <time>2025-04-24T14:14:06Z</time>
   </trkpt>
   <trkpt lat="53.4431420" lon="-6.1243870">
    <ele>3.8</ele>
    <time>2025-04-24T14:14:12Z</time>
   </trkpt>
   <trkpt lat="53.4432010" lon="-6.1244330">
    <ele>3.8</ele>
    <time>2025-04-24T14:14:17Z</time>
   </trkpt>
   <trkpt lat="53.4432740" lon="-6.1244890">
    <ele>3.8</ele>
    <time>2025-04-24T14:14:23Z</time>
   </trkpt>
   <trkpt lat="53.4433270" lon="-6.1245510">
    <ele>3.8</ele>
    <time>2025-04-24T14:14:28Z</time>
   </trkpt>
   <trkpt lat="53.4433970" lon="-6.1245980">
    <ele>3.8</ele>
    <time>2025-04-24T14:14:33Z</time>
   </trkpt>
   <trkpt lat="53.4434520" lon="-6.1246590">
    <ele>3.8</ele>
    <time>2025-04-24T14:14:38Z</time>
   </trkpt>
   <trkpt lat="53.4435090" lon="-6.1247180">
    <ele>3.8</ele>
    <time>2025-04-24T14:14:43Z</time>
   </trkpt>
   <trkpt lat="53.4435500" lon="-6.1248140">
    <ele>3.9</ele>
    <time>2025-04-24T14:14:48Z</time>
   </trkpt>
   <trkpt lat="53.4435860" lon="-6.1248940">
    <ele>4.0</ele>
    <time>2025-04-24T14:14:54Z</time>
   </trkpt>
   <trkpt lat="53.4436240" lon="-6.1249840">
    <ele>4.1</ele>
    <time>2025-04-24T14:14:59Z</time>
   </trkpt>
   <trkpt lat="53.4436650" lon="-6.1250820">
    <ele>4.2</ele>
    <time>2025-04-24T14:15:04Z</time>
   </trkpt>
   <trkpt lat="53.4437080" lon="-6.1251560">
    <ele>4.1</ele>
    <time>2025-04-24T14:15:09Z</time>
   </trkpt>
   <trkpt lat="53.4437520" lon="-6.1252430">
    <ele>4.0</ele>
    <time>2025-04-24T14:15:15Z</time>
   </trkpt>
   <trkpt lat="53.4437880" lon="-6.1253370">
    <ele>3.9</ele>
    <time>2025-04-24T14:15:20Z</time>
   </trkpt>
   <trkpt lat="53.4438190" lon="-6.1254140">
    <ele>3.8</ele>
    <time>2025-04-24T14:15:25Z</time>
   </trkpt>
   <trkpt lat="53.4438490" lon="-6.1255000">
    <ele>3.7</ele>
    <time>2025-04-24T14:15:30Z</time>
   </trkpt>
   <trkpt lat="53.4438840" lon="-6.1255930">
    <ele>3.5</ele>
    <time>2025-04-24T14:15:35Z</time>
   </trkpt>
   <trkpt lat="53.4439110" lon="-6.1257060">
    <ele>3.5</ele>
    <time>2025-04-24T14:15:40Z</time>
   </trkpt>
   <trkpt lat="53.4439420" lon="-6.1258010">
    <ele>3.4</ele>
    <time>2025-04-24T14:15:45Z</time>
   </trkpt>
   <trkpt lat="53.4439760" lon="-6.1258860">
    <ele>3.3</ele>
    <time>2025-04-24T14:15:50Z</time>
   </trkpt>
   <trkpt lat="53.4440030" lon="-6.1259750">
    <ele>3.4</ele>
    <time>2025-04-24T14:15:55Z</time>
   </trkpt>
   <trkpt lat="53.4440300" lon="-6.1260950">
    <ele>3.5</ele>
    <time>2025-04-24T14:16:01Z</time>
   </trkpt>
   <trkpt lat="53.4440600" lon="-6.1262170">
    <ele>3.7</ele>
    <time>2025-04-24T14:16:07Z</time>
   </trkpt>
   <trkpt lat="53.4441050" lon="-6.1263250">
    <ele>3.8</ele>
    <time>2025-04-24T14:16:12Z</time>
   </trkpt>
   <trkpt lat="53.4441500" lon="-6.1263930">
    <ele>3.9</ele>
    <time>2025-04-24T14:16:17Z</time>
   </trkpt>
   <trkpt lat="53.4441820" lon="-6.1264930">
    <ele>4.1</ele>
    <time>2025-04-24T14:16:22Z</time>
   </trkpt>
   <trkpt lat="53.4442110" lon="-6.1265650">
    <ele>4.3</ele>
    <time>2025-04-24T14:16:28Z</time>
   </trkpt>
   <trkpt lat="53.4442390" lon="-6.1266430">
    <ele>4.4</ele>
    <time>2025-04-24T14:16:33Z</time>
   </trkpt>
   <trkpt lat="53.4442630" lon="-6.1267570">
    <ele>4.6</ele>
    <time>2025-04-24T14:16:38Z</time>
   </trkpt>
   <trkpt lat="53.4443210" lon="-6.1268300">
    <ele>4.6</ele>
    <time>2025-04-24T14:16:43Z</time>
   </trkpt>
   <trkpt lat="53.4443680" lon="-6.1269080">
    <ele>4.6</ele>
    <time>2025-04-24T14:16:48Z</time>
   </trkpt>
   <trkpt lat="53.4444080" lon="-6.1269920">
    <ele>4.6</ele>
    <time>2025-04-24T14:16:53Z</time>
   </trkpt>
   <trkpt lat="53.4444450" lon="-6.1270820">
    <ele>4.6</ele>
    <time>2025-04-24T14:16:58Z</time>
   </trkpt>
   <trkpt lat="53.4444720" lon="-6.1271940">
    <ele>4.6</ele>
    <time>2025-04-24T14:17:03Z</time>
   </trkpt>
   <trkpt lat="53.4445120" lon="-6.1272920">
    <ele>4.6</ele>
    <time>2025-04-24T14:17:08Z</time>
   </trkpt>
   <trkpt lat="53.4445670" lon="-6.1273810">
    <ele>4.5</ele>
    <time>2025-04-24T14:17:14Z</time>
   </trkpt>
   <trkpt lat="53.4446000" lon="-6.1274700">
    <ele>4.3</ele>
    <time>2025-04-24T14:17:19Z</time>
   </trkpt>
   <trkpt lat="53.4446410" lon="-6.1275510">
    <ele>4.2</ele>
    <time>2025-04-24T14:17:24Z</time>
   </trkpt>
   <trkpt lat="53.4446630" lon="-6.1276540">
    <ele>4.1</ele>
    <time>2025-04-24T14:17:29Z</time>
   </trkpt>
   <trkpt lat="53.4446970" lon="-6.1277610">
    <ele>4.0</ele>
    <time>2025-04-24T14:17:35Z</time>
   </trkpt>
   <trkpt lat="53.4447110" lon="-6.1278910">
    <ele>4.0</ele>
    <time>2025-04-24T14:17:40Z</time>
   </trkpt>
   <trkpt lat="53.4447350" lon="-6.1279960">
    <ele>4.1</ele>
    <time>2025-04-24T14:17:46Z</time>
   </trkpt>
   <trkpt lat="53.4447680" lon="-6.1280870">
    <ele>4.1</ele>
    <time>2025-04-24T14:17:51Z</time>
   </trkpt>
   <trkpt lat="53.4448110" lon="-6.1281650">
    <ele>4.0</ele>
    <time>2025-04-24T14:17:56Z</time>
   </trkpt>
   <trkpt lat="53.4448510" lon="-6.1282450">
    <ele>3.8</ele>
    <time>2025-04-24T14:18:01Z</time>
   </trkpt>
   <trkpt lat="53.4448760" lon="-6.1283500">
    <ele>3.8</ele>
    <time>2025-04-24T14:18:07Z</time>
   </trkpt>
   <trkpt lat="53.4449160" lon="-6.1284280">
    <ele>3.8</ele>
    <time>2025-04-24T14:18:12Z</time>
   </trkpt>
   <trkpt lat="53.4449520" lon="-6.1284960">
    <ele>3.7</ele>
    <time>2025-04-24T14:18:17Z</time>
   </trkpt>
   <trkpt lat="53.4449900" lon="-6.1285690">
    <ele>3.7</ele>
    <time>2025-04-24T14:18:22Z</time>
   </trkpt>
   <trkpt lat="53.4450310" lon="-6.1286410">
    <ele>3.6</ele>
    <time>2025-04-24T14:18:28Z</time>
   </trkpt>
   <trkpt lat="53.4450910" lon="-6.1287020">
    <ele>3.5</ele>
    <time>2025-04-24T14:18:33Z</time>
   </trkpt>
   <trkpt lat="53.4451470" lon="-6.1287550">
    <ele>3.4</ele>
    <time>2025-04-24T14:18:38Z</time>
   </trkpt>
   <trkpt lat="53.4451930" lon="-6.1287880">
    <ele>3.3</ele>
    <time>2025-04-24T14:18:43Z</time>
   </trkpt>
   <trkpt lat="53.4452350" lon="-6.1288410">
    <ele>3.1</ele>
    <time>2025-04-24T14:18:50Z</time>
   </trkpt>
   <trkpt lat="53.4453040" lon="-6.1288940">
    <ele>3.0</ele>
    <time>2025-04-24T14:18:55Z</time>
   </trkpt>
   <trkpt lat="53.4453510" lon="-6.1289520">
    <ele>2.8</ele>
    <time>2025-04-24T14:19:00Z</time>
   </trkpt>
   <trkpt lat="53.4453960" lon="-6.1290340">
    <ele>2.7</ele>
    <time>2025-04-24T14:19:05Z</time>
   </trkpt>
   <trkpt lat="53.4454410" lon="-6.1291500">
    <ele>2.7</ele>
    <time>2025-04-24T14:19:11Z</time>
   </trkpt>
   <trkpt lat="53.4454800" lon="-6.1292440">
    <ele>2.7</ele>
    <time>2025-04-24T14:19:16Z</time>
   </trkpt>
   <trkpt lat="53.4454880" lon="-6.1293280">
    <ele>2.6</ele>
    <time>2025-04-24T14:19:51Z</time>
   </trkpt>
   <trkpt lat="53.4455050" lon="-6.1294700">
    <ele>2.8</ele>
    <time>2025-04-24T14:19:56Z</time>
   </trkpt>
   <trkpt lat="53.4455050" lon="-6.1295760">
    <ele>3.0</ele>
    <time>2025-04-24T14:20:01Z</time>
   </trkpt>
   <trkpt lat="53.4455180" lon="-6.1296820">
    <ele>3.1</ele>
    <time>2025-04-24T14:20:07Z</time>
   </trkpt>
   <trkpt lat="53.4455310" lon="-6.1297650">
    <ele>3.2</ele>
    <time>2025-04-24T14:20:12Z</time>
   </trkpt>
   <trkpt lat="53.4455430" lon="-6.1298940">
    <ele>3.3</ele>
    <time>2025-04-24T14:20:17Z</time>
   </trkpt>
   <trkpt lat="53.4455640" lon="-6.1300040">
    <ele>3.4</ele>
    <time>2025-04-24T14:20:22Z</time>
   </trkpt>
   <trkpt lat="53.4455780" lon="-6.1301080">
    <ele>3.5</ele>
    <time>2025-04-24T14:20:27Z</time>
   </trkpt>
   <trkpt lat="53.4456000" lon="-6.1302060">
    <ele>3.6</ele>
    <time>2025-04-24T14:20:32Z</time>
   </trkpt>
   <trkpt lat="53.4456350" lon="-6.1302890">
    <ele>3.6</ele>
    <time>2025-04-24T14:20:38Z</time>
   </trkpt>
   <trkpt lat="53.4456570" lon="-6.1303840">
    <ele>3.7</ele>
    <time>2025-04-24T14:20:43Z</time>
   </trkpt>
   <trkpt lat="53.4456870" lon="-6.1304960">
    <ele>3.8</ele>
    <time>2025-04-24T14:20:48Z</time>
   </trkpt>
   <trkpt lat="53.4457220" lon="-6.1305750">
    <ele>3.8</ele>
    <time>2025-04-24T14:20:53Z</time>
   </trkpt>
   <trkpt lat="53.4457800" lon="-6.1305990">
    <ele>3.8</ele>
    <time>2025-04-24T14:20:59Z</time>
   </trkpt>
   <trkpt lat="53.4457970" lon="-6.1305270">
    <ele>3.6</ele>
    <time>2025-04-24T14:21:13Z</time>
   </trkpt>
   <trkpt lat="53.4458410" lon="-6.1305650">
    <ele>3.5</ele>
    <time>2025-04-24T14:21:18Z</time>
   </trkpt>
   <trkpt lat="53.4458770" lon="-6.1306490">
    <ele>3.4</ele>
    <time>2025-04-24T14:21:24Z</time>
   </trkpt>
   <trkpt lat="53.4459000" lon="-6.1307240">
    <ele>3.5</ele>
    <time>2025-04-24T14:21:33Z</time>
   </trkpt>
   <trkpt lat="53.4459370" lon="-6.1307760">
    <ele>3.5</ele>
    <time>2025-04-24T14:21:39Z</time>
   </trkpt>
   <trkpt lat="53.4459830" lon="-6.1307910">
    <ele>3.3</ele>
    <time>2025-04-24T14:21:45Z</time>
   </trkpt>
   <trkpt lat="53.4460290" lon="-6.1308190">
    <ele>3.2</ele>
    <time>2025-04-24T14:21:52Z</time>
   </trkpt>
   <trkpt lat="53.4460680" lon="-6.1308930">
    <ele>3.1</ele>
    <time>2025-04-24T14:21:57Z</time>
   </trkpt>
   <trkpt lat="53.4460940" lon="-6.1309820">
    <ele>3.0</ele>
    <time>2025-04-24T14:22:02Z</time>
   </trkpt>
   <trkpt lat="53.4461070" lon="-6.1310940">
    <ele>2.9</ele>
    <time>2025-04-24T14:22:08Z</time>
   </trkpt>
   <trkpt lat="53.4461310" lon="-6.1311600">
    <ele>2.9</ele>
    <time>2025-04-24T14:22:13Z</time>
   </trkpt>
   <trkpt lat="53.4461260" lon="-6.1312700">
    <ele>2.9</ele>
    <time>2025-04-24T14:22:19Z</time>
   </trkpt>
   <trkpt lat="53.4461530" lon="-6.1313500">
    <ele>2.8</ele>
    <time>2025-04-24T14:22:24Z</time>
   </trkpt>
   <trkpt lat="53.4461720" lon="-6.1314330">
    <ele>2.8</ele>
    <time>2025-04-24T14:22:48Z</time>
   </trkpt>
   <trkpt lat="53.4461970" lon="-6.1315630">
    <ele>2.7</ele>
    <time>2025-04-24T14:22:53Z</time>
   </trkpt>
   <trkpt lat="53.4462100" lon="-6.1316520">
    <ele>2.6</ele>
    <time>2025-04-24T14:22:58Z</time>
   </trkpt>
   <trkpt lat="53.4462270" lon="-6.1317430">
    <ele>2.6</ele>
    <time>2025-04-24T14:23:03Z</time>
   </trkpt>
   <trkpt lat="53.4462390" lon="-6.1318480">
    <ele>2.5</ele>
    <time>2025-04-24T14:23:09Z</time>
   </trkpt>
   <trkpt lat="53.4462450" lon="-6.1319540">
    <ele>2.5</ele>
    <time>2025-04-24T14:23:14Z</time>
   </trkpt>
   <trkpt lat="53.4462540" lon="-6.1320300">
    <ele>2.5</ele>
    <time>2025-04-24T14:23:19Z</time>
   </trkpt>
   <trkpt lat="53.4462690" lon="-6.1321140">
    <ele>2.4</ele>
    <time>2025-04-24T14:23:24Z</time>
   </trkpt>
   <trkpt lat="53.4462760" lon="-6.1322220">
    <ele>2.4</ele>
    <time>2025-04-24T14:23:30Z</time>
   </trkpt>
   <trkpt lat="53.4462940" lon="-6.1323150">
    <ele>2.3</ele>
    <time>2025-04-24T14:23:35Z</time>
   </trkpt>
   <trkpt lat="53.4463020" lon="-6.1324140">
    <ele>2.3</ele>
    <time>2025-04-24T14:23:41Z</time>
   </trkpt>
   <trkpt lat="53.4463040" lon="-6.1325320">
    <ele>2.3</ele>
    <time>2025-04-24T14:23:46Z</time>
   </trkpt>
   <trkpt lat="53.4463210" lon="-6.1326240">
    <ele>2.4</ele>
    <time>2025-04-24T14:23:52Z</time>
   </trkpt>
   <trkpt lat="53.4463430" lon="-6.1327040">
    <ele>2.3</ele>
    <time>2025-04-24T14:23:57Z</time>
   </trkpt>
   <trkpt lat="53.4463720" lon="-6.1328050">
    <ele>2.3</ele>
    <time>2025-04-24T14:24:02Z</time>
   </trkpt>
   <trkpt lat="53.4464090" lon="-6.1328970">
    <ele>2.2</ele>
    <time>2025-04-24T14:24:07Z</time>
   </trkpt>
   <trkpt lat="53.4464360" lon="-6.1329880">
    <ele>2.1</ele>
    <time>2025-04-24T14:24:12Z</time>
   </trkpt>
   <trkpt lat="53.4464810" lon="-6.1330720">
    <ele>2.1</ele>
    <time>2025-04-24T14:24:17Z</time>
   </trkpt>
   <trkpt lat="53.4465280" lon="-6.1331480">
    <ele>2.0</ele>
    <time>2025-04-24T14:24:23Z</time>
   </trkpt>
   <trkpt lat="53.4465670" lon="-6.1332190">
    <ele>2.0</ele>
    <time>2025-04-24T14:24:28Z</time>
   </trkpt>
   <trkpt lat="53.4466240" lon="-6.1332880">
    <ele>2.0</ele>
    <time>2025-04-24T14:24:33Z</time>
   </trkpt>
   <trkpt lat="53.4466710" lon="-6.1333460">
    <ele>2.0</ele>
    <time>2025-04-24T14:24:38Z</time>
   </trkpt>
   <trkpt lat="53.4467150" lon="-6.1334140">
    <ele>2.1</ele>
    <time>2025-04-24T14:24:43Z</time>
   </trkpt>
   <trkpt lat="53.4467630" lon="-6.1334810">
    <ele>2.2</ele>
    <time>2025-04-24T14:24:48Z</time>
   </trkpt>
   <trkpt lat="53.4468130" lon="-6.1335420">
    <ele>2.4</ele>
    <time>2025-04-24T14:24:54Z</time>
   </trkpt>
   <trkpt lat="53.4468680" lon="-6.1336000">
    <ele>2.6</ele>
    <time>2025-04-24T14:24:59Z</time>
   </trkpt>
   <trkpt lat="53.4469180" lon="-6.1336790">
    <ele>2.9</ele>
    <time>2025-04-24T14:25:04Z</time>
   </trkpt>
   <trkpt lat="53.4469420" lon="-6.1337900">
    <ele>3.3</ele>
    <time>2025-04-24T14:25:09Z</time>
   </trkpt>
   <trkpt lat="53.4469650" lon="-6.1339120">
    <ele>3.9</ele>
    <time>2025-04-24T14:25:14Z</time>
   </trkpt>
   <trkpt lat="53.4469870" lon="-6.1340180">
    <ele>4.5</ele>
    <time>2025-04-24T14:25:19Z</time>
   </trkpt>
   <trkpt lat="53.4470160" lon="-6.1341180">
    <ele>5.0</ele>
    <time>2025-04-24T14:25:25Z</time>
   </trkpt>
   <trkpt lat="53.4470730" lon="-6.1341610">
    <ele>5.4</ele>
    <time>2025-04-24T14:25:30Z</time>
   </trkpt>
   <trkpt lat="53.4471280" lon="-6.1342060">
    <ele>5.5</ele>
    <time>2025-04-24T14:25:35Z</time>
   </trkpt>
   <trkpt lat="53.4471780" lon="-6.1342430">
    <ele>5.6</ele>
    <time>2025-04-24T14:25:41Z</time>
   </trkpt>
   <trkpt lat="53.4472190" lon="-6.1343030">
    <ele>5.7</ele>
    <time>2025-04-24T14:25:46Z</time>
   </trkpt>
   <trkpt lat="53.4472540" lon="-6.1343790">
    <ele>5.8</ele>
    <time>2025-04-24T14:25:52Z</time>
   </trkpt>
   <trkpt lat="53.4472910" lon="-6.1344750">
    <ele>6.1</ele>
    <time>2025-04-24T14:25:57Z</time>
   </trkpt>
   <trkpt lat="53.4473440" lon="-6.1345550">
    <ele>6.3</ele>
    <time>2025-04-24T14:26:02Z</time>
   </trkpt>
   <trkpt lat="53.4473940" lon="-6.1346350">
    <ele>6.6</ele>
    <time>2025-04-24T14:26:08Z</time>
   </trkpt>
   <trkpt lat="53.4474540" lon="-6.1346710">
    <ele>6.7</ele>
    <time>2025-04-24T14:26:13Z</time>
   </trkpt>
   <trkpt lat="53.4475070" lon="-6.1347300">
    <ele>6.7</ele>
    <time>2025-04-24T14:26:19Z</time>
   </trkpt>
   <trkpt lat="53.4475500" lon="-6.1347530">
    <ele>6.7</ele>
    <time>2025-04-24T14:26:29Z</time>
   </trkpt>
   <trkpt lat="53.4475950" lon="-6.1347770">
    <ele>6.6</ele>
    <time>2025-04-24T14:26:35Z</time>
   </trkpt>
   <trkpt lat="53.4476670" lon="-6.1348310">
    <ele>6.4</ele>
    <time>2025-04-24T14:26:40Z</time>
   </trkpt>
   <trkpt lat="53.4477320" lon="-6.1348930">
    <ele>6.2</ele>
    <time>2025-04-24T14:26:45Z</time>
   </trkpt>
   <trkpt lat="53.4477900" lon="-6.1349580">
    <ele>6.0</ele>
    <time>2025-04-24T14:26:50Z</time>
   </trkpt>
   <trkpt lat="53.4478510" lon="-6.1350150">
    <ele>5.8</ele>
    <time>2025-04-24T14:26:55Z</time>
   </trkpt>
   <trkpt lat="53.4478890" lon="-6.1350630">
    <ele>5.6</ele>
    <time>2025-04-24T14:27:01Z</time>
   </trkpt>
   <trkpt lat="53.4479270" lon="-6.1351470">
    <ele>5.5</ele>
    <time>2025-04-24T14:27:06Z</time>
   </trkpt>
   <trkpt lat="53.4479640" lon="-6.1352050">
    <ele>5.4</ele>
    <time>2025-04-24T14:27:12Z</time>
   </trkpt>
   <trkpt lat="53.4479970" lon="-6.1352600">
    <ele>5.4</ele>
    <time>2025-04-24T14:27:17Z</time>
   </trkpt>
   <trkpt lat="53.4480420" lon="-6.1353250">
    <ele>5.3</ele>
    <time>2025-04-24T14:27:23Z</time>
   </trkpt>
   <trkpt lat="53.4480810" lon="-6.1354060">
    <ele>5.3</ele>
    <time>2025-04-24T14:27:28Z</time>
   </trkpt>
   <trkpt lat="53.4481200" lon="-6.1354850">
    <ele>5.3</ele>
    <time>2025-04-24T14:27:34Z</time>
   </trkpt>
   <trkpt lat="53.4481520" lon="-6.1355370">
    <ele>5.3</ele>
    <time>2025-04-24T14:27:42Z</time>
   </trkpt>
   <trkpt lat="53.4482030" lon="-6.1355420">
    <ele>5.1</ele>
    <time>2025-04-24T14:27:47Z</time>
   </trkpt>
   <trkpt lat="53.4482690" lon="-6.1355620">
    <ele>4.8</ele>
    <time>2025-04-24T14:27:53Z</time>
   </trkpt>
   <trkpt lat="53.4483430" lon="-6.1355830">
    <ele>4.5</ele>
    <time>2025-04-24T14:27:58Z</time>
   </trkpt>
   <trkpt lat="53.4484040" lon="-6.1356180">
    <ele>4.2</ele>
    <time>2025-04-24T14:28:03Z</time>
   </trkpt>
   <trkpt lat="53.4484440" lon="-6.1356810">
    <ele>4.0</ele>
    <time>2025-04-24T14:28:08Z</time>
   </trkpt>
   <trkpt lat="53.4484980" lon="-6.1357360">
    <ele>3.9</ele>
    <time>2025-04-24T14:28:14Z</time>
   </trkpt>
   <trkpt lat="53.4485760" lon="-6.1357260">
    <ele>3.7</ele>
    <time>2025-04-24T14:28:19Z</time>
   </trkpt>
   <trkpt lat="53.4486400" lon="-6.1357300">
    <ele>3.3</ele>
    <time>2025-04-24T14:28:24Z</time>
   </trkpt>
   <trkpt lat="53.4486990" lon="-6.1357430">
    <ele>3.0</ele>
    <time>2025-04-24T14:28:29Z</time>
   </trkpt>
   <trkpt lat="53.4487610" lon="-6.1357550">
    <ele>2.8</ele>
    <time>2025-04-24T14:28:34Z</time>
   </trkpt>
   <trkpt lat="53.4488240" lon="-6.1357860">
    <ele>2.5</ele>
    <time>2025-04-24T14:28:40Z</time>
   </trkpt>
   <trkpt lat="53.4488260" lon="-6.1358980">
    <ele>2.4</ele>
    <time>2025-04-24T14:28:45Z</time>
   </trkpt>
   <trkpt lat="53.4488380" lon="-6.1360200">
    <ele>2.5</ele>
    <time>2025-04-24T14:28:50Z</time>
   </trkpt>
   <trkpt lat="53.4488660" lon="-6.1361140">
    <ele>2.5</ele>
    <time>2025-04-24T14:28:56Z</time>
   </trkpt>
   <trkpt lat="53.4489100" lon="-6.1362000">
    <ele>2.5</ele>
    <time>2025-04-24T14:29:02Z</time>
   </trkpt>
   <trkpt lat="53.4489360" lon="-6.1362610">
    <ele>2.5</ele>
    <time>2025-04-24T14:29:07Z</time>
   </trkpt>
   <trkpt lat="53.4489920" lon="-6.1362940">
    <ele>2.3</ele>
    <time>2025-04-24T14:29:12Z</time>
   </trkpt>
   <trkpt lat="53.4490550" lon="-6.1363260">
    <ele>2.2</ele>
    <time>2025-04-24T14:29:17Z</time>
   </trkpt>
   <trkpt lat="53.4491150" lon="-6.1363660">
    <ele>2.0</ele>
    <time>2025-04-24T14:29:22Z</time>
   </trkpt>
   <trkpt lat="53.4491780" lon="-6.1363810">
    <ele>1.8</ele>
    <time>2025-04-24T14:29:28Z</time>
   </trkpt>
   <trkpt lat="53.4492390" lon="-6.1364130">
    <ele>1.6</ele>
    <time>2025-04-24T14:29:33Z</time>
   </trkpt>
   <trkpt lat="53.4493030" lon="-6.1364160">
    <ele>1.5</ele>
    <time>2025-04-24T14:29:38Z</time>
   </trkpt>
   <trkpt lat="53.4493590" lon="-6.1364250">
    <ele>1.3</ele>
    <time>2025-04-24T14:29:43Z</time>
   </trkpt>
   <trkpt lat="53.4494210" lon="-6.1364300">
    <ele>1.1</ele>
    <time>2025-04-24T14:29:49Z</time>
   </trkpt>
   <trkpt lat="53.4494900" lon="-6.1364360">
    <ele>0.9</ele>
    <time>2025-04-24T14:29:54Z</time>
   </trkpt>
   <trkpt lat="53.4495610" lon="-6.1364480">
    <ele>0.8</ele>
    <time>2025-04-24T14:29:59Z</time>
   </trkpt>
   <trkpt lat="53.4496280" lon="-6.1364450">
    <ele>0.6</ele>
    <time>2025-04-24T14:30:04Z</time>
   </trkpt>
   <trkpt lat="53.4496920" lon="-6.1364580">
    <ele>0.5</ele>
    <time>2025-04-24T14:30:09Z</time>
   </trkpt>
   <trkpt lat="53.4497560" lon="-6.1364790">
    <ele>0.4</ele>
    <time>2025-04-24T14:30:15Z</time>
   </trkpt>
   <trkpt lat="53.4498150" lon="-6.1365040">
    <ele>0.3</ele>
    <time>2025-04-24T14:30:20Z</time>
   </trkpt>
   <trkpt lat="53.4498800" lon="-6.1365250">
    <ele>0.2</ele>
    <time>2025-04-24T14:30:25Z</time>
   </trkpt>
   <trkpt lat="53.4499430" lon="-6.1365510">
    <ele>0.1</ele>
    <time>2025-04-24T14:30:30Z</time>
   </trkpt>
   <trkpt lat="53.4499950" lon="-6.1365820">
    <ele>0.0</ele>
    <time>2025-04-24T14:30:35Z</time>
   </trkpt>
   <trkpt lat="53.4500530" lon="-6.1366240">
    <ele>0.0</ele>
    <time>2025-04-24T14:30:41Z</time>
   </trkpt>
   <trkpt lat="53.4501090" lon="-6.1366560">
    <ele>-0.1</ele>
    <time>2025-04-24T14:30:46Z</time>
   </trkpt>
   <trkpt lat="53.4501700" lon="-6.1366930">
    <ele>-0.1</ele>
    <time>2025-04-24T14:30:51Z</time>
   </trkpt>
   <trkpt lat="53.4502320" lon="-6.1367320">
    <ele>-0.1</ele>
    <time>2025-04-24T14:30:56Z</time>
   </trkpt>
   <trkpt lat="53.4502920" lon="-6.1367610">
    <ele>-0.1</ele>
    <time>2025-04-24T14:31:02Z</time>
   </trkpt>
   <trkpt lat="53.4503470" lon="-6.1367970">
    <ele>-0.1</ele>
    <time>2025-04-24T14:31:07Z</time>
   </trkpt>
   <trkpt lat="53.4504040" lon="-6.1368310">
    <ele>-0.1</ele>
    <time>2025-04-24T14:31:12Z</time>
   </trkpt>
   <trkpt lat="53.4504660" lon="-6.1368570">
    <ele>-0.1</ele>
    <time>2025-04-24T14:31:17Z</time>
   </trkpt>
   <trkpt lat="53.4505260" lon="-6.1368940">
    <ele>-0.1</ele>
    <time>2025-04-24T14:31:23Z</time>
   </trkpt>
   <trkpt lat="53.4505860" lon="-6.1369280">
    <ele>0.0</ele>
    <time>2025-04-24T14:31:28Z</time>
   </trkpt>
   <trkpt lat="53.4506450" lon="-6.1369650">
    <ele>0.0</ele>
    <time>2025-04-24T14:31:33Z</time>
   </trkpt>
   <trkpt lat="53.4506990" lon="-6.1370090">
    <ele>0.0</ele>
    <time>2025-04-24T14:31:39Z</time>
   </trkpt>
   <trkpt lat="53.4507500" lon="-6.1370360">
    <ele>0.0</ele>
    <time>2025-04-24T14:31:57Z</time>
   </trkpt>
   <trkpt lat="53.4508080" lon="-6.1370860">
    <ele>0.0</ele>
    <time>2025-04-24T14:32:02Z</time>
   </trkpt>
   <trkpt lat="53.4508640" lon="-6.1371240">
    <ele>-0.1</ele>
    <time>2025-04-24T14:32:07Z</time>
   </trkpt>
   <trkpt lat="53.4509180" lon="-6.1371540">
    <ele>-0.1</ele>
    <time>2025-04-24T14:32:13Z</time>
   </trkpt>
   <trkpt lat="53.4509640" lon="-6.1371960">
    <ele>-0.1</ele>
    <time>2025-04-24T14:32:18Z</time>
   </trkpt>
   <trkpt lat="53.4510230" lon="-6.1372360">
    <ele>-0.1</ele>
    <time>2025-04-24T14:32:23Z</time>
   </trkpt>
   <trkpt lat="53.4510840" lon="-6.1372850">
    <ele>-0.1</ele>
    <time>2025-04-24T14:32:29Z</time>
   </trkpt>
   <trkpt lat="53.4511370" lon="-6.1373460">
    <ele>-0.1</ele>
    <time>2025-04-24T14:32:34Z</time>
   </trkpt>
   <trkpt lat="53.4511950" lon="-6.1374090">
    <ele>-0.1</ele>
    <time>2025-04-24T14:32:39Z</time>
   </trkpt>
   <trkpt lat="53.4512340" lon="-6.1374810">
    <ele>-0.1</ele>
    <time>2025-04-24T14:32:44Z</time>
   </trkpt>
   <trkpt lat="53.4512790" lon="-6.1375600">
    <ele>-0.1</ele>
    <time>2025-04-24T14:32:49Z</time>
   </trkpt>
   <trkpt lat="53.4513300" lon="-6.1376240">
    <ele>0.0</ele>
    <time>2025-04-24T14:32:55Z</time>
   </trkpt>
   <trkpt lat="53.4513860" lon="-6.1377090">
    <ele>0.0</ele>
    <time>2025-04-24T14:33:00Z</time>
   </trkpt>
   <trkpt lat="53.4514280" lon="-6.1377870">
    <ele>0.0</ele>
    <time>2025-04-24T14:33:05Z</time>
   </trkpt>
   <trkpt lat="53.4514660" lon="-6.1378750">
    <ele>0.1</ele>
    <time>2025-04-24T14:33:10Z</time>
   </trkpt>
   <trkpt lat="53.4515020" lon="-6.1379680">
    <ele>0.1</ele>
    <time>2025-04-24T14:33:16Z</time>
   </trkpt>
   <trkpt lat="53.4515400" lon="-6.1380680">
    <ele>0.1</ele>
    <time>2025-04-24T14:33:21Z</time>
   </trkpt>
   <trkpt lat="53.4515680" lon="-6.1381570">
    <ele>0.1</ele>
    <time>2025-04-24T14:33:26Z</time>
   </trkpt>
   <trkpt lat="53.4515870" lon="-6.1382650">
    <ele>0.1</ele>
    <time>2025-04-24T14:33:31Z</time>
   </trkpt>
   <trkpt lat="53.4515950" lon="-6.1383580">
    <ele>0.1</ele>
    <time>2025-04-24T14:33:37Z</time>
   </trkpt>
   <trkpt lat="53.4515950" lon="-6.1384720">
    <ele>0.1</ele>
    <time>2025-04-24T14:33:42Z</time>
   </trkpt>
   <trkpt lat="53.4515700" lon="-6.1385860">
    <ele>0.1</ele>
    <time>2025-04-24T14:33:47Z</time>
   </trkpt>
   <trkpt lat="53.4515710" lon="-6.1387000">
    <ele>0.1</ele>
    <time>2025-04-24T14:33:52Z</time>
   </trkpt>
   <trkpt lat="53.4515900" lon="-6.1387760">
    <ele>0.0</ele>
    <time>2025-04-24T14:33:58Z</time>
   </trkpt>
   <trkpt lat="53.4515870" lon="-6.1388550">
    <ele>0.0</ele>
    <time>2025-04-24T14:34:12Z</time>
   </trkpt>
   <trkpt lat="53.4515830" lon="-6.1390130">
    <ele>0.0</ele>
    <time>2025-04-24T14:34:17Z</time>
   </trkpt>
   <trkpt lat="53.4515730" lon="-6.1391450">
    <ele>0.0</ele>
    <time>2025-04-24T14:34:23Z</time>
   </trkpt>
   <trkpt lat="53.4515560" lon="-6.1392650">
    <ele>0.0</ele>
    <time>2025-04-24T14:34:28Z</time>
   </trkpt>
   <trkpt lat="53.4515290" lon="-6.1393810">
    <ele>0.0</ele>
    <time>2025-04-24T14:34:33Z</time>
   </trkpt>
   <trkpt lat="53.4515060" lon="-6.1394970">
    <ele>0.0</ele>
    <time>2025-04-24T14:34:38Z</time>
   </trkpt>
   <trkpt lat="53.4514880" lon="-6.1395810">
    <ele>-0.1</ele>
    <time>2025-04-24T14:34:43Z</time>
   </trkpt>
   <trkpt lat="53.4514730" lon="-6.1396740">
    <ele>-0.1</ele>
    <time>2025-04-24T14:34:48Z</time>
   </trkpt>
   <trkpt lat="53.4514480" lon="-6.1397670">
    <ele>-0.1</ele>
    <time>2025-04-24T14:34:54Z</time>
   </trkpt>
   <trkpt lat="53.4514100" lon="-6.1398470">
    <ele>-0.1</ele>
    <time>2025-04-24T14:34:59Z</time>
   </trkpt>
   <trkpt lat="53.4513610" lon="-6.1398840">
    <ele>-0.2</ele>
    <time>2025-04-24T14:35:04Z</time>
   </trkpt>
   <trkpt lat="53.4512960" lon="-6.1398940">
    <ele>-0.2</ele>
    <time>2025-04-24T14:35:10Z</time>
   </trkpt>
   <trkpt lat="53.4512580" lon="-6.1399450">
    <ele>-0.2</ele>
    <time>2025-04-24T14:35:15Z</time>
   </trkpt>
   <trkpt lat="53.4512240" lon="-6.1400020">
    <ele>-0.2</ele>
    <time>2025-04-24T14:35:21Z</time>
   </trkpt>
   <trkpt lat="53.4511990" lon="-6.1400870">
    <ele>-0.2</ele>
    <time>2025-04-24T14:35:26Z</time>
   </trkpt>
   <trkpt lat="53.4511960" lon="-6.1401820">
    <ele>-0.2</ele>
    <time>2025-04-24T14:35:32Z</time>
   </trkpt>
   <trkpt lat="53.4512010" lon="-6.1402680">
    <ele>-0.2</ele>
    <time>2025-04-24T14:35:37Z</time>
   </trkpt>
   <trkpt lat="53.4512080" lon="-6.1403520">
    <ele>-0.1</ele>
    <time>2025-04-24T14:35:42Z</time>
   </trkpt>
   <trkpt lat="53.4512120" lon="-6.1404410">
    <ele>-0.1</ele>
    <time>2025-04-24T14:35:47Z</time>
   </trkpt>
   <trkpt lat="53.4512020" lon="-6.1405420">
    <ele>0.0</ele>
    <time>2025-04-24T14:35:53Z</time>
   </trkpt>
   <trkpt lat="53.4512100" lon="-6.1406380">
    <ele>0.1</ele>
    <time>2025-04-24T14:35:58Z</time>
   </trkpt>
   <trkpt lat="53.4512230" lon="-6.1407360">
    <ele>0.2</ele>
    <time>2025-04-24T14:36:03Z</time>
   </trkpt>
   <trkpt lat="53.4512370" lon="-6.1408290">
    <ele>0.3</ele>
    <time>2025-04-24T14:36:08Z</time>
   </trkpt>
   <trkpt lat="53.4512360" lon="-6.1409400">
    <ele>0.3</ele>
    <time>2025-04-24T14:36:14Z</time>
   </trkpt>
   <trkpt lat="53.4512430" lon="-6.1410490">
    <ele>0.4</ele>
    <time>2025-04-24T14:36:19Z</time>
   </trkpt>
   <trkpt lat="53.4512390" lon="-6.1411600">
    <ele>0.5</ele>
    <time>2025-04-24T14:36:25Z</time>
   </trkpt>
   <trkpt lat="53.4512370" lon="-6.1412580">
    <ele>0.6</ele>
    <time>2025-04-24T14:36:30Z</time>
   </trkpt>
   <trkpt lat="53.4512440" lon="-6.1413600">
    <ele>0.6</ele>
    <time>2025-04-24T14:36:35Z</time>
   </trkpt>
   <trkpt lat="53.4512480" lon="-6.1414510">
    <ele>0.7</ele>
    <time>2025-04-24T14:36:41Z</time>
   </trkpt>
   <trkpt lat="53.4512520" lon="-6.1415610">
    <ele>0.7</ele>
    <time>2025-04-24T14:36:46Z</time>
   </trkpt>
   <trkpt lat="53.4512550" lon="-6.1416640">
    <ele>0.8</ele>
    <time>2025-04-24T14:36:51Z</time>
   </trkpt>
   <trkpt lat="53.4512650" lon="-6.1417610">
    <ele>0.8</ele>
    <time>2025-04-24T14:36:57Z</time>
   </trkpt>
   <trkpt lat="53.4512750" lon="-6.1418680">
    <ele>0.8</ele>
    <time>2025-04-24T14:37:02Z</time>
   </trkpt>
   <trkpt lat="53.4512650" lon="-6.1419750">
    <ele>0.8</ele>
    <time>2025-04-24T14:37:08Z</time>
   </trkpt>
   <trkpt lat="53.4512740" lon="-6.1420730">
    <ele>0.8</ele>
    <time>2025-04-24T14:37:13Z</time>
   </trkpt>
   <trkpt lat="53.4512830" lon="-6.1421730">
    <ele>0.8</ele>
    <time>2025-04-24T14:37:18Z</time>
   </trkpt>
   <trkpt lat="53.4512830" lon="-6.1422770">
    <ele>0.7</ele>
    <time>2025-04-24T14:37:24Z</time>
   </trkpt>
   <trkpt lat="53.4512730" lon="-6.1423790">
    <ele>0.7</ele>
    <time>2025-04-24T14:37:29Z</time>
   </trkpt>
   <trkpt lat="53.4512710" lon="-6.1424810">
    <ele>0.7</ele>
    <time>2025-04-24T14:37:34Z</time>
   </trkpt>
   <trkpt lat="53.4512690" lon="-6.1425780">
    <ele>0.7</ele>
    <time>2025-04-24T14:37:40Z</time>
   </trkpt>
   <trkpt lat="53.4512690" lon="-6.1426840">
    <ele>0.7</ele>
    <time>2025-04-24T14:37:45Z</time>
   </trkpt>
   <trkpt lat="53.4512680" lon="-6.1428000">
    <ele>0.7</ele>
    <time>2025-04-24T14:37:50Z</time>
   </trkpt>
   <trkpt lat="53.4512720" lon="-6.1429080">
    <ele>0.7</ele>
    <time>2025-04-24T14:37:55Z</time>
   </trkpt>
   <trkpt lat="53.4512790" lon="-6.1430030">
    <ele>0.7</ele>
    <time>2025-04-24T14:38:01Z</time>
   </trkpt>
   <trkpt lat="53.4512750" lon="-6.1430970">
    <ele>0.7</ele>
    <time>2025-04-24T14:38:06Z</time>
   </trkpt>
   <trkpt lat="53.4512770" lon="-6.1432010">
    <ele>0.7</ele>
    <time>2025-04-24T14:38:12Z</time>
   </trkpt>
   <trkpt lat="53.4512790" lon="-6.1432810">
    <ele>0.7</ele>
    <time>2025-04-24T14:38:17Z</time>
   </trkpt>
   <trkpt lat="53.4512870" lon="-6.1433570">
    <ele>0.7</ele>
    <time>2025-04-24T14:38:23Z</time>
   </trkpt>
   <trkpt lat="53.4512930" lon="-6.1434570">
    <ele>0.7</ele>
    <time>2025-04-24T14:38:28Z</time>
   </trkpt>
   <trkpt lat="53.4513010" lon="-6.1435600">
    <ele>0.6</ele>
    <time>2025-04-24T14:38:34Z</time>
   </trkpt>
   <trkpt lat="53.4513010" lon="-6.1436670">
    <ele>0.6</ele>
    <time>2025-04-24T14:38:39Z</time>
   </trkpt>
   <trkpt lat="53.4513060" lon="-6.1437620">
    <ele>0.6</ele>
    <time>2025-04-24T14:38:44Z</time>
   </trkpt>
   <trkpt lat="53.4513060" lon="-6.1438760">
    <ele>0.6</ele>
    <time>2025-04-24T14:38:50Z</time>
   </trkpt>
   <trkpt lat="53.4512950" lon="-6.1439890">
    <ele>0.6</ele>
    <time>2025-04-24T14:38:55Z</time>
   </trkpt>
   <trkpt lat="53.4512860" lon="-6.1440980">
    <ele>0.6</ele>
    <time>2025-04-24T14:39:00Z</time>
   </trkpt>
   <trkpt lat="53.4512960" lon="-6.1441970">
    <ele>0.6</ele>
    <time>2025-04-24T14:39:06Z</time>
   </trkpt>
   <trkpt lat="53.4512900" lon="-6.1442900">
    <ele>0.6</ele>
    <time>2025-04-24T14:39:11Z</time>
   </trkpt>
   <trkpt lat="53.4512790" lon="-6.1443960">
    <ele>0.6</ele>
    <time>2025-04-24T14:39:16Z</time>
   </trkpt>
   <trkpt lat="53.4512840" lon="-6.1444940">
    <ele>0.7</ele>
    <time>2025-04-24T14:39:22Z</time>
   </trkpt>
   <trkpt lat="53.4512800" lon="-6.1445740">
    <ele>0.7</ele>
    <time>2025-04-24T14:39:27Z</time>
   </trkpt>
   <trkpt lat="53.4512750" lon="-6.1446540">
    <ele>0.8</ele>
    <time>2025-04-24T14:39:43Z</time>
   </trkpt>
   <trkpt lat="53.4512610" lon="-6.1447730">
    <ele>0.8</ele>
    <time>2025-04-24T14:39:49Z</time>
   </trkpt>
   <trkpt lat="53.4512590" lon="-6.1448720">
    <ele>0.9</ele>
    <time>2025-04-24T14:39:54Z</time>
   </trkpt>
   <trkpt lat="53.4512620" lon="-6.1449580">
    <ele>1.0</ele>
    <time>2025-04-24T14:39:59Z</time>
   </trkpt>
   <trkpt lat="53.4512590" lon="-6.1450600">
    <ele>1.0</ele>
    <time>2025-04-24T14:40:05Z</time>
   </trkpt>
   <trkpt lat="53.4512640" lon="-6.1451360">
    <ele>1.2</ele>
    <time>2025-04-24T14:40:18Z</time>
   </trkpt>
   <trkpt lat="53.4512600" lon="-6.1452240">
    <ele>1.2</ele>
    <time>2025-04-24T14:40:42Z</time>
   </trkpt>
   <trkpt lat="53.4512460" lon="-6.1453520">
    <ele>1.4</ele>
    <time>2025-04-24T14:40:48Z</time>
   </trkpt>
   <trkpt lat="53.4512620" lon="-6.1454690">
    <ele>1.5</ele>
    <time>2025-04-24T14:40:53Z</time>
   </trkpt>
   <trkpt lat="53.4512510" lon="-6.1455450">
    <ele>1.7</ele>
    <time>2025-04-24T14:41:18Z</time>
   </trkpt>
   <trkpt lat="53.4512410" lon="-6.1457020">
    <ele>1.8</ele>
    <time>2025-04-24T14:41:24Z</time>
   </trkpt>
   <trkpt lat="53.4512080" lon="-6.1458100">
    <ele>2.1</ele>
    <time>2025-04-24T14:41:29Z</time>
   </trkpt>
   <trkpt lat="53.4512090" lon="-6.1458920">
    <ele>2.3</ele>
    <time>2025-04-24T14:41:35Z</time>
   </trkpt>
   <trkpt lat="53.4512240" lon="-6.1459990">
    <ele>2.4</ele>
    <time>2025-04-24T14:41:40Z</time>
   </trkpt>
   <trkpt lat="53.4512330" lon="-6.1460940">
    <ele>2.5</ele>
    <time>2025-04-24T14:41:46Z</time>
   </trkpt>
   <trkpt lat="53.4512330" lon="-6.1462010">
    <ele>2.7</ele>
    <time>2025-04-24T14:41:51Z</time>
   </trkpt>
   <trkpt lat="53.4512440" lon="-6.1463030">
    <ele>2.8</ele>
    <time>2025-04-24T14:41:57Z</time>
   </trkpt>
   <trkpt lat="53.4512600" lon="-6.1463980">
    <ele>2.8</ele>
    <time>2025-04-24T14:42:02Z</time>
   </trkpt>
   <trkpt lat="53.4512700" lon="-6.1465040">
    <ele>2.8</ele>
    <time>2025-04-24T14:42:07Z</time>
   </trkpt>
   <trkpt lat="53.4512840" lon="-6.1465970">
    <ele>2.8</ele>
    <time>2025-04-24T14:42:13Z</time>
   </trkpt>
   <trkpt lat="53.4512950" lon="-6.1467040">
    <ele>2.8</ele>
    <time>2025-04-24T14:42:18Z</time>
   </trkpt>
   <trkpt lat="53.4512820" lon="-6.1468100">
    <ele>2.9</ele>
    <time>2025-04-24T14:42:24Z</time>
   </trkpt>
   <trkpt lat="53.4512940" lon="-6.1469240">
    <ele>3.0</ele>
    <time>2025-04-24T14:42:29Z</time>
   </trkpt>
   <trkpt lat="53.4513070" lon="-6.1470210">
    <ele>2.9</ele>
    <time>2025-04-24T14:42:34Z</time>
   </trkpt>
   <trkpt lat="53.4512910" lon="-6.1471290">
    <ele>3.0</ele>
    <time>2025-04-24T14:42:40Z</time>
   </trkpt>
   <trkpt lat="53.4512720" lon="-6.1471980">
    <ele>3.2</ele>
    <time>2025-04-24T14:42:48Z</time>
   </trkpt>
   <trkpt lat="53.4513160" lon="-6.1472520">
    <ele>3.1</ele>
    <time>2025-04-24T14:43:08Z</time>
   </trkpt>
   <trkpt lat="53.4513100" lon="-6.1473990">
    <ele>3.0</ele>
    <time>2025-04-24T14:43:14Z</time>
   </trkpt>
   <trkpt lat="53.4513260" lon="-6.1475260">
    <ele>2.9</ele>
    <time>2025-04-24T14:43:19Z</time>
   </trkpt>
   <trkpt lat="53.4513270" lon="-6.1476500">
    <ele>3.0</ele>
    <time>2025-04-24T14:43:24Z</time>
   </trkpt>
   <trkpt lat="53.4513270" lon="-6.1477770">
    <ele>3.0</ele>
    <time>2025-04-24T14:43:29Z</time>
   </trkpt>
   <trkpt lat="53.4513230" lon="-6.1478910">
    <ele>3.2</ele>
    <time>2025-04-24T14:43:35Z</time>
   </trkpt>
   <trkpt lat="53.4513260" lon="-6.1480090">
    <ele>3.3</ele>
    <time>2025-04-24T14:43:40Z</time>
   </trkpt>
   <trkpt lat="53.4513410" lon="-6.1481130">
    <ele>3.3</ele>
    <time>2025-04-24T14:43:45Z</time>
   </trkpt>
   <trkpt lat="53.4513430" lon="-6.1482180">
    <ele>3.3</ele>
    <time>2025-04-24T14:43:50Z</time>
   </trkpt>
   <trkpt lat="53.4513540" lon="-6.1483180">
    <ele>3.3</ele>
    <time>2025-04-24T14:43:56Z</time>
   </trkpt>
   <trkpt lat="53.4513730" lon="-6.1483970">
    <ele>3.3</ele>
    <time>2025-04-24T14:44:01Z</time>
   </trkpt>
   <trkpt lat="53.4513710" lon="-6.1484740">
    <ele>3.2</ele>
    <time>2025-04-24T14:44:08Z</time>
   </trkpt>
   <trkpt lat="53.4513600" lon="-6.1485500">
    <ele>3.2</ele>
    <time>2025-04-24T14:44:13Z</time>
   </trkpt>
   <trkpt lat="53.4513510" lon="-6.1486240">
    <ele>3.3</ele>
    <time>2025-04-24T14:44:21Z</time>
   </trkpt>
   <trkpt lat="53.4513410" lon="-6.1487070">
    <ele>3.4</ele>
    <time>2025-04-24T14:44:31Z</time>
   </trkpt>
   <trkpt lat="53.4513550" lon="-6.1488640">
    <ele>3.3</ele>
    <time>2025-04-24T14:44:37Z</time>
   </trkpt>
   <trkpt lat="53.4513680" lon="-6.1489710">
    <ele>3.1</ele>
    <time>2025-04-24T14:44:42Z</time>
   </trkpt>
   <trkpt lat="53.4513820" lon="-6.1490810">
    <ele>3.0</ele>
    <time>2025-04-24T14:44:47Z</time>
   </trkpt>
   <trkpt lat="53.4514050" lon="-6.1491820">
    <ele>2.9</ele>
    <time>2025-04-24T14:44:52Z</time>
   </trkpt>
   <trkpt lat="53.4514270" lon="-6.1492630">
    <ele>2.8</ele>
    <time>2025-04-24T14:44:58Z</time>
   </trkpt>
   <trkpt lat="53.4514470" lon="-6.1493680">
    <ele>2.8</ele>
    <time>2025-04-24T14:45:03Z</time>
   </trkpt>
   <trkpt lat="53.4514620" lon="-6.1494950">
    <ele>2.8</ele>
    <time>2025-04-24T14:45:08Z</time>
   </trkpt>
   <trkpt lat="53.4514720" lon="-6.1495790">
    <ele>3.0</ele>
    <time>2025-04-24T14:45:13Z</time>
   </trkpt>
   <trkpt lat="53.4514930" lon="-6.1496730">
    <ele>3.1</ele>
    <time>2025-04-24T14:45:18Z</time>
   </trkpt>
   <trkpt lat="53.4515190" lon="-6.1497610">
    <ele>3.2</ele>
    <time>2025-04-24T14:45:24Z</time>
   </trkpt>
   <trkpt lat="53.4515270" lon="-6.1498750">
    <ele>3.3</ele>
    <time>2025-04-24T14:45:29Z</time>
   </trkpt>
   <trkpt lat="53.4515390" lon="-6.1499850">
    <ele>3.5</ele>
    <time>2025-04-24T14:45:34Z</time>
   </trkpt>
   <trkpt lat="53.4515600" lon="-6.1500930">
    <ele>3.7</ele>
    <time>2025-04-24T14:45:39Z</time>
   </trkpt>
   <trkpt lat="53.4516000" lon="-6.1501720">
    <ele>3.8</ele>
    <time>2025-04-24T14:45:44Z</time>
   </trkpt>
   <trkpt lat="53.4516370" lon="-6.1502720">
    <ele>3.8</ele>
    <time>2025-04-24T14:45:50Z</time>
   </trkpt>
   <trkpt lat="53.4516760" lon="-6.1503570">
    <ele>3.8</ele>
    <time>2025-04-24T14:45:55Z</time>
   </trkpt>
   <trkpt lat="53.4517080" lon="-6.1504280">
    <ele>3.8</ele>
    <time>2025-04-24T14:46:00Z</time>
   </trkpt>
   <trkpt lat="53.4517290" lon="-6.1505330">
    <ele>3.9</ele>
    <time>2025-04-24T14:46:05Z</time>
   </trkpt>
   <trkpt lat="53.4517560" lon="-6.1506180">
    <ele>4.0</ele>
    <time>2025-04-24T14:46:10Z</time>
   </trkpt>
   <trkpt lat="53.4517820" lon="-6.1507150">
    <ele>4.1</ele>
    <time>2025-04-24T14:46:16Z</time>
   </trkpt>
   <trkpt lat="53.4518240" lon="-6.1508160">
    <ele>4.1</ele>
    <time>2025-04-24T14:46:21Z</time>
   </trkpt>
   <trkpt lat="53.4518810" lon="-6.1508360">
    <ele>4.1</ele>
    <time>2025-04-24T14:46:27Z</time>
   </trkpt>
   <trkpt lat="53.4519170" lon="-6.1508920">
    <ele>4.0</ele>
    <time>2025-04-24T14:46:33Z</time>
   </trkpt>
   <trkpt lat="53.4519460" lon="-6.1509680">
    <ele>3.9</ele>
    <time>2025-04-24T14:46:39Z</time>
   </trkpt>
   <trkpt lat="53.4519890" lon="-6.1511340">
    <ele>4.0</ele>
    <time>2025-04-24T14:46:45Z</time>
   </trkpt>
   <trkpt lat="53.4520150" lon="-6.1512190">
    <ele>4.0</ele>
    <time>2025-04-24T14:46:50Z</time>
   </trkpt>
   <trkpt lat="53.4520540" lon="-6.1512820">
    <ele>4.0</ele>
    <time>2025-04-24T14:46:55Z</time>
   </trkpt>
   <trkpt lat="53.4520830" lon="-6.1513610">
    <ele>4.0</ele>
    <time>2025-04-24T14:47:00Z</time>
   </trkpt>
   <trkpt lat="53.4521350" lon="-6.1513980">
    <ele>3.9</ele>
    <time>2025-04-24T14:47:06Z</time>
   </trkpt>
   <trkpt lat="53.4521810" lon="-6.1514590">
    <ele>3.7</ele>
    <time>2025-04-24T14:47:11Z</time>
   </trkpt>
   <trkpt lat="53.4522070" lon="-6.1515580">
    <ele>3.5</ele>
    <time>2025-04-24T14:47:17Z</time>
   </trkpt>
   <trkpt lat="53.4522360" lon="-6.1516380">
    <ele>3.5</ele>
    <time>2025-04-24T14:47:22Z</time>
   </trkpt>
   <trkpt lat="53.4522690" lon="-6.1517240">
    <ele>3.3</ele>
    <time>2025-04-24T14:47:27Z</time>
   </trkpt>
   <trkpt lat="53.4522680" lon="-6.1518230">
    <ele>3.3</ele>
    <time>2025-04-24T14:47:32Z</time>
   </trkpt>
   <trkpt lat="53.4522710" lon="-6.1519180">
    <ele>3.2</ele>
    <time>2025-04-24T14:47:37Z</time>
   </trkpt>
   <trkpt lat="53.4522750" lon="-6.1520230">
    <ele>3.1</ele>
    <time>2025-04-24T14:47:43Z</time>
   </trkpt>
   <trkpt lat="53.4522900" lon="-6.1521250">
    <ele>3.0</ele>
    <time>2025-04-24T14:47:48Z</time>
   </trkpt>
   <trkpt lat="53.4522770" lon="-6.1522520">
    <ele>2.9</ele>
    <time>2025-04-24T14:47:54Z</time>
   </trkpt>
   <trkpt lat="53.4522480" lon="-6.1523580">
    <ele>3.0</ele>
    <time>2025-04-24T14:47:59Z</time>
   </trkpt>
   <trkpt lat="53.4522960" lon="-6.1524300">
    <ele>2.9</ele>
    <time>2025-04-24T14:48:04Z</time>
   </trkpt>
   <trkpt lat="53.4523090" lon="-6.1525190">
    <ele>2.8</ele>
    <time>2025-04-24T14:48:09Z</time>
   </trkpt>
   <trkpt lat="53.4523190" lon="-6.1526280">
    <ele>2.8</ele>
    <time>2025-04-24T14:48:14Z</time>
   </trkpt>
   <trkpt lat="53.4523190" lon="-6.1527400">
    <ele>2.9</ele>
    <time>2025-04-24T14:48:20Z</time>
   </trkpt>
   <trkpt lat="53.4523010" lon="-6.1528600">
    <ele>3.1</ele>
    <time>2025-04-24T14:48:25Z</time>
   </trkpt>
   <trkpt lat="53.4522850" lon="-6.1529730">
    <ele>3.3</ele>
    <time>2025-04-24T14:48:30Z</time>
   </trkpt>
   <trkpt lat="53.4522740" lon="-6.1530930">
    <ele>3.6</ele>
    <time>2025-04-24T14:48:35Z</time>
   </trkpt>
   <trkpt lat="53.4522650" lon="-6.1532060">
    <ele>3.8</ele>
    <time>2025-04-24T14:48:41Z</time>
   </trkpt>
   <trkpt lat="53.4522540" lon="-6.1533120">
    <ele>3.9</ele>
    <time>2025-04-24T14:48:46Z</time>
   </trkpt>
   <trkpt lat="53.4522400" lon="-6.1534160">
    <ele>4.1</ele>
    <time>2025-04-24T14:48:51Z</time>
   </trkpt>
   <trkpt lat="53.4522290" lon="-6.1535180">
    <ele>4.1</ele>
    <time>2025-04-24T14:48:57Z</time>
   </trkpt>
   <trkpt lat="53.4522140" lon="-6.1536200">
    <ele>4.2</ele>
    <time>2025-04-24T14:49:02Z</time>
   </trkpt>
   <trkpt lat="53.4522060" lon="-6.1537180">
    <ele>4.2</ele>
    <time>2025-04-24T14:49:07Z</time>
   </trkpt>
   <trkpt lat="53.4521960" lon="-6.1538190">
    <ele>4.2</ele>
    <time>2025-04-24T14:49:12Z</time>
   </trkpt>
   <trkpt lat="53.4522080" lon="-6.1539140">
    <ele>4.1</ele>
    <time>2025-04-24T14:49:18Z</time>
   </trkpt>
   <trkpt lat="53.4522170" lon="-6.1539990">
    <ele>4.1</ele>
    <time>2025-04-24T14:49:47Z</time>
   </trkpt>
   <trkpt lat="53.4522630" lon="-6.1540290">
    <ele>4.1</ele>
    <time>2025-04-24T14:49:54Z</time>
   </trkpt>
   <trkpt lat="53.4523220" lon="-6.1540250">
    <ele>4.1</ele>
    <time>2025-04-24T14:49:59Z</time>
   </trkpt>
   <trkpt lat="53.4523590" lon="-6.1540710">
    <ele>4.1</ele>
    <time>2025-04-24T14:50:05Z</time>
   </trkpt>
   <trkpt lat="53.4523560" lon="-6.1541620">
    <ele>4.0</ele>
    <time>2025-04-24T14:50:11Z</time>
   </trkpt>
   <trkpt lat="53.4523530" lon="-6.1540800">
    <ele>4.0</ele>
    <time>2025-04-24T14:56:48Z</time>
   </trkpt>
   <trkpt lat="53.4523070" lon="-6.1539610">
    <ele>4.0</ele>
    <time>2025-04-24T14:56:54Z</time>
   </trkpt>
   <trkpt lat="53.4522270" lon="-6.1539860">
    <ele>4.1</ele>
    <time>2025-04-24T14:56:59Z</time>
   </trkpt>
   <trkpt lat="53.4521640" lon="-6.1540070">
    <ele>4.1</ele>
    <time>2025-04-24T14:57:04Z</time>
   </trkpt>
   <trkpt lat="53.4521530" lon="-6.1541100">
    <ele>4.1</ele>
    <time>2025-04-24T14:57:10Z</time>
   </trkpt>
   <trkpt lat="53.4521480" lon="-6.1542080">
    <ele>4.0</ele>
    <time>2025-04-24T14:57:15Z</time>
   </trkpt>
   <trkpt lat="53.4521580" lon="-6.1542920">
    <ele>4.0</ele>
    <time>2025-04-24T14:57:21Z</time>
   </trkpt>
   <trkpt lat="53.4521430" lon="-6.1543680">
    <ele>4.0</ele>
    <time>2025-04-24T14:57:27Z</time>
   </trkpt>
   <trkpt lat="53.4521370" lon="-6.1544730">
    <ele>3.9</ele>
    <time>2025-04-24T14:57:32Z</time>
   </trkpt>
   <trkpt lat="53.4521340" lon="-6.1545940">
    <ele>3.8</ele>
    <time>2025-04-24T14:57:38Z</time>
   </trkpt>
   <trkpt lat="53.4521330" lon="-6.1546960">
    <ele>3.7</ele>
    <time>2025-04-24T14:57:43Z</time>
   </trkpt>
   <trkpt lat="53.4521320" lon="-6.1547790">
    <ele>3.6</ele>
    <time>2025-04-24T14:57:49Z</time>
   </trkpt>
   <trkpt lat="53.4521300" lon="-6.1548960">
    <ele>3.5</ele>
    <time>2025-04-24T14:57:54Z</time>
   </trkpt>
   <trkpt lat="53.4521220" lon="-6.1549860">
    <ele>3.5</ele>
    <time>2025-04-24T14:58:00Z</time>
   </trkpt>
   <trkpt lat="53.4520790" lon="-6.1550380">
    <ele>3.5</ele>
    <time>2025-04-24T14:58:20Z</time>
   </trkpt>
   <trkpt lat="53.4520070" lon="-6.1550410">
    <ele>3.6</ele>
    <time>2025-04-24T14:58:25Z</time>
   </trkpt>
   <trkpt lat="53.4519490" lon="-6.1549970">
    <ele>3.8</ele>
    <time>2025-04-24T14:58:31Z</time>
   </trkpt>
   <trkpt lat="53.4518950" lon="-6.1549470">
    <ele>3.9</ele>
    <time>2025-04-24T14:58:36Z</time>
   </trkpt>
   <trkpt lat="53.4518300" lon="-6.1549360">
    <ele>4.1</ele>
    <time>2025-04-24T14:58:41Z</time>
   </trkpt>
   <trkpt lat="53.4517690" lon="-6.1549420">
    <ele>4.3</ele>
    <time>2025-04-24T14:58:47Z</time>
   </trkpt>
   <trkpt lat="53.4517100" lon="-6.1549510">
    <ele>4.5</ele>
    <time>2025-04-24T14:58:52Z</time>
   </trkpt>
   <trkpt lat="53.4516390" lon="-6.1549570">
    <ele>4.8</ele>
    <time>2025-04-24T14:58:58Z</time>
   </trkpt>
   <trkpt lat="53.4515830" lon="-6.1549640">
    <ele>5.1</ele>
    <time>2025-04-24T14:59:03Z</time>
   </trkpt>
   <trkpt lat="53.4515280" lon="-6.1549610">
    <ele>5.4</ele>
    <time>2025-04-24T14:59:08Z</time>
   </trkpt>
   <trkpt lat="53.4514660" lon="-6.1549600">
    <ele>5.8</ele>
    <time>2025-04-24T14:59:14Z</time>
   </trkpt>
   <trkpt lat="53.4513980" lon="-6.1549650">
    <ele>6.2</ele>
    <time>2025-04-24T14:59:19Z</time>
   </trkpt>
   <trkpt lat="53.4513350" lon="-6.1549760">
    <ele>6.7</ele>
    <time>2025-04-24T14:59:24Z</time>
   </trkpt>
   <trkpt lat="53.4512760" lon="-6.1549930">
    <ele>7.2</ele>
    <time>2025-04-24T14:59:30Z</time>
   </trkpt>
   <trkpt lat="53.4511970" lon="-6.1550140">
    <ele>7.7</ele>
    <time>2025-04-24T14:59:35Z</time>
   </trkpt>
   <trkpt lat="53.4511460" lon="-6.1550250">
    <ele>8.2</ele>
    <time>2025-04-24T14:59:41Z</time>
   </trkpt>
   <trkpt lat="53.4511860" lon="-6.1550580">
    <ele>8.5</ele>
    <time>2025-04-24T15:00:11Z</time>
   </trkpt>
   <trkpt lat="53.4511590" lon="-6.1549880">
    <ele>8.5</ele>
    <time>2025-04-24T15:00:20Z</time>
   </trkpt>
   <trkpt lat="53.4510900" lon="-6.1549640">
    <ele>8.8</ele>
    <time>2025-04-24T15:00:25Z</time>
   </trkpt>
   <trkpt lat="53.4510190" lon="-6.1549370">
    <ele>9.2</ele>
    <time>2025-04-24T15:00:30Z</time>
   </trkpt>
   <trkpt lat="53.4509570" lon="-6.1549120">
    <ele>9.7</ele>
    <time>2025-04-24T15:00:35Z</time>
   </trkpt>
   <trkpt lat="53.4508860" lon="-6.1548870">
    <ele>10.1</ele>
    <time>2025-04-24T15:00:41Z</time>
   </trkpt>
   <trkpt lat="53.4508220" lon="-6.1548790">
    <ele>10.6</ele>
    <time>2025-04-24T15:00:46Z</time>
   </trkpt>
   <trkpt lat="53.4507560" lon="-6.1548680">
    <ele>11.0</ele>
    <time>2025-04-24T15:00:52Z</time>
   </trkpt>
   <trkpt lat="53.4506940" lon="-6.1548190">
    <ele>11.4</ele>
    <time>2025-04-24T15:00:58Z</time>
   </trkpt>
   <trkpt lat="53.4506180" lon="-6.1547940">
    <ele>11.8</ele>
    <time>2025-04-24T15:01:03Z</time>
   </trkpt>
   <trkpt lat="53.4506020" lon="-6.1548680">
    <ele>12.0</ele>
    <time>2025-04-24T15:01:09Z</time>
   </trkpt>
   <trkpt lat="53.4505920" lon="-6.1549800">
    <ele>12.2</ele>
    <time>2025-04-24T15:01:15Z</time>
   </trkpt>
   <trkpt lat="53.4505910" lon="-6.1550580">
    <ele>12.4</ele>
    <time>2025-04-24T15:02:51Z</time>
   </trkpt>
   <trkpt lat="53.4505670" lon="-6.1551760">
    <ele>12.4</ele>
    <time>2025-04-24T15:02:56Z</time>
   </trkpt>
   <trkpt lat="53.4505320" lon="-6.1552860">
    <ele>12.6</ele>
    <time>2025-04-24T15:03:02Z</time>
   </trkpt>
   <trkpt lat="53.4505070" lon="-6.1553850">
    <ele>12.8</ele>
    <time>2025-04-24T15:03:07Z</time>
   </trkpt>
   <trkpt lat="53.4504850" lon="-6.1554980">
    <ele>13.0</ele>
    <time>2025-04-24T15:03:12Z</time>
   </trkpt>
   <trkpt lat="53.4504660" lon="-6.1556140">
    <ele>13.1</ele>
    <time>2025-04-24T15:03:17Z</time>
   </trkpt>
   <trkpt lat="53.4504530" lon="-6.1557280">
    <ele>13.2</ele>
    <time>2025-04-24T15:03:22Z</time>
   </trkpt>
   <trkpt lat="53.4504440" lon="-6.1558440">
    <ele>13.2</ele>
    <time>2025-04-24T15:03:27Z</time>
   </trkpt>
   <trkpt lat="53.4504300" lon="-6.1559660">
    <ele>13.3</ele>
    <time>2025-04-24T15:03:33Z</time>
   </trkpt>
   <trkpt lat="53.4504150" lon="-6.1560970">
    <ele>13.3</ele>
    <time>2025-04-24T15:03:38Z</time>
   </trkpt>
   <trkpt lat="53.4503990" lon="-6.1562030">
    <ele>13.3</ele>
    <time>2025-04-24T15:03:43Z</time>
   </trkpt>
   <trkpt lat="53.4503940" lon="-6.1563190">
    <ele>13.4</ele>
    <time>2025-04-24T15:03:48Z</time>
   </trkpt>
   <trkpt lat="53.4503780" lon="-6.1564210">
    <ele>13.4</ele>
    <time>2025-04-24T15:03:54Z</time>
   </trkpt>
   <trkpt lat="53.4503490" lon="-6.1565160">
    <ele>13.4</ele>
    <time>2025-04-24T15:03:59Z</time>
   </trkpt>
   <trkpt lat="53.4503140" lon="-6.1565810">
    <ele>13.5</ele>
    <time>2025-04-24T15:04:05Z</time>
   </trkpt>
   <trkpt lat="53.4502960" lon="-6.1566910">
    <ele>13.5</ele>
    <time>2025-04-24T15:04:10Z</time>
   </trkpt>
   <trkpt lat="53.4502720" lon="-6.1568120">
    <ele>13.6</ele>
    <time>2025-04-24T15:04:15Z</time>
   </trkpt>
   <trkpt lat="53.4502740" lon="-6.1569030">
    <ele>13.5</ele>
    <time>2025-04-24T15:04:21Z</time>
   </trkpt>
   <trkpt lat="53.4503140" lon="-6.1568670">
    <ele>13.5</ele>
    <time>2025-04-24T15:04:35Z</time>
   </trkpt>
   <trkpt lat="53.4503560" lon="-6.1569150">
    <ele>13.4</ele>
    <time>2025-04-24T15:04:52Z</time>
   </trkpt>
   <trkpt lat="53.4504260" lon="-6.1569350">
    <ele>13.3</ele>
    <time>2025-04-24T15:04:58Z</time>
   </trkpt>
   <trkpt lat="53.4504710" lon="-6.1569740">
    <ele>13.2</ele>
    <time>2025-04-24T15:05:03Z</time>
   </trkpt>
   <trkpt lat="53.4505080" lon="-6.1570200">
    <ele>13.0</ele>
    <time>2025-04-24T15:05:09Z</time>
   </trkpt>
   <trkpt lat="53.4505610" lon="-6.1570790">
    <ele>12.8</ele>
    <time>2025-04-24T15:05:14Z</time>
   </trkpt>
   <trkpt lat="53.4506240" lon="-6.1571340">
    <ele>12.6</ele>
    <time>2025-04-24T15:05:20Z</time>
   </trkpt>
   <trkpt lat="53.4506990" lon="-6.1571490">
    <ele>12.4</ele>
    <time>2025-04-24T15:05:25Z</time>
   </trkpt>
   <trkpt lat="53.4507490" lon="-6.1572190">
    <ele>12.1</ele>
    <time>2025-04-24T15:05:31Z</time>
   </trkpt>
   <trkpt lat="53.4507940" lon="-6.1572530">
    <ele>11.8</ele>
    <time>2025-04-24T15:05:36Z</time>
   </trkpt>
   <trkpt lat="53.4508430" lon="-6.1572290">
    <ele>11.5</ele>
    <time>2025-04-24T15:05:42Z</time>
   </trkpt>
   <trkpt lat="53.4508890" lon="-6.1572470">
    <ele>11.3</ele>
    <time>2025-04-24T15:05:47Z</time>
   </trkpt>
   <trkpt lat="53.4509570" lon="-6.1572420">
    <ele>11.0</ele>
    <time>2025-04-24T15:05:52Z</time>
   </trkpt>
   <trkpt lat="53.4510020" lon="-6.1572240">
    <ele>10.7</ele>
    <time>2025-04-24T15:05:58Z</time>
   </trkpt>
   <trkpt lat="53.4510320" lon="-6.1571340">
    <ele>10.6</ele>
    <time>2025-04-24T15:06:03Z</time>
   </trkpt>
   <trkpt lat="53.4510320" lon="-6.1570510">
    <ele>10.5</ele>
    <time>2025-04-24T15:06:09Z</time>
   </trkpt>
  </trkseg>
 </trk>
</gpx>
